Provisional Data: Baldwin Run near Wellsboro Junction, PA


Please select a monitoring station.
Please select start date.
Please select start date.

Toggle Unit: C/F Toggle Unit: C/F
Sample Time Temperature (C) Temperature (F) Specific Conductivity (mS/cm) pH   Turbidity (NTU+) DO (mg/L)
11/2/2022 12:00:00 AM 9.33 48.794 0.049 7.7 248.46 8.14
11/2/2022 12:15:00 AM 9.27 48.686 0.049 7.69 189.21 7.99
11/2/2022 12:30:00 AM 9.22 48.596 0.049 7.69 478.68 7.79
11/2/2022 12:45:00 AM 9.16 48.488 0.05 7.69 251.81 8.91
11/2/2022 1:00:00 AM 9.1 48.38 0.049 7.69 177.58 7.79
11/2/2022 1:15:00 AM 9.04 48.272 0.049 7.69 164.2 8.23
11/2/2022 1:30:00 AM 8.98 48.164 0.049 7.69 152.7 8.6
11/2/2022 1:45:00 AM 8.93 48.074 0.049 7.69 159.32 8.67
11/2/2022 2:00:00 AM 8.89 48.002 0.049 7.69 139.24 8.73
11/2/2022 2:15:00 AM 8.85 47.93 0.049 7.69 158.49 8.87
11/2/2022 2:30:00 AM 8.81 47.858 0.049 7.69 145.16 8.86
11/2/2022 2:45:00 AM 8.76 47.768 0.049 7.69 157.09 8.78
11/2/2022 3:00:00 AM 8.71 47.678 0.05 7.69 156.87 8.8
11/2/2022 3:15:00 AM 8.69 47.642 0.05 7.69 294.09 8.86
11/2/2022 3:30:00 AM 8.67 47.606 0.05 7.69 233.03 8.82
11/2/2022 3:45:00 AM 8.67 47.606 0.05 7.69 216.46 8.84
11/2/2022 4:00:00 AM 8.67 47.606 0.05 7.69 489.66 8.83
11/2/2022 4:15:00 AM 8.67 47.606 0.05 7.69 691.01 8.61
11/2/2022 4:30:00 AM 8.68 47.624 0.05 7.69 630.21 8.66
11/2/2022 4:45:00 AM 8.68 47.624 0.05 7.7 644.15 8.38
11/2/2022 5:00:00 AM 8.68 47.624 0.05 7.7 894.59 8.45
11/2/2022 5:15:00 AM 8.68 47.624 0.049 7.7 1055.15 8.08
11/2/2022 5:30:00 AM 8.68 47.624 0.049 7.7 985.74 8.19
11/2/2022 5:45:00 AM 8.67 47.606 0.049 7.7 836.82 8.58
11/2/2022 6:00:00 AM 8.67 47.606 0.049 7.7 1006.84 8.53
11/2/2022 6:15:00 AM 8.66 47.588 0.049 7.71 773.69 8.59
11/2/2022 6:30:00 AM 8.64 47.552 0.049 7.71 897.66 8.77
11/2/2022 6:45:00 AM 8.63 47.534 0.049 7.71 880.17 8.69
11/2/2022 7:00:00 AM 8.62 47.516 0.049 7.71 751.99 8.63
11/2/2022 7:15:00 AM 8.6 47.48 0.049 7.7 334.31 8.75
11/2/2022 7:30:00 AM 8.59 47.462 0.049 7.7 144.53 8.91
11/2/2022 7:45:00 AM 8.57 47.426 0.049 7.7 152.34 8.9
11/2/2022 8:00:00 AM 8.56 47.408 0.049 7.71 208.6 9.03
11/2/2022 8:15:00 AM 8.55 47.39 0.049 7.71 190.55 8.84
11/2/2022 8:30:00 AM 8.55 47.39 0.049 7.71 170.1 8.94
11/2/2022 8:45:00 AM 8.55 47.39 0.049 7.71 157.58 8.92
11/2/2022 9:00:00 AM 8.56 47.408 0.049 7.72 169.57 8.82
11/2/2022 9:15:00 AM 8.57 47.426 0.049 7.72 215.67 8.87
11/2/2022 9:30:00 AM 8.58 47.444 0.049 7.72 190.26 9.24
11/2/2022 9:45:00 AM 8.61 47.498 0.049 7.73 202.63 9.09
11/2/2022 10:00:00 AM 8.65 47.57 0.049 7.73 212.35 8.92
11/2/2022 10:15:00 AM 8.69 47.642 0.049 7.73 232.68 9.12
11/2/2022 10:30:00 AM 8.75 47.75 0.049 7.74 199.17 9.09
11/2/2022 10:45:00 AM 8.81 47.858 0.049 7.74 185.67 9.19
11/2/2022 11:00:00 AM 8.9 48.02 0.049 7.74 171.19 9.23
11/2/2022 11:15:00 AM 8.99 48.182 0.049 7.74 164.19 9.33
11/2/2022 11:30:00 AM 9.01 48.218 0.049 7.74 157.52 9.3
11/2/2022 11:45:00 AM 9.03 48.254 0.049 7.74 153.25 9.29
11/2/2022 12:00:00 PM 9.06 48.308 0.049 7.74 215.15 9.23
11/2/2022 12:15:00 PM 9.08 48.344 0.049 7.74 242.32 9.28
11/2/2022 12:30:00 PM 9.11 48.398 0.049 7.74 263.31 9.36
11/2/2022 12:45:00 PM 9.13 48.434 0.049 7.73 242.95 9.4
11/2/2022 1:00:00 PM 9.16 48.488 0.049 7.73 269.83 9.44
11/2/2022 1:15:00 PM 9.2 48.56 0.05 7.73 287.46 9.28
11/2/2022 1:30:00 PM 9.26 48.668 0.05 7.73 379.84 9.26
11/2/2022 1:45:00 PM 9.31 48.758 0.05 7.73 380.28 9.36
11/2/2022 2:00:00 PM 9.37 48.866 0.05 7.74 348.85 9.37
11/2/2022 2:15:00 PM 9.39 48.902 0.05 7.73 369.6 9.34
11/2/2022 2:30:00 PM 9.42 48.956 0.05 7.73 391.99 9.38
11/2/2022 2:45:00 PM 9.43 48.974 0.05 7.73 409.51 9.14
11/2/2022 3:00:00 PM 9.45 49.01 0.05 7.74 403.76 9.08
11/2/2022 3:15:00 PM 9.47 49.046 0.05 7.73 401.1 9.21
11/2/2022 3:30:00 PM 9.49 49.082 0.05 7.73 383.66 9.2
11/2/2022 3:45:00 PM 9.51 49.118 0.05 7.73 392.01 9.19
11/2/2022 4:00:00 PM 9.53 49.154 0.05 7.73 398.3 9.24
11/2/2022 4:15:00 PM 9.54 49.172 0.05 7.73 393.88 9.23
11/2/2022 4:30:00 PM 9.55 49.19 0.05 7.73 386.73 9.27
11/2/2022 4:45:00 PM 9.55 49.19 0.05 7.73 405.5 9.14
11/2/2022 5:00:00 PM 9.55 49.19 0.05 7.72 397.36 9.01
11/2/2022 5:15:00 PM 9.53 49.154 0.05 7.72 386.05 8.72
11/2/2022 5:30:00 PM 9.5 49.1 0.05 7.72 393.98 8.6
11/2/2022 5:45:00 PM 9.47 49.046 0.05 7.71 390.14 8.53
11/2/2022 6:00:00 PM 9.42 48.956 0.05 7.71 391.11 8.52
11/2/2022 6:15:00 PM 9.37 48.866 0.049 7.71 389.4 8.39
11/2/2022 6:30:00 PM 9.31 48.758 0.05 7.71 381.95 8.55
11/2/2022 6:45:00 PM 9.25 48.65 0.05 7.71 389.18 8.56
11/2/2022 7:00:00 PM 9.19 48.542 0.05 7.71 385.32 8.73
11/2/2022 7:15:00 PM 9.13 48.434 0.05 7.71 378.84 8.74
11/2/2022 7:30:00 PM 9.07 48.326 0.05 7.71 372.19 8.41
11/2/2022 7:45:00 PM 9.01 48.218 0.05 7.7 410 7.93
11/2/2022 8:00:00 PM 8.95 48.11 0.05 7.71 398.43 7.86
11/2/2022 8:15:00 PM 8.89 48.002 0.05 7.7 385.78 7.76
11/2/2022 8:30:00 PM 8.83 47.894 0.05 7.7 389.55 8.11
11/2/2022 8:45:00 PM 8.78 47.804 0.05 7.7 550.87 8.26
11/2/2022 9:00:00 PM 8.73 47.714 0.051 7.7 1003.66 8.28
11/2/2022 9:15:00 PM 8.67 47.606 0.051 7.7 675.12 8.13
11/2/2022 9:30:00 PM 8.6 47.48 0.051 7.7 499.41 7.67
11/2/2022 9:45:00 PM 8.54 47.372 0.051 7.7 602.84 7.82
11/2/2022 10:00:00 PM 8.48 47.264 0.051 7.7 505.64 8.05
11/2/2022 10:15:00 PM 8.42 47.156 0.051 7.69 618.44 8.21
11/2/2022 10:30:00 PM 8.37 47.066 0.051 7.69 628.73 8.34
11/2/2022 10:45:00 PM 8.31 46.958 0.051 7.69 805.86 8.49
11/2/2022 11:00:00 PM 8.26 46.868 0.051 7.69 706.69 8.65
11/2/2022 11:15:00 PM 8.2 46.76 0.051 7.69 674.65 8.82
11/2/2022 11:30:00 PM 8.15 46.67 0.051 7.69 675.35 8.91
11/2/2022 11:45:00 PM 8.1 46.58 0.051 7.69 624.87 8.89
11/3/2022 12:00:00 AM 8.05 46.49 0.051 7.69 719.1 8.59
11/3/2022 12:15:00 AM 7.98 46.364 0.051 7.68 738.86 8.67
11/3/2022 12:30:00 AM 7.93 46.274 0.051 7.69 754.82 9.95
11/3/2022 12:45:00 AM 7.88 46.184 0.051 7.69 750.07 10.14
11/3/2022 1:00:00 AM 7.83 46.094 0.051 7.69 725.6 9.2
11/3/2022 1:15:00 AM 7.77 45.986 0.051 7.69 670.06 10.69
11/3/2022 1:30:00 AM 7.72 45.896 0.051 7.69 680.9 10.63
11/3/2022 1:45:00 AM 7.67 45.806 0.051 7.69 708.18 10.54
11/3/2022 2:00:00 AM 7.62 45.716 0.051 7.69 717.35 9.37
11/3/2022 2:15:00 AM 7.56 45.608 0.051 7.68 720.46 10.25
11/3/2022 2:30:00 AM 7.5 45.5 0.051 7.68 758.31 10.4
11/3/2022 2:45:00 AM 7.45 45.41 0.051 7.68 716.25 10.46
11/3/2022 3:00:00 AM 7.4 45.32 0.052 7.68 644.95 10.77
11/3/2022 3:15:00 AM 7.35 45.23 0.052 7.68 670.8 10.81
11/3/2022 3:30:00 AM 7.3 45.14 0.051 7.68 687.23 10.85
11/3/2022 3:45:00 AM 7.25 45.05 0.051 7.69 744.49 10.63
11/3/2022 4:00:00 AM 7.2 44.96 0.051 7.68 791.4 10.75
11/3/2022 4:15:00 AM 7.15 44.87 0.052 7.68 798.47 10.93
11/3/2022 4:30:00 AM 7.09 44.762 0.052 7.69 810.1 11.07
11/3/2022 4:45:00 AM 7.04 44.672 0.052 7.69 879.8 11.11
11/3/2022 5:00:00 AM 6.99 44.582 0.052 7.69 855.27 11.13
11/3/2022 5:15:00 AM 6.94 44.492 0.052 7.69 826.53 11.16
11/3/2022 5:30:00 AM 6.91 44.438 0.052 7.69 799.17 11.14
11/3/2022 5:45:00 AM 6.86 44.348 0.051 7.69 774.77 11.15
11/3/2022 6:00:00 AM -99999.99 -179968 -99999.99 -99999.99 -99999.99 -99999.99
11/3/2022 6:15:00 AM -99999.99 -179968 -99999.99 -99999.99 -99999.99 -99999.99
11/3/2022 6:30:00 AM -99999.99 -179968 -99999.99 -99999.99 -99999.99 -99999.99
11/3/2022 6:45:00 AM -99999.99 -179968 -99999.99 -99999.99 -99999.99 -99999.99
11/3/2022 7:00:00 AM -99999.99 -179968 -99999.99 -99999.99 -99999.99 -99999.99
11/3/2022 7:15:00 AM -99999.99 -179968 -99999.99 -99999.99 -99999.99 -99999.99
11/3/2022 7:30:00 AM -99999.99 -179968 -99999.99 -99999.99 -99999.99 -99999.99
11/3/2022 7:45:00 AM -99999.99 -179968 -99999.99 -99999.99 -99999.99 -99999.99
11/3/2022 8:00:00 AM -99999.99 -179968 -99999.99 -99999.99 -99999.99 -99999.99
11/3/2022 8:15:00 AM -99999.99 -179968 -99999.99 -99999.99 -99999.99 -99999.99
11/3/2022 8:30:00 AM -99999.99 -179968 -99999.99 -99999.99 -99999.99 -99999.99
11/3/2022 8:45:00 AM 6.41 43.538 0.051 7.71 853.61 11.43
11/3/2022 9:00:00 AM 6.43 43.574 0.052 7.71 834.72 11.44
11/3/2022 9:15:00 AM 6.45 43.61 0.052 7.72 845.85 11.42
11/3/2022 9:30:00 AM 6.48 43.664 0.051 7.72 860.41 11.42
11/3/2022 9:45:00 AM 6.53 43.754 0.051 7.72 817.76 11.37
11/3/2022 10:00:00 AM 6.59 43.862 0.052 7.72 819.75 11.38
11/3/2022 10:15:00 AM 6.66 43.988 0.052 7.72 830.82 11.31
11/3/2022 10:30:00 AM 6.76 44.168 0.052 7.72 797.99 11.34
11/3/2022 10:45:00 AM 6.86 44.348 0.051 7.72 710.95 11.35
11/3/2022 11:00:00 AM 6.94 44.492 0.051 7.73 684.74 11.35
11/3/2022 11:15:00 AM 7.02 44.636 0.052 7.73 691.95 11.32
11/3/2022 11:30:00 AM 7.11 44.798 0.051 7.73 646.43 11.3
11/3/2022 11:45:00 AM 7.23 45.014 0.052 7.73 660.08 11.29
11/3/2022 12:00:00 PM 7.35 45.23 0.051 7.73 640.61 11.25
11/3/2022 12:15:00 PM 7.49 45.482 0.051 7.74 658.48 11.19
11/3/2022 12:30:00 PM 7.62 45.716 0.052 7.75 643.31 11.13
11/3/2022 12:45:00 PM 7.74 45.932 0.051 7.75 670.85 11.08
11/3/2022 1:00:00 PM 7.85 46.13 0.052 7.75 638.47 11.04
11/3/2022 1:15:00 PM 7.98 46.364 0.051 7.75 569.34 11
11/3/2022 1:30:00 PM 8.08 46.544 0.051 7.75 647.95 10.97
11/3/2022 1:45:00 PM 8.19 46.742 0.051 7.75 723.88 10.93
11/3/2022 2:00:00 PM 8.27 46.886 0.051 7.75 488.32 10.9
11/3/2022 2:15:00 PM 8.35 47.03 0.052 7.75 550.9 10.88
11/3/2022 2:30:00 PM 8.42 47.156 0.052 7.76 452.21 10.85
11/3/2022 2:45:00 PM 8.47 47.246 0.052 7.75 495.64 10.84
11/3/2022 3:00:00 PM 8.53 47.354 0.052 7.76 480.06 10.81
11/3/2022 3:15:00 PM 8.57 47.426 0.052 7.75 387.47 10.8
11/3/2022 3:30:00 PM 8.62 47.516 0.052 7.75 444.06 10.78
11/3/2022 3:45:00 PM 8.66 47.588 0.052 7.75 420.93 10.76
11/3/2022 4:00:00 PM 8.69 47.642 0.052 7.75 457.67 10.76
11/3/2022 4:15:00 PM 8.71 47.678 0.052 7.75 439.94 10.75
11/3/2022 4:30:00 PM 8.72 47.696 0.051 7.74 488.3 10.73
11/3/2022 4:45:00 PM 8.72 47.696 0.051 7.74 435.54 10.73
11/3/2022 5:00:00 PM 8.72 47.696 0.051 7.74 491.8 10.71
11/3/2022 5:15:00 PM 8.71 47.678 0.051 7.74 486.86 10.7
11/3/2022 5:30:00 PM 8.68 47.624 0.052 7.73 565.87 10.72
11/3/2022 5:45:00 PM 8.66 47.588 0.051 7.73 570.54 10.58
11/3/2022 6:00:00 PM 8.62 47.516 0.051 7.73 483.57 10.56
11/3/2022 6:15:00 PM 8.58 47.444 0.051 7.73 446.67 10.01
11/3/2022 6:30:00 PM 8.54 47.372 0.051 7.72 441.92 10.3
11/3/2022 6:45:00 PM 8.5 47.3 0.051 7.73 428.81 10.3
11/3/2022 7:00:00 PM 8.45 47.21 0.051 7.72 433.17 10.31
11/3/2022 7:15:00 PM 8.4 47.12 0.051 7.72 473.27 10.32
11/3/2022 7:30:00 PM 8.35 47.03 0.051 7.72 418.28 10.31
11/3/2022 7:45:00 PM 8.31 46.958 0.05 7.72 427.68 10.26
11/3/2022 8:00:00 PM 8.26 46.868 0.05 7.72 431.31 10.31
11/3/2022 8:15:00 PM 8.22 46.796 0.05 7.72 410.51 10.14
11/3/2022 8:30:00 PM 8.17 46.706 0.05 7.72 418.33 10.11
11/3/2022 8:45:00 PM 8.13 46.634 0.05 7.72 411.69 10.05
11/3/2022 9:00:00 PM 8.08 46.544 0.05 7.71 407.06 10.08
11/3/2022 9:15:00 PM 8.04 46.472 0.05 7.71 412.28 10.08
11/3/2022 9:30:00 PM 7.99 46.382 0.05 7.71 378.77 10.14
11/3/2022 9:45:00 PM 7.94 46.292 0.05 7.71 416.02 10.14
11/3/2022 10:00:00 PM 7.9 46.22 0.05 7.71 374.74 9.88
11/3/2022 10:15:00 PM 7.85 46.13 0.05 7.71 400.26 9.53
11/3/2022 10:30:00 PM 7.8 46.04 0.05 7.71 393.88 9.38
11/3/2022 10:45:00 PM 7.76 45.968 0.05 7.7 407.89 9.57
11/3/2022 11:00:00 PM 7.71 45.878 0.05 7.7 412.27 9.71
11/3/2022 11:15:00 PM 7.67 45.806 0.049 7.7 375.67 9.73
11/3/2022 11:30:00 PM 7.62 45.716 0.05 7.7 389.4 9.63
11/3/2022 11:45:00 PM 7.58 45.644 0.05 7.7 399.81 9.66
11/4/2022 12:00:00 AM 7.53 45.554 0.05 7.7 406.05 9.59
11/4/2022 12:15:00 AM 7.49 45.482 0.05 7.7 394.31 9.69
11/4/2022 12:30:00 AM 7.45 45.41 0.049 7.7 410.76 9.66
11/4/2022 12:45:00 AM 7.4 45.32 0.049 7.69 419.19 9.56
11/4/2022 1:00:00 AM 7.36 45.248 0.049 7.69 412.67 9.77
11/4/2022 1:15:00 AM 7.32 45.176 0.049 7.69 421.64 9.81
11/4/2022 1:30:00 AM 7.28 45.104 0.05 7.69 427.16 9.79
11/4/2022 1:45:00 AM 7.24 45.032 0.05 7.69 436.44 9.84
11/4/2022 2:00:00 AM 7.2 44.96 0.05 7.69 452.6 9.89
11/4/2022 2:15:00 AM 7.16 44.888 0.049 7.69 461.31 10.13
11/4/2022 2:30:00 AM 7.13 44.834 0.049 7.69 466.45 10.31
11/4/2022 2:45:00 AM 7.09 44.762 0.05 7.69 456.62 10.4
11/4/2022 3:00:00 AM 7.06 44.708 0.049 7.69 450.06 10.22
11/4/2022 3:15:00 AM 7.02 44.636 0.05 7.69 454.47 9.68
11/4/2022 3:30:00 AM 6.99 44.582 0.049 7.69 436.49 9.3
11/4/2022 3:45:00 AM 6.95 44.51 0.049 7.69 431.15 8.79
11/4/2022 4:00:00 AM 6.92 44.456 0.049 7.69 411.9 8.47
11/4/2022 4:15:00 AM 6.89 44.402 0.049 7.69 401.54 7.74
11/4/2022 4:30:00 AM 6.86 44.348 0.049 7.69 379.01 7.53
11/4/2022 4:45:00 AM 6.83 44.294 0.049 7.69 391.48 7.44
11/4/2022 5:00:00 AM 6.8 44.24 0.049 7.69 378.46 7.27
11/4/2022 5:15:00 AM 6.77 44.186 0.049 7.69 362.28 7.35
11/4/2022 5:30:00 AM 6.74 44.132 0.049 7.69 381.25 7.49
11/4/2022 5:45:00 AM 6.72 44.096 0.049 7.69 383.51 7.55
11/4/2022 6:00:00 AM 6.69 44.042 0.049 7.69 404.55 7.61
11/4/2022 6:15:00 AM 6.67 44.006 0.049 7.69 397.61 7.65
11/4/2022 6:30:00 AM 6.64 43.952 0.05 7.69 387.99 7.62
11/4/2022 6:45:00 AM 6.62 43.916 0.05 7.69 384.3 7.6
11/4/2022 7:00:00 AM 6.6 43.88 0.049 7.69 398.51 7.65
11/4/2022 7:15:00 AM -99999.99 -179968 -99999.99 -99999.99 -99999.99 -99999.99
11/4/2022 7:30:00 AM -99999.99 -179968 -99999.99 -99999.99 -99999.99 -99999.99
11/4/2022 7:45:00 AM -99999.99 -179968 -99999.99 -99999.99 -99999.99 -99999.99
11/4/2022 8:00:00 AM -99999.99 -179968 -99999.99 -99999.99 -99999.99 -99999.99
11/4/2022 8:15:00 AM -99999.99 -179968 -99999.99 -99999.99 -99999.99 -99999.99
11/4/2022 8:30:00 AM 6.49 43.682 0.05 7.7 380.17 8.35
11/4/2022 8:45:00 AM 6.49 43.682 0.049 7.7 385.95 8.08
11/4/2022 9:00:00 AM 6.52 43.736 0.049 7.7 375.55 8.09
11/4/2022 9:15:00 AM 6.55 43.79 0.049 7.7 374.81 8.19
11/4/2022 9:30:00 AM 6.6 43.88 0.049 7.7 378.29 8.2
11/4/2022 9:45:00 AM 6.67 44.006 0.049 7.71 401.89 8.22
11/4/2022 10:00:00 AM 6.74 44.132 0.049 7.71 415.72 8.13
11/4/2022 10:15:00 AM 6.84 44.312 0.049 7.71 439.63 8.12
11/4/2022 10:30:00 AM 6.95 44.51 0.049 7.72 367.38 8.11
11/4/2022 10:45:00 AM 7.07 44.726 0.049 7.72 325.98 8.06
11/4/2022 11:00:00 AM 7.18 44.924 0.049 7.73 396.6 7.95
11/4/2022 11:15:00 AM 7.31 45.158 0.049 7.74 378.99 7.97
11/4/2022 11:30:00 AM 7.44 45.392 0.049 7.74 349.34 8.07
11/4/2022 11:45:00 AM 7.58 45.644 0.049 7.75 371.74 8.1
11/4/2022 12:00:00 PM 7.73 45.914 0.049 7.75 368.36 8.05
11/4/2022 12:15:00 PM 7.87 46.166 0.049 7.75 365.5 8.02
11/4/2022 12:30:00 PM 8.01 46.418 0.049 7.75 367.93 7.89
11/4/2022 12:45:00 PM 8.12 46.616 0.049 7.75 332.79 7.9
11/4/2022 1:00:00 PM 8.23 46.814 0.049 7.75 334.36 7.67
11/4/2022 1:15:00 PM 8.32 46.976 0.049 7.76 346.99 8.08
11/4/2022 1:30:00 PM 8.42 47.156 0.049 7.75 329.44 7.73
11/4/2022 1:45:00 PM 8.52 47.336 0.049 7.75 346.92 7.45
11/4/2022 2:00:00 PM 8.61 47.498 0.049 7.75 346.91 7.34
11/4/2022 2:15:00 PM 8.69 47.642 0.049 7.75 328.78 7.3
11/4/2022 2:30:00 PM 8.78 47.804 0.049 7.75 331.09 7.24
11/4/2022 2:45:00 PM 8.85 47.93 0.049 7.75 335.31 7.31
11/4/2022 3:00:00 PM 8.92 48.056 0.05 7.75 319.08 7.44
11/4/2022 3:15:00 PM 9.01 48.218 0.049 7.76 309.44 7.63
11/4/2022 3:30:00 PM 9.1 48.38 0.05 7.76 318.7 7.26
11/4/2022 3:45:00 PM 9.17 48.506 0.05 7.76 343.1 7.02
11/4/2022 4:00:00 PM 9.23 48.614 0.05 7.75 331.77 6.89
11/4/2022 4:15:00 PM 9.26 48.668 0.05 7.75 326.3 6.7
11/4/2022 4:30:00 PM 9.29 48.722 0.05 7.75 325.99 7.14
11/4/2022 4:45:00 PM 9.32 48.776 0.05 7.75 339.53 7.08
11/4/2022 5:00:00 PM 9.33 48.794 0.05 7.74 310.89 7.15
11/4/2022 5:15:00 PM 9.35 48.83 0.05 7.75 294.1 7.44
11/4/2022 5:30:00 PM 9.35 48.83 0.05 7.74 388.35 7.1
11/4/2022 5:45:00 PM 9.34 48.812 0.05 7.74 4400.02 7.09
11/4/2022 6:00:00 PM 9.32 48.776 0.05 7.73 210.1 7.25
11/4/2022 6:15:00 PM 9.29 48.722 0.05 7.72 106.82 6.88
11/4/2022 6:30:00 PM 9.25 48.65 0.049 7.72 126.44 6.97
11/4/2022 6:45:00 PM 9.22 48.596 0.049 7.72 118.57 7.02
11/4/2022 7:00:00 PM 9.19 48.542 0.049 7.72 120.29 7.27
11/4/2022 7:15:00 PM 9.16 48.488 0.048 7.71 279.22 7.78
11/4/2022 7:30:00 PM 9.13 48.434 0.048 7.71 204.45 7.58
11/4/2022 7:45:00 PM 9.1 48.38 0.048 7.71 176.18 7.5
11/4/2022 8:00:00 PM 9.08 48.344 0.048 7.71 359.29 7.57
11/4/2022 8:15:00 PM 9.05 48.29 0.047 7.71 629.45 7.78
11/4/2022 8:30:00 PM 9.03 48.254 0.047 7.71 831.52 7.73
11/4/2022 8:45:00 PM 9.01 48.218 0.047 7.71 525.25 7.57
11/4/2022 9:00:00 PM 9 48.2 0.047 7.71 417.5 7.55
11/4/2022 9:15:00 PM 8.98 48.164 0.047 7.72 231.6 7.52
11/4/2022 9:30:00 PM 8.97 48.146 0.047 7.72 280.16 7.45
11/4/2022 9:45:00 PM 8.96 48.128 0.047 7.72 460.15 7.36
11/4/2022 10:00:00 PM 8.95 48.11 0.047 7.72 178.68 7.34
11/4/2022 10:15:00 PM 8.95 48.11 0.047 7.72 204.77 7.28
11/4/2022 10:30:00 PM 8.94 48.092 0.047 7.72 210.13 7.28
11/4/2022 10:45:00 PM 8.93 48.074 0.047 7.72 242.26 7.15
11/4/2022 11:00:00 PM 8.93 48.074 0.047 7.72 223.22 7.06
11/4/2022 11:15:00 PM 8.92 48.056 0.047 7.72 247.29 6.92
11/4/2022 11:30:00 PM 8.92 48.056 0.047 7.71 252.85 6.87
11/4/2022 11:45:00 PM 8.92 48.056 0.047 7.71 260.99 6.99
11/5/2022 12:00:00 AM 8.92 48.056 0.046 7.71 303.72 7.12
11/5/2022 12:15:00 AM 8.91 48.038 0.047 7.71 256.97 7.24
11/5/2022 12:30:00 AM 8.91 48.038 0.047 7.71 190.16 7.28
11/5/2022 12:45:00 AM 8.9 48.02 0.047 7.71 189.33 7.16
11/5/2022 1:00:00 AM 8.9 48.02 0.047 7.71 185.02 7.19
11/5/2022 1:15:00 AM 8.91 48.038 0.048 7.71 204.84 7.08
11/5/2022 1:30:00 AM 8.92 48.056 0.048 7.71 239.38 7.01
11/5/2022 1:45:00 AM 8.93 48.074 0.047 7.71 200.8 6.84
11/5/2022 2:00:00 AM 8.93 48.074 0.047 7.71 281.66 6.76
11/5/2022 2:15:00 AM 8.94 48.092 0.048 7.71 271.1 6.63
11/5/2022 2:30:00 AM 8.94 48.092 0.048 7.71 243.57 6.53
11/5/2022 2:45:00 AM 8.94 48.092 0.048 7.71 224.8 6.34
11/5/2022 3:00:00 AM 8.94 48.092 0.048 7.71 252 6.28
11/5/2022 3:15:00 AM 8.97 48.146 0.048 7.71 277.51 6.24
11/5/2022 3:30:00 AM 9.02 48.236 0.048 7.71 298.25 6.2
11/5/2022 3:45:00 AM 9.07 48.326 0.048 7.71 224.47 6.13
11/5/2022 4:00:00 AM 9.09 48.362 0.048 7.71 342.75 5.87
11/5/2022 4:15:00 AM 9.11 48.398 0.048 7.7 261.67 5.55
11/5/2022 4:30:00 AM 9.13 48.434 0.048 7.71 229.14 5.3
11/5/2022 4:45:00 AM 9.16 48.488 0.048 7.7 253.89 4.92
11/5/2022 5:00:00 AM 9.19 48.542 0.048 7.71 313.86 4.54
11/5/2022 5:15:00 AM 9.21 48.578 0.048 7.71 186.21 4.2
11/5/2022 5:30:00 AM 9.26 48.668 0.048 7.71 214.21 4
11/5/2022 5:45:00 AM 9.31 48.758 0.049 7.71 191.91 3.83
11/5/2022 6:00:00 AM 9.35 48.83 0.049 7.71 185.84 3.93
11/5/2022 6:15:00 AM 9.4 48.92 0.049 7.71 186.44 4.56
11/5/2022 6:30:00 AM 9.44 48.992 0.049 7.7 194.32 5.21
11/5/2022 6:45:00 AM 9.48 49.064 0.05 7.71 258.43 6.19
11/5/2022 7:00:00 AM 9.51 49.118 0.05 7.7 171.87 6.29
11/5/2022 7:15:00 AM 9.55 49.19 0.05 7.7 155.04 6.57
11/5/2022 7:30:00 AM 9.6 49.28 0.05 7.7 174.29 6.49
11/5/2022 7:45:00 AM 9.64 49.352 0.05 7.7 169.4 6.66
11/5/2022 8:00:00 AM 9.69 49.442 0.05 7.7 165.06 6.44
11/5/2022 8:15:00 AM 9.73 49.514 0.05 7.7 216.3 6.59
11/5/2022 8:30:00 AM 9.78 49.604 0.05 7.71 238.6 6.59
11/5/2022 8:45:00 AM 9.86 49.748 0.05 7.72 393.01 6.54
11/5/2022 9:00:00 AM 9.94 49.892 0.05 7.73 494.64 6.34
11/5/2022 9:15:00 AM 10.02 50.036 0.05 7.73 638.44 6.31
11/5/2022 9:30:00 AM 10.11 50.198 0.05 7.74 783.22 6.09
11/5/2022 9:45:00 AM 10.21 50.378 0.05 7.74 385.7 6.09
11/5/2022 10:00:00 AM 10.33 50.594 0.05 7.75 445.98 6.2
11/5/2022 10:15:00 AM 10.49 50.882 0.05 7.76 530.43 6.09
11/5/2022 10:30:00 AM 10.7 51.26 0.05 7.76 1226.86 5.96
11/5/2022 10:45:00 AM 10.87 51.566 0.049 7.76 1247.39 5.67
11/5/2022 11:00:00 AM 11.03 51.854 0.049 7.77 1260.24 4.94
11/5/2022 11:15:00 AM 11.16 52.088 0.049 7.77 1015.81 4.65
11/5/2022 11:30:00 AM 11.28 52.304 0.05 7.77 1995.93 4.46
11/5/2022 11:45:00 AM 11.42 52.556 0.049 7.77 1886.66 4.41
11/5/2022 12:00:00 PM 11.57 52.826 0.049 7.77 1412.67 4.69
11/5/2022 12:15:00 PM 11.72 53.096 0.049 7.78 1375.79 5.42
11/5/2022 12:30:00 PM 11.86 53.348 0.05 7.78 1307.69 5.87
11/5/2022 12:45:00 PM 12 53.6 0.05 7.78 1665.84 6.08
11/5/2022 1:00:00 PM 12.14 53.852 0.05 7.78 1754.98 6.09
11/5/2022 1:15:00 PM 12.24 54.032 0.05 7.78 1928.42 6.16
11/5/2022 1:30:00 PM 12.34 54.212 0.05 7.78 908.82 5.94
11/5/2022 1:45:00 PM 12.45 54.41 0.05 7.78 559.74 5.96
11/5/2022 2:00:00 PM 12.57 54.626 0.05 7.78 733.3 5.66
11/5/2022 2:15:00 PM 12.65 54.77 0.051 7.77 964.26 5.74
11/5/2022 2:30:00 PM 12.72 54.896 0.051 7.77 687.53 5.7
11/5/2022 2:45:00 PM 12.77 54.986 0.051 7.77 2751.12 5.49
11/5/2022 3:00:00 PM 12.85 55.13 0.051 7.78 1411.63 5.13
11/5/2022 3:15:00 PM 12.88 55.184 0.05 7.77 1204.67 4.91
11/5/2022 3:30:00 PM 12.89 55.202 0.05 7.73 1128.9 4.73
11/5/2022 3:45:00 PM 12.92 55.256 0.051 7.76 2952.54 4.76
11/5/2022 4:00:00 PM 12.92 55.256 0.051 7.76 4004.89 4.84
11/5/2022 4:15:00 PM 12.91 55.238 0.051 7.76 2855.26 3.99
11/5/2022 4:30:00 PM 12.9 55.22 0.051 7.75 3392.71 3.8
11/5/2022 4:45:00 PM 12.91 55.238 0.051 7.75 2231.2 3.8
11/5/2022 5:00:00 PM 12.93 55.274 0.051 7.74 3658.52 3.73
11/5/2022 5:15:00 PM 12.93 55.274 0.051 7.76 3116.42 3.58
11/5/2022 5:30:00 PM 12.89 55.202 0.051 7.76 5490.52 3.31
11/5/2022 5:45:00 PM 12.84 55.112 0.051 7.74 16035.41 3.07
11/5/2022 6:00:00 PM 12.79 55.022 0.051 7.74 22587.01 2.84
11/5/2022 6:15:00 PM 12.75 54.95 0.051 7.73 13134.8 2.74
11/5/2022 6:30:00 PM 12.7 54.86 0.05 7.73 10768.1 2.46
11/5/2022 6:45:00 PM 12.66 54.788 0.051 7.73 9682.18 2.03
11/5/2022 7:00:00 PM 12.64 54.752 0.051 7.73 5031.53 2.04
11/5/2022 7:15:00 PM 12.61 54.698 0.052 7.73 4246.21 2.42
11/5/2022 7:30:00 PM 12.57 54.626 0.051 7.73 1735.91 2.49
11/5/2022 7:45:00 PM 12.53 54.554 0.051 7.73 714.87 2.44
11/5/2022 8:00:00 PM 12.51 54.518 0.051 7.73 1016.14 2.5
11/5/2022 8:15:00 PM 12.47 54.446 0.051 7.72 910.49 2.63
11/5/2022 8:30:00 PM 12.45 54.41 0.052 7.72 1184.59 2.62
11/5/2022 8:45:00 PM 12.44 54.392 0.051 7.72 1068.77 2.6
11/5/2022 9:00:00 PM 12.44 54.392 0.052 7.73 4433.48 2.49
11/5/2022 9:15:00 PM 12.44 54.392 0.052 7.73 4356.66 2.43
11/5/2022 9:30:00 PM 12.44 54.392 0.052 7.73 4009.22 2.45
11/5/2022 9:45:00 PM 12.43 54.374 0.052 7.73 1954.91 2.67
11/5/2022 10:00:00 PM 12.41 54.338 0.052 7.73 2579.76 2.69
11/5/2022 10:15:00 PM 12.4 54.32 0.052 7.72 4097.97 2.89
11/5/2022 10:30:00 PM 12.39 54.302 0.053 7.73 4970.15 3.03
11/5/2022 10:45:00 PM 12.37 54.266 0.053 7.73 1588.08 3.25
11/5/2022 11:00:00 PM 12.38 54.284 0.053 7.73 1714.78 3.27
11/5/2022 11:15:00 PM 12.37 54.266 0.053 7.73 2358.33 3.5
11/5/2022 11:30:00 PM 12.36 54.248 0.053 7.72 4595.54 3.78
11/5/2022 11:45:00 PM 12.37 54.266 0.054 7.73 3881.92 4.06
11/6/2022 12:00:00 AM 12.37 54.266 0.053 7.73 1023.24 4.46
11/6/2022 12:15:00 AM 12.38 54.284 0.053 7.72 1460.62 4.34
11/6/2022 12:30:00 AM 12.39 54.302 0.053 7.68 3336.98 3.95
11/6/2022 12:45:00 AM 12.41 54.338 0.053 7.73 2741.44 3.61
11/6/2022 1:00:00 AM 12.45 54.41 0.054 7.73 686.08 3.33
11/6/2022 1:15:00 AM 12.48 54.464 0.054 7.73 1790.65 3.05
11/6/2022 1:30:00 AM 12.5 54.5 0.054 7.73 939.46 3.12
11/6/2022 1:45:00 AM 12.51 54.518 0.054 7.72 929.28 3.13
11/6/2022 2:00:00 AM 12.53 54.554 0.054 7.72 971.84 3.13
11/6/2022 2:15:00 AM 12.55 54.59 0.055 7.72 955.55 2.86
11/6/2022 2:30:00 AM 12.57 54.626 0.055 7.69 984.32 2.62
11/6/2022 2:45:00 AM 12.57 54.626 0.054 7.71 730.79 2.3
11/6/2022 3:00:00 AM 12.58 54.644 0.054 7.72 637.13 2.1
11/6/2022 3:15:00 AM 12.61 54.698 0.054 7.72 837.59 2.12
11/6/2022 3:30:00 AM 12.64 54.752 0.053 7.72 1429.19 1.98
11/6/2022 3:45:00 AM 12.66 54.788 0.053 7.7 3690.37 1.17
11/6/2022 4:00:00 AM 12.69 54.842 0.052 7.72 4928.07 0.97
11/6/2022 4:15:00 AM 12.72 54.896 0.052 7.71 1908.58 1.66
11/6/2022 4:30:00 AM 12.75 54.95 0.052 7.71 1009.24 2.28
11/6/2022 4:45:00 AM 12.77 54.986 0.052 7.73 944.64 2.77
11/6/2022 5:00:00 AM 12.79 55.022 0.052 7.72 856.59 3.21
11/6/2022 5:15:00 AM 12.8 55.04 0.052 7.72 646.97 2.93
11/6/2022 5:30:00 AM 12.83 55.094 0.052 7.73 613.94 3.14
11/6/2022 5:45:00 AM 12.86 55.148 0.052 7.73 1014.12 3.12
11/6/2022 6:00:00 AM 12.88 55.184 0.052 7.72 1268.41 3.02
11/6/2022 6:15:00 AM 12.89 55.202 0.052 7.72 1242.06 3.19
11/6/2022 6:30:00 AM 12.89 55.202 0.052 7.72 1207.85 3.7
11/6/2022 6:45:00 AM 12.9 55.22 0.052 7.71 1146.24 3.93
11/6/2022 7:00:00 AM 12.9 55.22 0.052 7.72 1236.8 3.84
11/6/2022 7:15:00 AM 12.9 55.22 0.052 7.72 1368.57 3.96
11/6/2022 7:30:00 AM 12.89 55.202 0.052 7.71 1216.88 3.98
11/6/2022 7:45:00 AM 12.89 55.202 0.052 7.72 1281.82 3.91
11/6/2022 8:00:00 AM 12.89 55.202 0.052 7.71 987.15 3.76
11/6/2022 8:15:00 AM 12.91 55.238 0.053 7.72 1268.43 3.13
11/6/2022 8:30:00 AM 12.91 55.238 0.052 7.72 941.9 2.69
11/6/2022 8:45:00 AM 12.93 55.274 0.053 7.71 792.38 2.5
11/6/2022 9:00:00 AM 12.96 55.328 0.053 7.73 1306.01 2.2
11/6/2022 9:15:00 AM 13.01 55.418 0.053 7.73 1962.96 1.78
11/6/2022 9:30:00 AM 13.07 55.526 0.053 7.74 2763.57 1.71
11/6/2022 9:45:00 AM 13.15 55.67 0.053 7.74 2013.8 1.6
11/6/2022 10:00:00 AM 13.22 55.796 0.052 7.74 830.93 1.61
11/6/2022 10:15:00 AM 13.31 55.958 0.053 7.75 751.11 1.39
11/6/2022 10:30:00 AM 13.42 56.156 0.052 7.73 386.77 2.19
11/6/2022 10:45:00 AM 13.49 56.282 0.052 7.71 381.84 2.97
11/6/2022 11:00:00 AM 13.55 56.39 0.053 7.72 636.8 4.53
11/6/2022 11:15:00 AM 13.6 56.48 0.052 7.74 880.06 3.33
11/6/2022 11:30:00 AM 13.73 56.714 0.052 7.72 751.28 3.14
11/6/2022 11:45:00 AM 13.87 56.966 0.052 7.76 577.69 2.68
11/6/2022 12:00:00 PM 14 57.2 0.052 7.76 445.63 2.4
11/6/2022 12:15:00 PM 14.11 57.398 0.052 7.76 164.54 2.63
11/6/2022 12:30:00 PM 14.21 57.578 0.052 7.72 148.67 2.04
11/6/2022 12:45:00 PM 14.28 57.704 0.052 7.75 161.09 2.13
11/6/2022 1:00:00 PM 14.32 57.776 0.052 7.75 210.9 2.11
11/6/2022 1:15:00 PM 14.38 57.884 0.052 7.75 207.65 2.39
11/6/2022 1:30:00 PM 14.42 57.956 0.052 7.75 192.02 2.82
11/6/2022 1:45:00 PM 14.51 58.118 0.052 7.76 173.95 2.24
11/6/2022 2:00:00 PM 14.57 58.226 0.052 7.75 214.7 2.35
11/6/2022 2:15:00 PM 14.6 58.28 0.052 7.76 214.17 3.02
11/6/2022 2:30:00 PM 14.67 58.406 0.052 7.76 132.93 2.78
11/6/2022 2:45:00 PM 14.7 58.46 0.052 7.76 122.05 2.99
11/6/2022 3:00:00 PM 14.72 58.496 0.052 7.73 184.25 3.31
11/6/2022 3:15:00 PM 14.74 58.532 0.052 7.72 148.07 3.85
11/6/2022 3:30:00 PM 14.77 58.586 0.052 7.73 211.04 3.98
11/6/2022 3:45:00 PM 14.79 58.622 0.053 7.75 215.85 4.78
11/6/2022 4:00:00 PM 14.78 58.604 0.053 7.73 53.64 4.38
11/6/2022 4:15:00 PM 14.79 58.622 0.053 7.74 106.37 4.08
11/6/2022 4:30:00 PM 14.8 58.64 0.053 7.75 126.5 3.19
11/6/2022 4:45:00 PM 14.79 58.622 0.053 7.75 55.34 2.33
11/6/2022 5:00:00 PM 14.77 58.586 0.053 7.74 80.46 2.58
11/6/2022 5:15:00 PM 14.75 58.55 0.053 7.74 72.25 2.93
11/6/2022 5:30:00 PM 14.74 58.532 0.053 7.74 70.62 4.29
11/6/2022 5:45:00 PM 14.71 58.478 0.054 7.72 77.78 5.01
11/6/2022 6:00:00 PM 14.65 58.37 0.054 7.71 136.03 5.27
11/6/2022 6:15:00 PM 14.58 58.244 0.054 7.69 238.61 5.35
11/6/2022 6:30:00 PM 14.49 58.082 0.054 7.69 318.44 5.43
11/6/2022 6:45:00 PM 14.43 57.974 0.054 7.69 303.89 5.56
11/6/2022 7:00:00 PM 14.36 57.848 0.054 7.69 323.85 5.88
11/6/2022 7:15:00 PM 14.28 57.704 0.054 7.69 285.51 6.57
11/6/2022 7:30:00 PM 14.21 57.578 0.054 7.69 295.16 6.7
11/6/2022 7:45:00 PM 14.14 57.452 0.054 7.69 304.59 7.08
11/6/2022 8:00:00 PM 14.07 57.326 0.054 7.69 354.29 7.09
11/6/2022 8:15:00 PM 14.03 57.254 0.053 7.7 337.83 6.78
11/6/2022 8:30:00 PM 14.03 57.254 0.053 7.7 376.85 5.67
11/6/2022 8:45:00 PM 14.01 57.218 0.053 7.69 319.57 5.86
11/6/2022 9:00:00 PM 14 57.2 0.053 7.7 440.35 5.5
11/6/2022 9:15:00 PM 13.99 57.182 0.053 7.69 415.73 5.41
11/6/2022 9:30:00 PM 13.98 57.164 0.053 7.68 337.78 6.06
11/6/2022 9:45:00 PM 14.12 57.416 0.052 7.61 467 5.05
11/6/2022 10:00:00 PM 14.07 57.326 0.052 7.61 479.29 4.82
11/6/2022 10:15:00 PM 14.03 57.254 0.052 7.6 453.86 4.53
11/6/2022 10:30:00 PM 14 57.2 0.052 7.6 505.33 4.7
11/6/2022 10:45:00 PM 13.97 57.146 0.051 7.6 388.21 4.7
11/6/2022 11:00:00 PM 13.95 57.11 0.052 7.54 283.51 4.68
11/6/2022 11:15:00 PM 13.91 57.038 0.053 7.59 218.93 4.39
11/6/2022 11:30:00 PM 13.88 56.984 0.055 7.61 229.75 5.54
11/6/2022 11:45:00 PM 13.84 56.912 0.055 7.61 224.16 5.58
11/7/2022 12:00:00 AM 13.82 56.876 0.054 7.6 489.35 5.48
11/7/2022 12:15:00 AM 13.81 56.858 0.054 7.59 479.22 5.72
11/7/2022 12:30:00 AM 13.79 56.822 0.053 7.59 284.99 4.29
11/7/2022 12:45:00 AM 13.74 56.732 0.053 7.59 247.9 5.21
11/7/2022 1:00:00 AM 13.7 56.66 0.053 7.59 245.65 5.39
11/7/2022 1:15:00 AM 13.64 56.552 0.053 7.6 302.93 5.62
11/7/2022 1:30:00 AM 13.58 56.444 0.053 7.62 317.72 5.75
11/7/2022 1:45:00 AM 13.52 56.336 0.052 7.63 546.11 5.71
11/7/2022 2:00:00 AM 13.48 56.264 0.053 7.63 668.73 5.77
11/7/2022 2:15:00 AM 13.43 56.174 0.052 7.64 586.01 5.34
11/7/2022 2:30:00 AM 13.38 56.084 0.053 7.66 705.37 6.57
11/7/2022 2:45:00 AM 13.35 56.03 0.053 7.66 634.66 7.14
11/7/2022 3:00:00 AM 13.32 55.976 0.053 7.66 688.71 8.04
11/7/2022 3:15:00 AM 13.29 55.922 0.053 7.66 608.85 8.4
11/7/2022 3:30:00 AM 13.24 55.832 0.053 7.66 761.97 8.43
11/7/2022 3:45:00 AM 13.18 55.724 0.052 7.66 617.73 8.37
11/7/2022 4:00:00 AM 13.12 55.616 0.052 7.66 663.96 8.43
11/7/2022 4:15:00 AM 13.05 55.49 0.052 7.66 700.94 8.29
11/7/2022 4:30:00 AM 12.99 55.382 0.051 7.67 756.7 8.02
11/7/2022 4:45:00 AM 12.92 55.256 0.052 7.67 838.57 7.89
11/7/2022 5:00:00 AM 12.84 55.112 0.052 7.67 719.37 7.59
11/7/2022 5:15:00 AM 12.77 54.986 0.052 7.67 571.99 7.6
11/7/2022 5:30:00 AM 12.7 54.86 0.051 7.67 508.07 4.81
11/7/2022 5:45:00 AM 12.64 54.752 0.052 7.68 519.69 5.25
11/7/2022 6:00:00 AM 12.56 54.608 0.051 7.68 441.42 5.86
11/7/2022 6:15:00 AM 12.49 54.482 0.051 7.68 524.53 6.72
11/7/2022 6:30:00 AM 12.41 54.338 0.051 7.67 425 8.2
11/7/2022 6:45:00 AM 12.33 54.194 0.052 7.68 510.65 6.95
11/7/2022 7:00:00 AM 12.24 54.032 0.052 7.68 534.08 7.16
11/7/2022 7:15:00 AM 12.16 53.888 0.052 7.68 548.16 7.84
11/7/2022 7:30:00 AM 12.09 53.762 0.052 7.68 545.72 8.37
11/7/2022 7:45:00 AM 12.01 53.618 0.051 7.67 686.57 8.63
11/7/2022 8:00:00 AM 11.93 53.474 0.05 7.68 665.4 8.04
11/7/2022 8:15:00 AM 11.86 53.348 0.05 7.68 525.13 7.22
11/7/2022 8:30:00 AM 11.81 53.258 0.05 7.68 565.36 7.51
11/7/2022 8:45:00 AM 11.77 53.186 0.05 7.68 778.26 7.23
11/7/2022 9:00:00 AM 11.75 53.15 0.05 7.69 716.25 8.16
11/7/2022 9:15:00 AM 11.73 53.114 0.05 7.69 523.75 8.25
11/7/2022 9:30:00 AM 11.73 53.114 0.05 7.69 620.82 8.18
11/7/2022 9:45:00 AM 11.74 53.132 0.05 7.69 608.64 7.64
11/7/2022 10:00:00 AM 11.77 53.186 0.05 7.7 751.08 8.47
11/7/2022 10:15:00 AM 11.81 53.258 0.051 7.71 897.49 8.55
11/7/2022 10:30:00 AM 11.84 53.312 0.051 7.72 793.49 8.52
11/7/2022 10:45:00 AM 11.87 53.366 0.05 7.72 897.22 8.43
11/7/2022 11:00:00 AM 11.9 53.42 0.051 7.72 753.2 8.43
11/7/2022 11:15:00 AM 11.93 53.474 0.051 7.72 659.96 8.44
11/7/2022 11:30:00 AM 11.95 53.51 0.051 7.69 536.62 8.28
11/7/2022 11:45:00 AM 11.97 53.546 0.051 7.73 795.21 8.67
11/7/2022 12:00:00 PM 12 53.6 0.051 7.72 368.13 8.96
11/7/2022 12:15:00 PM 12.01 53.618 0.051 7.72 1415.9 9.14
11/7/2022 12:30:00 PM 12.03 53.654 0.051 7.72 1176.22 9.18
11/7/2022 12:45:00 PM 12.04 53.672 0.051 7.72 1153.4 9.13
11/7/2022 1:00:00 PM 12.05 53.69 0.051 7.73 1630.68 9.12
11/7/2022 1:15:00 PM 12.05 53.69 0.051 7.72 6328.7 9.04
11/7/2022 1:30:00 PM 12.03 53.654 0.051 7.73 6787.05 9.07
11/7/2022 1:45:00 PM 12.01 53.618 0.051 7.73 6139.25 8.96
11/7/2022 2:00:00 PM 11.99 53.582 0.051 7.73 11679.83 8.98
11/7/2022 2:15:00 PM 11.94 53.492 0.051 7.73 6530.44 8.95
11/7/2022 2:30:00 PM 11.91 53.438 0.051 7.72 8900.5 8.99
11/7/2022 2:45:00 PM 11.86 53.348 0.051 7.73 7456.87 9.03
11/7/2022 3:00:00 PM 11.83 53.294 0.051 7.72 4198.38 9.04
11/7/2022 3:15:00 PM 11.8 53.24 0.051 7.72 5491.96 9.06
11/7/2022 3:30:00 PM 11.75 53.15 0.051 7.72 4110.8 9.1
11/7/2022 3:45:00 PM 11.69 53.042 0.051 7.72 7027.78 8.48
11/7/2022 4:00:00 PM 11.62 52.916 0.051 7.73 8362.03 7.64
11/7/2022 4:15:00 PM 11.56 52.808 0.051 7.72 11071.31 7.12
11/7/2022 4:30:00 PM 11.5 52.7 0.05 7.72 11829.44 7.04
11/7/2022 4:45:00 PM 11.43 52.574 0.051 7.72 14780.63 7.13
11/7/2022 5:00:00 PM 11.35 52.43 0.051 7.72 13267.88 6.86
11/7/2022 5:15:00 PM 11.28 52.304 0.051 7.72 9903.15 6.95
11/7/2022 5:30:00 PM 11.21 52.178 0.051 7.72 7422.28 6.81
11/7/2022 5:45:00 PM 11.14 52.052 0.051 7.71 12972.15 6.92
11/7/2022 6:00:00 PM 11.05 51.89 0.051 7.71 9184.98 7.38
11/7/2022 6:15:00 PM 10.95 51.71 0.051 7.7 11543.61 7.68
11/7/2022 6:30:00 PM 10.85 51.53 0.051 7.7 10561.85 8.68
11/7/2022 6:45:00 PM 10.74 51.332 0.051 7.7 9674.44 8.66
11/7/2022 7:00:00 PM 10.65 51.17 0.051 7.7 10196.63 8.56
11/7/2022 7:15:00 PM 10.56 51.008 0.051 7.7 1686.04 8.3
11/7/2022 7:30:00 PM 10.48 50.864 0.051 7.7 1771.76 8.43
11/7/2022 7:45:00 PM 10.42 50.756 0.051 7.69 1854.03 8.41
11/7/2022 8:00:00 PM 10.36 50.648 0.051 7.66 3431.75 8.35
11/7/2022 8:15:00 PM 10.29 50.522 0.051 7.67 2572.15 8.33
11/7/2022 8:30:00 PM 10.23 50.414 0.051 7.67 4814.76 8.25
11/7/2022 8:45:00 PM 10.15 50.27 0.051 7.67 5300.01 8.32
11/7/2022 9:00:00 PM 10.08 50.144 0.051 7.68 5746.76 8.89
11/7/2022 9:15:00 PM 10.01 50.018 0.051 7.68 4452.78 8.94
11/7/2022 9:30:00 PM 9.93 49.874 0.051 7.67 3502.18 8.79
11/7/2022 9:45:00 PM 9.86 49.748 0.051 7.68 2609.39 8.77
11/7/2022 10:00:00 PM 9.79 49.622 0.051 7.68 2484.65 8.38
11/7/2022 10:15:00 PM 9.72 49.496 0.051 7.68 3113.67 8.43
11/7/2022 10:30:00 PM 9.66 49.388 0.051 7.68 5016.53 8.43
11/7/2022 10:45:00 PM 9.6 49.28 0.051 7.69 7087.96 8.43
11/7/2022 11:00:00 PM 9.54 49.172 0.051 7.69 4588.65 8.5
11/7/2022 11:15:00 PM 9.47 49.046 0.051 7.69 3566.33 8.44
11/7/2022 11:30:00 PM 9.41 48.938 0.051 7.69 3693.09 8.63
11/7/2022 11:45:00 PM 9.35 48.83 0.051 7.69 3535.17 8.79
11/8/2022 12:00:00 AM 9.28 48.704 0.051 7.69 4200.1 8.49
11/8/2022 12:15:00 AM 9.2 48.56 0.051 7.69 5613.52 9.12
11/8/2022 12:30:00 AM 9.13 48.434 0.051 7.69 8644.75 8.71
11/8/2022 12:45:00 AM 9.06 48.308 0.051 7.69 8790.09 8.63
11/8/2022 1:00:00 AM 8.99 48.182 0.05 7.69 5802.18 8.52
11/8/2022 1:15:00 AM 8.92 48.056 0.051 7.69 4977.35 9.21
11/8/2022 1:30:00 AM 8.85 47.93 0.051 7.69 2613.84 9.45
11/8/2022 1:45:00 AM 8.78 47.804 0.051 7.69 3068.12 9.52
11/8/2022 2:00:00 AM 8.71 47.678 0.052 7.68 3106.04 9.44
11/8/2022 2:15:00 AM 8.64 47.552 0.063 7.66 4097.6 9.13
11/8/2022 2:30:00 AM 8.57 47.426 0.068 7.67 6366.28 9.27
11/8/2022 2:45:00 AM 8.5 47.3 0.065 7.69 6398.36 8.66
11/8/2022 3:00:00 AM 8.43 47.174 0.069 7.66 3551.6 8.39
11/8/2022 3:15:00 AM 8.4 47.12 0.072 7.68 3267.51 8.66
11/8/2022 3:30:00 AM 8.36 47.048 0.068 7.69 2183.44 8.72
11/8/2022 3:45:00 AM 8.33 46.994 0.071 7.67 1995.38 8.68
11/8/2022 4:00:00 AM 8.32 46.976 0.087 7.66 2394.01 8.6
11/8/2022 4:15:00 AM 8.31 46.958 0.086 7.69 2866.43 8.7
11/8/2022 4:30:00 AM 8.29 46.922 0.078 7.71 5779.65 8.83
11/8/2022 4:45:00 AM 8.29 46.922 0.072 7.71 3423.98 8.79
11/8/2022 5:00:00 AM 8.27 46.886 0.067 7.72 1983.73 8.84
11/8/2022 5:15:00 AM 8.23 46.814 0.064 7.72 4821.55 8.81
11/8/2022 5:30:00 AM 8.17 46.706 0.062 7.72 5503.37 8.95
11/8/2022 5:45:00 AM 8.11 46.598 0.061 7.72 19067.95 8.92
11/8/2022 6:00:00 AM 8.06 46.508 0.06 7.71 19214 8.9
11/8/2022 6:15:00 AM 8.01 46.418 0.058 7.71 14425.51 8.99
11/8/2022 6:30:00 AM 7.97 46.346 0.057 7.71 8545.76 8.91
11/8/2022 6:45:00 AM 7.95 46.31 0.056 7.72 9434.02 8.98
11/8/2022 7:00:00 AM 7.94 46.292 0.056 7.72 11600.88 9.18
11/8/2022 7:15:00 AM 7.92 46.256 0.055 7.72 14542.14 9.03
11/8/2022 7:30:00 AM 7.93 46.274 0.055 7.73 8811.43 9
11/8/2022 7:45:00 AM 7.94 46.292 0.055 7.73 9962.21 9.04
11/8/2022 8:00:00 AM 7.92 46.256 0.054 7.72 4887.52 9.07
11/8/2022 8:15:00 AM 7.87 46.166 0.054 7.73 7931.79 9.12
11/8/2022 8:30:00 AM 7.84 46.112 0.054 7.72 8938.49 9.23
11/8/2022 8:45:00 AM 7.82 46.076 0.054 7.73 7067.1 9.74
11/8/2022 9:00:00 AM 7.82 46.076 0.054 7.73 1891.98 9.51
11/8/2022 9:15:00 AM 7.8 46.04 0.053 7.74 878.17 9.26
11/8/2022 9:30:00 AM 7.8 46.04 0.053 7.74 2294.92 9.21
11/8/2022 9:45:00 AM 7.8 46.04 0.053 7.75 2622.27 9.22
11/8/2022 10:00:00 AM 7.81 46.058 0.053 7.75 2185.44 9.23
11/8/2022 10:15:00 AM 7.82 46.076 0.053 7.75 1639.79 9.23
11/8/2022 10:30:00 AM 7.83 46.094 0.053 7.75 1524.3 9.33
11/8/2022 10:45:00 AM 7.85 46.13 0.053 7.76 1373.48 9.33
11/8/2022 11:00:00 AM 7.86 46.148 0.053 7.76 1022.65 9.33
11/8/2022 11:15:00 AM 7.88 46.184 0.053 7.76 1150.75 9.3
11/8/2022 11:30:00 AM 7.92 46.256 0.053 7.76 1574.8 9.32
11/8/2022 11:45:00 AM 7.95 46.31 0.053 7.76 2681.8 9.28
11/8/2022 12:00:00 PM 7.98 46.364 0.053 7.76 4383.14 9.29
11/8/2022 12:15:00 PM 8.01 46.418 0.053 7.76 2729.11 9.3
11/8/2022 12:30:00 PM 8.03 46.454 0.052 7.76 1906.67 9.26
11/8/2022 12:45:00 PM 8.03 46.454 0.052 7.76 1297.79 9.23
11/8/2022 1:00:00 PM 8.04 46.472 0.052 7.76 1344.61 9.21
11/8/2022 1:15:00 PM 8.05 46.49 0.052 7.76 999.55 9.19
11/8/2022 1:30:00 PM 8.06 46.508 0.052 7.76 709.12 9.18
11/8/2022 1:45:00 PM 8.06 46.508 0.052 7.76 346.97 9.14
11/8/2022 2:00:00 PM 8.06 46.508 0.052 7.76 151.68 9.23
11/8/2022 2:15:00 PM 8.05 46.49 0.052 7.76 103.55 9.45
11/8/2022 2:30:00 PM 8.05 46.49 0.052 7.77 98.23 9.19
11/8/2022 2:45:00 PM 8.05 46.49 0.052 7.77 197.12 9.23
11/8/2022 3:00:00 PM 8.05 46.49 0.052 7.76 513.19 9.63
11/8/2022 3:15:00 PM 8.05 46.49 0.052 7.76 997.84 9.68
11/8/2022 3:30:00 PM 8.05 46.49 0.052 7.76 527.68 9.68
11/8/2022 3:45:00 PM 8.05 46.49 0.052 7.75 476.81 9.31
11/8/2022 4:00:00 PM 8.05 46.49 0.052 7.75 580.54 9.86
11/8/2022 4:15:00 PM 8.05 46.49 0.052 7.75 2404.15 9.82
11/8/2022 4:30:00 PM 8.03 46.454 0.052 7.75 2533.58 9.99
11/8/2022 4:45:00 PM 8 46.4 0.052 7.75 283.64 9.87
11/8/2022 5:00:00 PM 7.98 46.364 0.052 7.75 1259.2 9.71
11/8/2022 5:15:00 PM 7.96 46.328 0.052 7.74 604.65 9.79
11/8/2022 5:30:00 PM 7.93 46.274 0.052 7.74 414.42 9.88
11/8/2022 5:45:00 PM 7.9 46.22 0.052 7.74 404.09 10.07
11/8/2022 6:00:00 PM 7.85 46.13 0.052 7.73 451.08 10.16
11/8/2022 6:15:00 PM 7.79 46.022 0.052 7.72 748.71 10.16
11/8/2022 6:30:00 PM 7.72 45.896 0.051 7.71 472.99 10.2
11/8/2022 6:45:00 PM 7.66 45.788 0.051 7.71 354.91 10.24
11/8/2022 7:00:00 PM 7.6 45.68 0.051 7.71 407.07 10.15
11/8/2022 7:15:00 PM 7.53 45.554 0.051 7.7 522.28 10.07
11/8/2022 7:30:00 PM 7.46 45.428 0.051 7.71 450.76 10.11
11/8/2022 7:45:00 PM 7.39 45.302 0.051 7.71 312.19 10.17
11/8/2022 8:00:00 PM 7.32 45.176 0.051 7.71 325.31 10.13
11/8/2022 8:15:00 PM 7.26 45.068 0.051 7.71 304.52 10.18
11/8/2022 8:30:00 PM 7.2 44.96 0.051 7.71 285.36 10.37
11/8/2022 8:45:00 PM 7.15 44.87 0.051 7.71 1165.17 10.37
11/8/2022 9:00:00 PM 7.09 44.762 0.051 7.71 1361.44 10.41
11/8/2022 9:15:00 PM 7.03 44.654 0.051 7.71 1486.16 10.41
11/8/2022 9:30:00 PM 6.97 44.546 0.052 7.71 1372.04 10.51
11/8/2022 9:45:00 PM 6.9 44.42 0.052 7.72 1374.65 10.68
11/8/2022 10:00:00 PM 6.86 44.348 0.052 7.71 1384.23 10.78
11/8/2022 10:15:00 PM 6.8 44.24 0.052 7.72 1701.23 10.86
11/8/2022 10:30:00 PM 6.75 44.15 0.052 7.71 1998.89 10.91
11/8/2022 10:45:00 PM 6.69 44.042 0.052 7.71 200.1 10.95
11/8/2022 11:00:00 PM 6.64 43.952 0.052 7.71 192.13 10.98
11/8/2022 11:15:00 PM 6.58 43.844 0.052 7.71 214.66 11.02
11/8/2022 11:30:00 PM 6.53 43.754 0.052 7.71 2578.48 11.05
11/8/2022 11:45:00 PM 6.46 43.628 0.052 7.72 3229.92 11.08
11/9/2022 12:00:00 AM 6.39 43.502 0.051 7.71 3623.83 11.1
11/9/2022 12:15:00 AM 6.33 43.394 0.051 7.72 3410.78 11.12
11/9/2022 12:30:00 AM 6.26 43.268 0.051 7.71 3388.92 11.13
11/9/2022 12:45:00 AM 6.2 43.16 0.051 7.71 3020.61 11.16
11/9/2022 1:00:00 AM 6.14 43.052 0.051 7.72 3072.06 11.19
11/9/2022 1:15:00 AM 6.09 42.962 0.051 7.71 2900.8 11.22
11/9/2022 1:30:00 AM 6.04 42.872 0.051 7.72 1533.94 11.23
11/9/2022 1:45:00 AM 5.99 42.782 0.051 7.72 1486.8 11.26
11/9/2022 2:00:00 AM 5.94 42.692 0.051 7.72 947.97 11.27
11/9/2022 2:15:00 AM 5.88 42.584 0.051 7.71 244.43 11.29
11/9/2022 2:30:00 AM 5.82 42.476 0.051 7.72 368.83 11.31
11/9/2022 2:45:00 AM 5.77 42.386 0.051 7.71 991.94 11.3
11/9/2022 3:00:00 AM 5.72 42.296 0.051 7.72 1023.06 11.3
11/9/2022 3:15:00 AM 5.67 42.206 0.051 7.71 709.37 11.33
11/9/2022 3:30:00 AM 5.61 42.098 0.051 7.71 542.36 11.34
11/9/2022 3:45:00 AM 5.56 42.008 0.051 7.72 504.64 11.36
11/9/2022 4:00:00 AM 5.51 41.918 0.051 7.71 555.85 11.37
11/9/2022 4:15:00 AM 5.45 41.81 0.051 7.71 519.35 11.36
11/9/2022 4:30:00 AM -99999.99 -179968 -99999.99 -99999.99 -99999.99 -99999.99
11/9/2022 4:45:00 AM -99999.99 -179968 -99999.99 -99999.99 -99999.99 -99999.99
11/9/2022 5:00:00 AM -99999.99 -179968 -99999.99 -99999.99 -99999.99 -99999.99
11/9/2022 5:15:00 AM -99999.99 -179968 -99999.99 -99999.99 -99999.99 -99999.99
11/9/2022 5:30:00 AM -99999.99 -179968 -99999.99 -99999.99 -99999.99 -99999.99
11/9/2022 5:45:00 AM -99999.99 -179968 -99999.99 -99999.99 -99999.99 -99999.99
11/9/2022 6:00:00 AM -99999.99 -179968 -99999.99 -99999.99 -99999.99 -99999.99
11/9/2022 6:15:00 AM -99999.99 -179968 -99999.99 -99999.99 -99999.99 -99999.99
11/9/2022 6:30:00 AM -99999.99 -179968 -99999.99 -99999.99 -99999.99 -99999.99
11/9/2022 6:45:00 AM -99999.99 -179968 -99999.99 -99999.99 -99999.99 -99999.99
11/9/2022 7:00:00 AM -99999.99 -179968 -99999.99 -99999.99 -99999.99 -99999.99
11/9/2022 7:15:00 AM -99999.99 -179968 -99999.99 -99999.99 -99999.99 -99999.99
11/9/2022 7:30:00 AM -99999.99 -179968 -99999.99 -99999.99 -99999.99 -99999.99
11/9/2022 7:45:00 AM -99999.99 -179968 -99999.99 -99999.99 -99999.99 -99999.99
11/9/2022 8:00:00 AM -99999.99 -179968 -99999.99 -99999.99 -99999.99 -99999.99
11/9/2022 8:15:00 AM -99999.99 -179968 -99999.99 -99999.99 -99999.99 -99999.99
11/9/2022 8:30:00 AM -99999.99 -179968 -99999.99 -99999.99 -99999.99 -99999.99
11/9/2022 8:45:00 AM 4.61 40.298 0.051 7.69 541.72 11.85
11/9/2022 9:00:00 AM 4.61 40.298 0.051 7.7 559.81 11.79
11/9/2022 9:15:00 AM 4.63 40.334 0.051 7.72 605.33 11.77
11/9/2022 9:30:00 AM 4.65 40.37 0.051 7.73 526.53 11.73
11/9/2022 9:45:00 AM 4.69 40.442 0.051 7.74 508.95 11.7
11/9/2022 10:00:00 AM 4.74 40.532 0.051 7.74 478.21 11.7
11/9/2022 10:15:00 AM 4.81 40.658 0.051 7.75 457.76 11.69
11/9/2022 10:30:00 AM 4.89 40.802 0.051 7.76 571.85 11.67
11/9/2022 10:45:00 AM 4.96 40.928 0.051 7.76 511.5 11.62
11/9/2022 11:00:00 AM 5.01 41.018 0.051 7.76 775.87 11.6
11/9/2022 11:15:00 AM 5.08 41.144 0.051 7.77 426.66 11.59
11/9/2022 11:30:00 AM 5.15 41.27 0.051 7.77 581.96 11.56
11/9/2022 11:45:00 AM 5.24 41.432 0.051 7.77 491.08 11.55
11/9/2022 12:00:00 PM 5.31 41.558 0.051 7.78 499.91 11.52
11/9/2022 12:15:00 PM 5.38 41.684 0.051 7.78 397 11.48
11/9/2022 12:30:00 PM 5.47 41.846 0.051 7.78 429.27 11.43
11/9/2022 12:45:00 PM 5.56 42.008 0.051 7.78 535.37 11.41
11/9/2022 1:00:00 PM 5.65 42.17 0.051 7.78 387.54 11.38
11/9/2022 1:15:00 PM 5.73 42.314 0.051 7.79 331.61 11.33
11/9/2022 1:30:00 PM 5.84 42.512 0.051 7.79 343.33 11.29
11/9/2022 1:45:00 PM 5.95 42.71 0.051 7.79 358.72 11.26
11/9/2022 2:00:00 PM 6.03 42.854 0.051 7.79 358.69 11.22
11/9/2022 2:15:00 PM 6.09 42.962 0.051 7.79 377.29 11.2
11/9/2022 2:30:00 PM 6.16 43.088 0.051 7.79 397.11 11.17
11/9/2022 2:45:00 PM 6.24 43.232 0.051 7.79 399.39 11.16
11/9/2022 3:00:00 PM 6.28 43.304 0.051 7.78 425.5 11.09
11/9/2022 3:15:00 PM 6.31 43.358 0.051 7.78 444.25 11.04
11/9/2022 3:30:00 PM 6.33 43.394 0.051 7.77 434.92 10.99
11/9/2022 3:45:00 PM 6.34 43.412 0.051 7.77 409.18 10.98
11/9/2022 4:00:00 PM 6.35 43.43 0.051 7.77 440.07 10.95
11/9/2022 4:15:00 PM 6.36 43.448 0.051 7.77 546.69 10.89
11/9/2022 4:30:00 PM 6.36 43.448 0.051 7.77 557.6 10.93
11/9/2022 4:45:00 PM 6.35 43.43 0.051 7.76 519.68 10.92
11/9/2022 5:00:00 PM 6.34 43.412 0.051 7.76 493.93 10.95
11/9/2022 5:15:00 PM 6.32 43.376 0.051 7.76 509.13 10.98
11/9/2022 5:30:00 PM 6.29 43.322 0.051 7.76 435.14 11.01
11/9/2022 5:45:00 PM 6.26 43.268 0.051 7.75 447.85 11
11/9/2022 6:00:00 PM 6.22 43.196 0.051 7.75 320.54 10.97
11/9/2022 6:15:00 PM 6.19 43.142 0.051 7.75 337.83 10.9
11/9/2022 6:30:00 PM 6.16 43.088 0.051 7.75 349.46 10.84
11/9/2022 6:45:00 PM 6.12 43.016 0.051 7.74 286.17 10.8
11/9/2022 7:00:00 PM 6.09 42.962 0.051 7.74 356.8 10.72
11/9/2022 7:15:00 PM 6.06 42.908 0.051 7.74 342.2 10.75
11/9/2022 7:30:00 PM 6.03 42.854 0.051 7.75 350.7 10.74
11/9/2022 7:45:00 PM 6 42.8 0.051 7.74 343.62 10.83
11/9/2022 8:00:00 PM 5.97 42.746 0.051 7.74 348.2 10.87
11/9/2022 8:15:00 PM 5.94 42.692 0.051 7.74 359.57 10.88
11/9/2022 8:30:00 PM 5.9 42.62 0.051 7.74 344.51 10.89
11/9/2022 8:45:00 PM 5.87 42.566 0.051 7.74 341.42 10.92
11/9/2022 9:00:00 PM 5.84 42.512 0.051 7.74 366.48 10.92
11/9/2022 9:15:00 PM 5.81 42.458 0.051 7.73 386.42 11
11/9/2022 9:30:00 PM 5.78 42.404 0.051 7.74 398.62 11.02
11/9/2022 9:45:00 PM 5.75 42.35 0.051 7.73 438.04 11.04
11/9/2022 10:00:00 PM 5.72 42.296 0.051 7.73 301.98 10.96
11/9/2022 10:15:00 PM 5.69 42.242 0.051 7.73 289.98 10.91
11/9/2022 10:30:00 PM 5.66 42.188 0.051 7.73 316.08 10.88
11/9/2022 10:45:00 PM 5.64 42.152 0.051 7.73 308.4 10.8
11/9/2022 11:00:00 PM 5.61 42.098 0.051 7.73 535.15 10.77
11/9/2022 11:15:00 PM 5.59 42.062 0.051 7.72 336.94 10.83
11/9/2022 11:30:00 PM 5.56 42.008 0.051 7.72 318.05 10.91
11/9/2022 11:45:00 PM 5.53 41.954 0.051 7.72 368.7 10.91
11/10/2022 12:00:00 AM 5.51 41.918 0.051 7.72 443.65 10.99
11/10/2022 12:15:00 AM 5.49 41.882 0.051 7.72 480.84 11.02
11/10/2022 12:30:00 AM 5.47 41.846 0.051 7.72 373.63 11.03
11/10/2022 12:45:00 AM 5.45 41.81 0.051 7.72 487.59 11.05
11/10/2022 1:00:00 AM 5.43 41.774 0.051 7.72 429.26 11.03
11/10/2022 1:15:00 AM 5.42 41.756 0.051 7.72 407.29 11.03
11/10/2022 1:30:00 AM 5.4 41.72 0.051 7.72 346.64 11.03
11/10/2022 1:45:00 AM 5.38 41.684 0.051 7.72 318.69 11.03
11/10/2022 2:00:00 AM 5.36 41.648 0.051 7.72 307.85 11.1
11/10/2022 2:15:00 AM 5.34 41.612 0.051 7.71 287.75 11.1
11/10/2022 2:30:00 AM 5.31 41.558 0.051 7.71 281.53 11.11
11/10/2022 2:45:00 AM 5.3 41.54 0.051 7.71 279.4 11.04
11/10/2022 3:00:00 AM 5.28 41.504 0.051 7.71 260.48 11.03
11/10/2022 3:15:00 AM 5.26 41.468 0.051 7.71 237.93 10.98
11/10/2022 3:30:00 AM 5.24 41.432 0.051 7.71 223.85 10.96
11/10/2022 3:45:00 AM 5.23 41.414 0.051 7.71 225.47 10.94
11/10/2022 4:00:00 AM 5.21 41.378 0.051 7.71 220.33 10.92
11/10/2022 4:15:00 AM 5.2 41.36 0.051 7.71 223.09 10.85
11/10/2022 4:30:00 AM 5.19 41.342 0.051 7.72 227.2 10.88
11/10/2022 4:45:00 AM 5.16 41.288 0.051 7.71 228.13 10.89
11/10/2022 5:00:00 AM 5.14 41.252 0.051 7.71 212.6 10.95
11/10/2022 5:15:00 AM 5.12 41.216 0.051 7.71 218.53 10.94
11/10/2022 5:30:00 AM 5.1 41.18 0.051 7.71 207.02 10.96
11/10/2022 5:45:00 AM 5.08 41.144 0.051 7.71 202.73 10.95
11/10/2022 6:00:00 AM 5.06 41.108 0.051 7.71 207.09 11.07
11/10/2022 6:15:00 AM 5.04 41.072 0.051 7.71 202.36 11.05
11/10/2022 6:30:00 AM 5.02 41.036 0.051 7.71 207.46 11.14
11/10/2022 6:45:00 AM -99999.99 -179968 -99999.99 -99999.99 -99999.99 -99999.99
11/10/2022 7:00:00 AM -99999.99 -179968 -99999.99 -99999.99 -99999.99 -99999.99
11/10/2022 7:15:00 AM -99999.99 -179968 -99999.99 -99999.99 -99999.99 -99999.99
11/10/2022 7:30:00 AM -99999.99 -179968 -99999.99 -99999.99 -99999.99 -99999.99
11/10/2022 7:45:00 AM -99999.99 -179968 -99999.99 -99999.99 -99999.99 -99999.99
11/10/2022 8:00:00 AM -99999.99 -179968 -99999.99 -99999.99 -99999.99 -99999.99
11/10/2022 8:15:00 AM -99999.99 -179968 -99999.99 -99999.99 -99999.99 -99999.99
11/10/2022 8:30:00 AM -99999.99 -179968 -99999.99 -99999.99 -99999.99 -99999.99
11/10/2022 8:45:00 AM 4.9 40.82 0.051 7.73 207.88 11.45
11/10/2022 9:00:00 AM 4.92 40.856 0.051 7.73 210.31 11.36
11/10/2022 9:15:00 AM 4.96 40.928 0.051 7.73 209.76 11.3
11/10/2022 9:30:00 AM 5.01 41.018 0.051 7.73 200.46 11.2
11/10/2022 9:45:00 AM 5.08 41.144 0.051 7.74 195.03 11.14
11/10/2022 10:00:00 AM 5.17 41.306 0.051 7.74 190.51 11.07
11/10/2022 10:15:00 AM 5.28 41.504 0.051 7.75 174.09 11.07
11/10/2022 10:30:00 AM 5.4 41.72 0.051 7.76 170.1 11
11/10/2022 10:45:00 AM 5.51 41.918 0.051 7.77 164.78 11.05
11/10/2022 11:00:00 AM 5.6 42.08 0.051 7.77 164.46 11.02
11/10/2022 11:15:00 AM 5.7 42.26 0.051 7.77 161.32 10.99
11/10/2022 11:30:00 AM 5.82 42.476 0.051 7.77 158.03 10.93
11/10/2022 11:45:00 AM 5.96 42.728 0.051 7.77 154.04 10.83
11/10/2022 12:00:00 PM 6.08 42.944 0.051 7.77 161.45 10.83
11/10/2022 12:15:00 PM 6.2 43.16 0.051 7.78 160.7 10.81
11/10/2022 12:30:00 PM 6.33 43.394 0.051 7.78 157.44 10.73
11/10/2022 12:45:00 PM 6.46 43.628 0.051 7.78 173.59 10.68
11/10/2022 1:00:00 PM 6.57 43.826 0.051 7.78 163.4 10.66
11/10/2022 1:15:00 PM 6.68 44.024 0.051 7.78 158.8 10.59
11/10/2022 1:30:00 PM 6.8 44.24 0.051 7.78 164.06 10.52
11/10/2022 1:45:00 PM 6.9 44.42 0.052 7.78 161.98 10.48
11/10/2022 2:00:00 PM 7 44.6 0.052 7.78 152.17 10.43
11/10/2022 2:15:00 PM 7.09 44.762 0.052 7.78 143.31 10.44
11/10/2022 2:30:00 PM 7.17 44.906 0.052 7.78 136.73 10.38
11/10/2022 2:45:00 PM 7.24 45.032 0.052 7.78 130.34 10.34
11/10/2022 3:00:00 PM 7.28 45.104 0.052 7.77 114.52 10.29
11/10/2022 3:15:00 PM 7.33 45.194 0.052 7.77 108.33 10.31
11/10/2022 3:30:00 PM 7.38 45.284 0.052 7.77 100.69 10.28
11/10/2022 3:45:00 PM 7.42 45.356 0.052 7.77 99.3 10.26
11/10/2022 4:00:00 PM 7.46 45.428 0.052 7.78 98.64 10.24
11/10/2022 4:15:00 PM 7.5 45.5 0.052 7.77 90.48 10.17
11/10/2022 4:30:00 PM 7.52 45.536 0.052 7.77 88.4 10.1
11/10/2022 4:45:00 PM 7.53 45.554 0.052 7.76 87.9 10.22
11/10/2022 5:00:00 PM 7.54 45.572 0.052 7.76 90.77 10.33
11/10/2022 5:15:00 PM 7.55 45.59 0.052 7.76 86.61 10.37
11/10/2022 5:30:00 PM 7.54 45.572 0.052 7.75 87.53 10.43
11/10/2022 5:45:00 PM 7.53 45.554 0.052 7.75 85.25 10.45
11/10/2022 6:00:00 PM 7.52 45.536 0.052 7.75 85.44 10.44
11/10/2022 6:15:00 PM 7.5 45.5 0.052 7.75 84.36 10.42
11/10/2022 6:30:00 PM 7.49 45.482 0.052 7.74 84.04 10.42
11/10/2022 6:45:00 PM 7.47 45.446 0.052 7.74 78.88 10.43
11/10/2022 7:00:00 PM 7.46 45.428 0.052 7.74 83.64 10.41
11/10/2022 7:15:00 PM 7.45 45.41 0.052 7.74 77.13 10.4
11/10/2022 7:30:00 PM 7.43 45.374 0.052 7.74 70.88 10.43
11/10/2022 7:45:00 PM 7.41 45.338 0.052 7.74 71.41 10.45
11/10/2022 8:00:00 PM 7.4 45.32 0.052 7.74 64.91 10.37
11/10/2022 8:15:00 PM 7.38 45.284 0.052 7.74 63.38 10.4
11/10/2022 8:30:00 PM 7.37 45.266 0.052 7.73 61.8 10.48
11/10/2022 8:45:00 PM 7.36 45.248 0.052 7.74 61.79 10.48
11/10/2022 9:00:00 PM 7.35 45.23 0.052 7.74 63.41 10.51
11/10/2022 9:15:00 PM 7.34 45.212 0.052 7.73 59.86 10.56
11/10/2022 9:30:00 PM 7.33 45.194 0.053 7.73 62.76 10.58
11/10/2022 9:45:00 PM 7.32 45.176 0.052 7.73 69.81 10.61
11/10/2022 10:00:00 PM 7.32 45.176 0.053 7.73 60.7 10.62
11/10/2022 10:15:00 PM 7.32 45.176 0.055 7.73 52.11 10.65
11/10/2022 10:30:00 PM 7.31 45.158 0.055 7.73 47.14 10.67
11/10/2022 10:45:00 PM 7.31 45.158 0.056 7.73 76.06 10.71
11/10/2022 11:00:00 PM 7.31 45.158 0.057 7.73 117.9 10.73
11/10/2022 11:15:00 PM -99999.99 -179968 -99999.99 -99999.99 -99999.99 -99999.99
11/10/2022 11:30:00 PM -99999.99 -179968 -99999.99 -99999.99 -99999.99 -99999.99
11/10/2022 11:45:00 PM -99999.99 -179968 -99999.99 -99999.99 -99999.99 -99999.99
11/11/2022 12:00:00 AM -99999.99 -179968 -99999.99 -99999.99 -99999.99 -99999.99
11/11/2022 12:15:00 AM -99999.99 -179968 -99999.99 -99999.99 -99999.99 -99999.99
11/11/2022 12:30:00 AM -99999.99 -179968 -99999.99 -99999.99 -99999.99 -99999.99
11/11/2022 12:45:00 AM -99999.99 -179968 -99999.99 -99999.99 -99999.99 -99999.99
11/11/2022 1:00:00 AM -99999.99 -179968 -99999.99 -99999.99 -99999.99 -99999.99
11/11/2022 1:15:00 AM -99999.99 -179968 -99999.99 -99999.99 -99999.99 -99999.99
11/11/2022 1:30:00 AM -99999.99 -179968 -99999.99 -99999.99 -99999.99 -99999.99
11/11/2022 1:45:00 AM -99999.99 -179968 -99999.99 -99999.99 -99999.99 -99999.99
11/11/2022 2:00:00 AM -99999.99 -179968 -99999.99 -99999.99 -99999.99 -99999.99
11/11/2022 2:15:00 AM -99999.99 -179968 -99999.99 -99999.99 -99999.99 -99999.99
11/11/2022 2:30:00 AM -99999.99 -179968 -99999.99 -99999.99 -99999.99 -99999.99
11/11/2022 2:45:00 AM -99999.99 -179968 -99999.99 -99999.99 -99999.99 -99999.99
11/11/2022 3:00:00 AM -99999.99 -179968 -99999.99 -99999.99 -99999.99 -99999.99
11/11/2022 3:15:00 AM -99999.99 -179968 -99999.99 -99999.99 -99999.99 -99999.99
11/11/2022 3:30:00 AM -99999.99 -179968 -99999.99 -99999.99 -99999.99 -99999.99
11/11/2022 3:45:00 AM -99999.99 -179968 -99999.99 -99999.99 -99999.99 -99999.99
11/11/2022 4:00:00 AM -99999.99 -179968 -99999.99 -99999.99 -99999.99 -99999.99
11/11/2022 4:15:00 AM -99999.99 -179968 -99999.99 -99999.99 -99999.99 -99999.99
11/11/2022 4:30:00 AM -99999.99 -179968 -99999.99 -99999.99 -99999.99 -99999.99
11/11/2022 4:45:00 AM -99999.99 -179968 -99999.99 -99999.99 -99999.99 -99999.99
11/11/2022 5:00:00 AM -99999.99 -179968 -99999.99 -99999.99 -99999.99 -99999.99
11/11/2022 5:15:00 AM -99999.99 -179968 -99999.99 -99999.99 -99999.99 -99999.99
11/11/2022 5:30:00 AM -99999.99 -179968 -99999.99 -99999.99 -99999.99 -99999.99
11/11/2022 5:45:00 AM -99999.99 -179968 -99999.99 -99999.99 -99999.99 -99999.99
11/11/2022 6:00:00 AM -99999.99 -179968 -99999.99 -99999.99 -99999.99 -99999.99
11/11/2022 6:15:00 AM -99999.99 -179968 -99999.99 -99999.99 -99999.99 -99999.99
11/11/2022 6:30:00 AM -99999.99 -179968 -99999.99 -99999.99 -99999.99 -99999.99
11/11/2022 6:45:00 AM -99999.99 -179968 -99999.99 -99999.99 -99999.99 -99999.99
11/11/2022 7:00:00 AM -99999.99 -179968 -99999.99 -99999.99 -99999.99 -99999.99
11/11/2022 7:15:00 AM -99999.99 -179968 -99999.99 -99999.99 -99999.99 -99999.99
11/11/2022 7:30:00 AM -99999.99 -179968 -99999.99 -99999.99 -99999.99 -99999.99
11/11/2022 7:45:00 AM -99999.99 -179968 -99999.99 -99999.99 -99999.99 -99999.99
11/11/2022 8:00:00 AM -99999.99 -179968 -99999.99 -99999.99 -99999.99 -99999.99
11/11/2022 8:15:00 AM -99999.99 -179968 -99999.99 -99999.99 -99999.99 -99999.99
11/11/2022 8:30:00 AM -99999.99 -179968 -99999.99 -99999.99 -99999.99 -99999.99
11/11/2022 8:45:00 AM -99999.99 -179968 -99999.99 -99999.99 -99999.99 -99999.99
11/11/2022 9:00:00 AM -99999.99 -179968 -99999.99 -99999.99 -99999.99 -99999.99
11/11/2022 9:15:00 AM -99999.99 -179968 -99999.99 -99999.99 -99999.99 -99999.99
11/11/2022 9:30:00 AM -99999.99 -179968 -99999.99 -99999.99 -99999.99 -99999.99
11/11/2022 9:45:00 AM -99999.99 -179968 -99999.99 -99999.99 -99999.99 -99999.99
11/11/2022 10:00:00 AM -99999.99 -179968 -99999.99 -99999.99 -99999.99 -99999.99
11/11/2022 10:15:00 AM -99999.99 -179968 -99999.99 -99999.99 -99999.99 -99999.99
11/11/2022 10:30:00 AM -99999.99 -179968 -99999.99 -99999.99 -99999.99 -99999.99
11/11/2022 10:45:00 AM 8.74 47.732 0.059 7.7 44.68 10.19
11/11/2022 11:00:00 AM 8.81 47.858 0.059 7.69 128.24 10.07
11/11/2022 11:15:00 AM 8.87 47.966 0.059 7.7 256.67 9.82
11/11/2022 11:30:00 AM 8.94 48.092 0.06 7.7 63.54 9.99
11/11/2022 11:45:00 AM 9.01 48.218 0.06 7.71 79.5 9.38
11/11/2022 12:00:00 PM 9.07 48.326 0.061 7.71 31.94 10.43
11/11/2022 12:15:00 PM 9.14 48.452 0.061 7.71 28.69 10.44
11/11/2022 12:30:00 PM 9.21 48.578 0.062 7.71 29.2 10.44
11/11/2022 12:45:00 PM 9.28 48.704 0.062 7.71 27.28 10.45
11/11/2022 1:00:00 PM 9.34 48.812 0.063 7.71 26.02 10.46
11/11/2022 1:15:00 PM 9.4 48.92 0.062 7.71 26.97 10.48
11/11/2022 1:30:00 PM 9.47 49.046 0.063 7.7 26.5 10.31
11/11/2022 1:45:00 PM 9.53 49.154 0.063 7.71 43.54 9.71
11/11/2022 2:00:00 PM 9.59 49.262 0.063 7.7 30.02 9.24
11/11/2022 2:15:00 PM 9.65 49.37 0.063 7.69 31.78 8.71
11/11/2022 2:30:00 PM 9.7 49.46 0.063 7.69 30.17 8.63
11/11/2022 2:45:00 PM 9.77 49.586 0.063 7.69 29.41 8.28
11/11/2022 3:00:00 PM 9.81 49.658 0.065 7.68 30.67 7.8
11/11/2022 3:15:00 PM 9.86 49.748 0.065 7.68 32.25 7.63
11/11/2022 3:30:00 PM 9.91 49.838 0.066 7.68 36 7.66
11/11/2022 3:45:00 PM 9.95 49.91 0.067 7.68 35.33 7.07
11/11/2022 4:00:00 PM 10 50 0.068 7.68 38.93 7.66
11/11/2022 4:15:00 PM 10.04 50.072 0.069 7.68 40.84 8.44
11/11/2022 4:30:00 PM 10.07 50.126 0.069 7.67 45.89 7.89
11/11/2022 4:45:00 PM 10.09 50.162 0.07 7.67 52.05 7.29
11/11/2022 5:00:00 PM 10.11 50.198 0.071 7.67 567.87 6.71
11/11/2022 5:15:00 PM -99999.99 -179968 -99999.99 -99999.99 -99999.99 -99999.99
11/11/2022 5:30:00 PM -99999.99 -179968 -99999.99 -99999.99 -99999.99 -99999.99
11/11/2022 5:45:00 PM -99999.99 -179968 -99999.99 -99999.99 -99999.99 -99999.99
11/11/2022 6:00:00 PM -99999.99 -179968 -99999.99 -99999.99 -99999.99 -99999.99
11/11/2022 6:15:00 PM -99999.99 -179968 -99999.99 -99999.99 -99999.99 -99999.99
11/11/2022 6:30:00 PM -99999.99 -179968 -99999.99 -99999.99 -99999.99 -99999.99
11/11/2022 6:45:00 PM -99999.99 -179968 -99999.99 -99999.99 -99999.99 -99999.99
11/11/2022 7:00:00 PM -99999.99 -179968 -99999.99 -99999.99 -99999.99 -99999.99
11/11/2022 7:15:00 PM -99999.99 -179968 -99999.99 -99999.99 -99999.99 -99999.99
11/11/2022 7:30:00 PM -99999.99 -179968 -99999.99 -99999.99 -99999.99 -99999.99
11/11/2022 7:45:00 PM -99999.99 -179968 -99999.99 -99999.99 -99999.99 -99999.99
11/11/2022 8:00:00 PM -99999.99 -179968 -99999.99 -99999.99 -99999.99 -99999.99
11/11/2022 8:15:00 PM -99999.99 -179968 -99999.99 -99999.99 -99999.99 -99999.99
11/11/2022 8:30:00 PM -99999.99 -179968 -99999.99 -99999.99 -99999.99 -99999.99
11/11/2022 8:45:00 PM -99999.99 -179968 -99999.99 -99999.99 -99999.99 -99999.99
11/11/2022 9:00:00 PM -99999.99 -179968 -99999.99 -99999.99 -99999.99 -99999.99
11/11/2022 9:15:00 PM -99999.99 -179968 -99999.99 -99999.99 -99999.99 -99999.99
11/11/2022 9:30:00 PM -99999.99 -179968 -99999.99 -99999.99 -99999.99 -99999.99
11/11/2022 9:45:00 PM -99999.99 -179968 -99999.99 -99999.99 -99999.99 -99999.99
11/11/2022 10:00:00 PM -99999.99 -179968 -99999.99 -99999.99 -99999.99 -99999.99
11/11/2022 10:15:00 PM -99999.99 -179968 -99999.99 -99999.99 -99999.99 -99999.99
11/11/2022 10:30:00 PM -99999.99 -179968 -99999.99 -99999.99 -99999.99 -99999.99
11/11/2022 10:45:00 PM -99999.99 -179968 -99999.99 -99999.99 -99999.99 -99999.99
11/11/2022 11:00:00 PM -99999.99 -179968 -99999.99 -99999.99 -99999.99 -99999.99
11/11/2022 11:15:00 PM -99999.99 -179968 -99999.99 -99999.99 -99999.99 -99999.99
11/11/2022 11:30:00 PM -99999.99 -179968 -99999.99 -99999.99 -99999.99 -99999.99
11/11/2022 11:45:00 PM -99999.99 -179968 -99999.99 -99999.99 -99999.99 -99999.99
11/12/2022 12:00:00 AM -99999.99 -179968 -99999.99 -99999.99 -99999.99 -99999.99
11/12/2022 12:15:00 AM -99999.99 -179968 -99999.99 -99999.99 -99999.99 -99999.99
11/12/2022 12:30:00 AM -99999.99 -179968 -99999.99 -99999.99 -99999.99 -99999.99
11/12/2022 12:45:00 AM -99999.99 -179968 -99999.99 -99999.99 -99999.99 -99999.99
11/12/2022 1:00:00 AM -99999.99 -179968 -99999.99 -99999.99 -99999.99 -99999.99
11/12/2022 1:15:00 AM -99999.99 -179968 -99999.99 -99999.99 -99999.99 -99999.99
11/12/2022 1:30:00 AM -99999.99 -179968 -99999.99 -99999.99 -99999.99 -99999.99
11/12/2022 1:45:00 AM -99999.99 -179968 -99999.99 -99999.99 -99999.99 -99999.99
11/12/2022 2:00:00 AM -99999.99 -179968 -99999.99 -99999.99 -99999.99 -99999.99
11/12/2022 2:15:00 AM -99999.99 -179968 -99999.99 -99999.99 -99999.99 -99999.99
11/12/2022 2:30:00 AM -99999.99 -179968 -99999.99 -99999.99 -99999.99 -99999.99
11/12/2022 2:45:00 AM -99999.99 -179968 -99999.99 -99999.99 -99999.99 -99999.99
11/12/2022 3:00:00 AM -99999.99 -179968 -99999.99 -99999.99 -99999.99 -99999.99
11/12/2022 3:15:00 AM -99999.99 -179968 -99999.99 -99999.99 -99999.99 -99999.99
11/12/2022 3:30:00 AM -99999.99 -179968 -99999.99 -99999.99 -99999.99 -99999.99
11/12/2022 3:45:00 AM -99999.99 -179968 -99999.99 -99999.99 -99999.99 -99999.99
11/12/2022 4:00:00 AM -99999.99 -179968 -99999.99 -99999.99 -99999.99 -99999.99
11/12/2022 4:15:00 AM -99999.99 -179968 -99999.99 -99999.99 -99999.99 -99999.99
11/12/2022 4:30:00 AM -99999.99 -179968 -99999.99 -99999.99 -99999.99 -99999.99
11/12/2022 4:45:00 AM -99999.99 -179968 -99999.99 -99999.99 -99999.99 -99999.99
11/12/2022 5:00:00 AM -99999.99 -179968 -99999.99 -99999.99 -99999.99 -99999.99
11/12/2022 5:15:00 AM -99999.99 -179968 -99999.99 -99999.99 -99999.99 -99999.99
11/12/2022 5:30:00 AM -99999.99 -179968 -99999.99 -99999.99 -99999.99 -99999.99
11/12/2022 5:45:00 AM -99999.99 -179968 -99999.99 -99999.99 -99999.99 -99999.99
11/12/2022 6:00:00 AM -99999.99 -179968 -99999.99 -99999.99 -99999.99 -99999.99
11/12/2022 6:15:00 AM -99999.99 -179968 -99999.99 -99999.99 -99999.99 -99999.99
11/12/2022 6:30:00 AM -99999.99 -179968 -99999.99 -99999.99 -99999.99 -99999.99
11/12/2022 6:45:00 AM -99999.99 -179968 -99999.99 -99999.99 -99999.99 -99999.99
11/12/2022 7:00:00 AM -99999.99 -179968 -99999.99 -99999.99 -99999.99 -99999.99
11/12/2022 7:15:00 AM -99999.99 -179968 -99999.99 -99999.99 -99999.99 -99999.99
11/12/2022 7:30:00 AM -99999.99 -179968 -99999.99 -99999.99 -99999.99 -99999.99
11/12/2022 7:45:00 AM -99999.99 -179968 -99999.99 -99999.99 -99999.99 -99999.99
11/12/2022 8:00:00 AM -99999.99 -179968 -99999.99 -99999.99 -99999.99 -99999.99
11/12/2022 8:15:00 AM -99999.99 -179968 -99999.99 -99999.99 -99999.99 -99999.99
11/12/2022 8:30:00 AM -99999.99 -179968 -99999.99 -99999.99 -99999.99 -99999.99
11/12/2022 8:45:00 AM -99999.99 -179968 -99999.99 -99999.99 -99999.99 -99999.99
11/12/2022 9:00:00 AM -99999.99 -179968 -99999.99 -99999.99 -99999.99 -99999.99
11/12/2022 9:15:00 AM -99999.99 -179968 -99999.99 -99999.99 -99999.99 -99999.99
11/12/2022 9:30:00 AM 10.73 51.314 0.054 7.33 41.92 10.45
11/12/2022 9:45:00 AM 10.73 51.314 0.055 7.35 700.64 10.47
11/12/2022 10:00:00 AM 10.68 51.224 0.055 7.35 38.15 10.47
11/12/2022 10:15:00 AM 10.69 51.242 0.058 7.35 38.46 10.47
11/12/2022 10:30:00 AM 10.68 51.224 0.057 7.36 42.58 10.49
11/12/2022 10:45:00 AM 10.66 51.188 0.058 7.37 40.74 10.5
11/12/2022 11:00:00 AM 10.62 51.116 0.058 7.29 46.84 10.51
11/12/2022 11:15:00 AM 10.6 51.08 0.058 7.33 28.47 10.52
11/12/2022 11:30:00 AM 10.57 51.026 0.058 7.33 26.83 10.52
11/12/2022 11:45:00 AM 10.58 51.044 0.058 7.38 26.52 10.53
11/12/2022 12:00:00 PM 10.58 51.044 0.058 7.38 28.37 10.51
11/12/2022 12:15:00 PM 10.56 51.008 0.057 7.32 22439.74 10.5
11/12/2022 12:30:00 PM 10.6 51.08 0.05 7.39 4834.33 10.52
11/12/2022 12:45:00 PM 10.64 51.152 0.058 7.3 38.79 10.5
11/12/2022 1:00:00 PM 10.68 51.224 0.059 7.4 28.24 10.49
11/12/2022 1:15:00 PM 10.69 51.242 0.059 7.37 39.5 10.49
11/12/2022 1:30:00 PM 10.7 51.26 0.059 7.32 89.92 10.48
11/12/2022 1:45:00 PM 10.67 51.206 0.059 7.39 716.57 10.48
11/12/2022 2:00:00 PM 10.68 51.224 0.059 7.4 28.53 10.47
11/12/2022 2:15:00 PM 10.68 51.224 0.059 7.41 25123.53 10.47
11/12/2022 2:30:00 PM 10.63 51.134 0.059 7.38 28 10.46
11/12/2022 2:45:00 PM 10.61 51.098 0.059 7.39 25.17 10.47
11/12/2022 3:00:00 PM 10.64 51.152 0.059 7.4 24.14 10.48
11/12/2022 3:15:00 PM 10.64 51.152 0.06 7.41 23.9 10.48
11/12/2022 3:30:00 PM 10.62 51.116 0.06 7.41 24.68 10.48
11/12/2022 3:45:00 PM 10.61 51.098 0.06 7.41 23.33 10.49
11/12/2022 4:00:00 PM 10.58 51.044 0.06 7.4 22.1 10.49
11/12/2022 4:15:00 PM 10.55 50.99 0.06 7.4 21.6 10.5
11/12/2022 4:30:00 PM 10.53 50.954 0.06 7.39 21.7 10.51
11/12/2022 4:45:00 PM 10.51 50.918 0.06 7.38 22.27 10.51
11/12/2022 5:00:00 PM 10.45 50.81 0.06 7.4 22.81 10.52
11/12/2022 5:15:00 PM 10.42 50.756 0.06 7.4 20.76 10.53
11/12/2022 5:30:00 PM 10.38 50.684 0.06 7.4 21.02 10.54
11/12/2022 5:45:00 PM 10.34 50.612 0.06 7.41 21.53 10.55
11/12/2022 6:00:00 PM 10.3 50.54 0.061 7.41 23.29 10.56
11/12/2022 6:15:00 PM 10.26 50.468 0.061 7.41 22.68 10.57
11/12/2022 6:30:00 PM 10.23 50.414 0.061 7.41 21.79 10.58
11/12/2022 6:45:00 PM 10.19 50.342 0.061 7.41 21.12 10.59
11/12/2022 7:00:00 PM 10.15 50.27 0.061 7.41 21.17 10.6
11/12/2022 7:15:00 PM 10.12 50.216 0.061 7.41 35.53 10.6
11/12/2022 7:30:00 PM 10.09 50.162 0.061 7.41 21.16 10.62
11/12/2022 7:45:00 PM 10.06 50.108 0.061 7.4 20.86 10.62
11/12/2022 8:00:00 PM 10.02 50.036 0.061 7.41 20.63 10.64
11/12/2022 8:15:00 PM 9.99 49.982 0.061 7.42 38.57 10.65
11/12/2022 8:30:00 PM 9.94 49.892 0.061 7.42 24.21 10.67
11/12/2022 8:45:00 PM 9.9 49.82 0.062 7.4 21.86 10.68
11/12/2022 9:00:00 PM 9.87 49.766 0.062 7.41 38.76 10.69
11/12/2022 9:15:00 PM 9.84 49.712 0.062 7.34 22.41 10.69
11/12/2022 9:30:00 PM 9.81 49.658 0.062 7.42 18.71 10.69
11/12/2022 9:45:00 PM 9.76 49.568 0.062 7.42 17.87 10.72
11/12/2022 10:00:00 PM 9.7 49.46 0.062 7.42 27.33 10.74
11/12/2022 10:15:00 PM 9.64 49.352 0.062 7.41 31.44 10.75
11/12/2022 10:30:00 PM 9.59 49.262 0.062 7.42 17.01 10.77
11/12/2022 10:45:00 PM 9.54 49.172 0.062 7.42 17.36 10.78
11/12/2022 11:00:00 PM 9.49 49.082 0.062 7.41 18.11 10.8
11/12/2022 11:15:00 PM 9.44 48.992 0.062 7.41 17.92 10.81
11/12/2022 11:30:00 PM 9.38 48.884 0.063 7.42 18.69 10.83
11/12/2022 11:45:00 PM 9.32 48.776 0.063 7.42 17.6 10.84
11/13/2022 12:00:00 AM 9.25 48.65 0.063 7.42 18.38 10.86
11/13/2022 12:15:00 AM 9.2 48.56 0.063 7.42 18.11 10.88
11/13/2022 12:30:00 AM 9.14 48.452 0.063 7.41 18.43 10.89
11/13/2022 12:45:00 AM 9.09 48.362 0.063 7.42 18.09 10.9
11/13/2022 1:00:00 AM 9.03 48.254 0.063 7.41 16.49 10.92
11/13/2022 1:15:00 AM 8.97 48.146 0.063 7.41 16.38 10.94
11/13/2022 1:30:00 AM 8.92 48.056 0.063 7.42 16.65 10.96
11/13/2022 1:45:00 AM 8.85 47.93 0.063 7.41 16.38 10.98
11/13/2022 2:00:00 AM 8.8 47.84 0.063 7.41 17.52 10.99
11/13/2022 2:15:00 AM 8.75 47.75 0.063 7.41 16.72 11
11/13/2022 2:30:00 AM 8.69 47.642 0.063 7.41 16.32 11.02
11/13/2022 2:45:00 AM 8.62 47.516 0.063 7.41 17.78 11.04
11/13/2022 3:00:00 AM 8.55 47.39 0.063 7.41 16.37 11.06
11/13/2022 3:15:00 AM 8.48 47.264 0.063 7.4 16.2 11.08
11/13/2022 3:30:00 AM 8.43 47.174 0.063 7.4 15.5 11.1
11/13/2022 3:45:00 AM 8.38 47.084 0.063 7.4 16.62 11.11
11/13/2022 4:00:00 AM 8.33 46.994 0.063 7.4 16.12 11.13
11/13/2022 4:15:00 AM 8.29 46.922 0.063 7.4 15.23 11.14
11/13/2022 4:30:00 AM 8.25 46.85 0.063 7.4 15.6 11.15
11/13/2022 4:45:00 AM 8.21 46.778 0.063 7.4 15.31 11.16
11/13/2022 5:00:00 AM 8.17 46.706 0.063 7.4 14.96 11.17
11/13/2022 5:15:00 AM 8.14 46.652 0.063 7.4 15.2 11.18
11/13/2022 5:30:00 AM 8.11 46.598 0.063 7.4 15.46 11.19
11/13/2022 5:45:00 AM 8.08 46.544 0.063 7.4 14.16 11.2
11/13/2022 6:00:00 AM 8.05 46.49 0.063 7.4 14.8 11.21
11/13/2022 6:15:00 AM 8.02 46.436 0.063 7.4 14.88 11.22
11/13/2022 6:30:00 AM 7.99 46.382 0.063 7.4 14.57 11.23
11/13/2022 6:45:00 AM 7.96 46.328 0.063 7.4 14.69 11.24
11/13/2022 7:00:00 AM 7.93 46.274 0.063 7.4 14.4 11.25
11/13/2022 7:15:00 AM 7.91 46.238 0.063 7.4 14.51 11.26
11/13/2022 7:30:00 AM 7.88 46.184 0.063 7.39 14.51 11.27
11/13/2022 7:45:00 AM 7.86 46.148 0.063 7.4 14.17 11.27
11/13/2022 8:00:00 AM 7.83 46.094 0.063 7.39 13.85 11.28
11/13/2022 8:15:00 AM 7.81 46.058 0.063 7.4 14.36 11.29
11/13/2022 8:30:00 AM 7.8 46.04 0.063 7.4 14.26 11.3
11/13/2022 8:45:00 AM 7.79 46.022 0.063 7.4 13.9 11.31
11/13/2022 9:00:00 AM 7.78 46.004 0.063 7.4 13.66 11.32
11/13/2022 9:15:00 AM 7.78 46.004 0.063 7.41 14.3 11.33
11/13/2022 9:30:00 AM 7.78 46.004 0.063 7.41 13.86 11.34
11/13/2022 9:45:00 AM 7.78 46.004 0.063 7.41 14.16 11.34
11/13/2022 10:00:00 AM 7.77 45.986 0.063 7.41 13.86 11.34
11/13/2022 10:15:00 AM 7.8 46.04 0.063 7.41 13.9 11.34
11/13/2022 10:30:00 AM 7.78 46.004 0.063 7.41 13.42 11.33
11/13/2022 10:45:00 AM 7.75 45.95 0.062 7.41 14.03 11.35
11/13/2022 11:00:00 AM 7.77 45.986 0.062 7.41 13.38 11.35
11/13/2022 11:15:00 AM 7.82 46.076 0.063 7.41 13.9 11.34
11/13/2022 11:30:00 AM 7.83 46.094 0.063 7.42 13.54 11.33
11/13/2022 11:45:00 AM 7.8 46.04 0.063 7.41 13.67 11.33
11/13/2022 12:00:00 PM 7.76 45.968 0.063 7.42 13.58 11.35
11/13/2022 12:15:00 PM 7.74 45.932 0.063 7.42 14.58 11.35
11/13/2022 12:30:00 PM 7.74 45.932 0.063 7.42 14.28 11.35
11/13/2022 12:45:00 PM 7.77 45.986 0.063 7.42 14.98 11.36
11/13/2022 1:00:00 PM 7.82 46.076 0.063 7.42 15.51 11.34
11/13/2022 1:15:00 PM 7.81 46.058 0.063 7.42 14.35 11.34
11/13/2022 1:30:00 PM 7.8 46.04 0.063 7.42 14.63 11.34
11/13/2022 1:45:00 PM 7.81 46.058 0.063 7.42 13.97 11.34
11/13/2022 2:00:00 PM 7.82 46.076 0.063 7.42 14.05 11.34
11/13/2022 2:15:00 PM 7.81 46.058 0.063 7.42 14.07 11.34
11/13/2022 2:30:00 PM 7.79 46.022 0.063 7.42 13.95 11.33
11/13/2022 2:45:00 PM 7.74 45.932 0.063 7.42 13.46 11.35
11/13/2022 3:00:00 PM 7.68 45.824 0.063 7.42 14.35 11.37
11/13/2022 3:15:00 PM 7.66 45.788 0.063 7.42 14.66 11.37
11/13/2022 3:30:00 PM 7.68 45.824 0.063 7.42 14.25 11.37
11/13/2022 3:45:00 PM 7.69 45.842 0.063 7.42 14.16 11.36
11/13/2022 4:00:00 PM 7.62 45.716 0.063 7.42 13.54 11.38
11/13/2022 4:15:00 PM 7.59 45.662 0.063 7.42 14.27 11.39
11/13/2022 4:30:00 PM 7.55 45.59 0.063 7.41 14.03 11.39
11/13/2022 4:45:00 PM 7.47 45.446 0.063 7.41 14.65 11.41
11/13/2022 5:00:00 PM 7.43 45.374 0.063 7.42 14.13 11.43
11/13/2022 5:15:00 PM 7.42 45.356 0.063 7.41 13.36 11.44
11/13/2022 5:30:00 PM 7.41 45.338 0.063 7.41 13.92 11.44
11/13/2022 5:45:00 PM 7.38 45.284 0.063 7.41 13.46 11.45
11/13/2022 6:00:00 PM 7.31 45.158 0.063 7.41 13.86 11.46
11/13/2022 6:15:00 PM 7.24 45.032 0.063 7.4 14.65 11.48
11/13/2022 6:30:00 PM 7.19 44.942 0.053 7.39 6227.64 11.5
11/13/2022 6:45:00 PM 7.17 44.906 0.063 7.4 17.07 11.51
11/13/2022 7:00:00 PM 7.15 44.87 0.063 7.4 20.43 11.52
11/13/2022 7:15:00 PM 7.09 44.762 0.063 7.4 17.56 11.54
11/13/2022 7:30:00 PM 7.07 44.726 0.063 7.39 16.15 11.56
11/13/2022 7:45:00 PM 7.04 44.672 0.047 7.37 3740.72 11.56
11/13/2022 8:00:00 PM 7.01 44.618 0.063 7.36 2334.71 11.58
11/13/2022 8:15:00 PM 6.89 44.402 0.063 7.31 15.38 11.58
11/13/2022 8:30:00 PM 6.86 44.348 0.058 7.33 24.08 11.62
11/13/2022 8:45:00 PM 6.82 44.276 0.058 7.36 179.41 11.63
11/13/2022 9:00:00 PM 6.78 44.204 0.063 7.34 2475.12 11.65
11/13/2022 9:15:00 PM 6.75 44.15 0.047 7.35 28.02 11.66
11/13/2022 9:30:00 PM 6.73 44.114 0.063 7.34 12.59 11.67
11/13/2022 9:45:00 PM 6.71 44.078 0.063 7.36 13.29 11.68
11/13/2022 10:00:00 PM 6.67 44.006 0.063 7.36 211.22 11.68
11/13/2022 10:15:00 PM 6.64 43.952 0.063 7.36 11.35 11.7
11/13/2022 10:30:00 PM 6.59 43.862 0.057 7.36 27.44 11.71
11/13/2022 10:45:00 PM 6.55 43.79 0.063 7.35 11.39 11.72
11/13/2022 11:00:00 PM 6.53 43.754 0.063 7.36 11.49 11.73
11/13/2022 11:15:00 PM 6.51 43.718 0.063 7.36 15.25 11.74
11/13/2022 11:30:00 PM 6.48 43.664 0.063 7.37 23.99 11.75
11/13/2022 11:45:00 PM 6.45 43.61 0.063 7.37 24.18 11.76
11/14/2022 12:00:00 AM 6.43 43.574 0.063 7.38 11.97 11.77
11/14/2022 12:15:00 AM 6.4 43.52 0.063 7.36 20.27 11.77
11/14/2022 12:30:00 AM 6.38 43.484 0.063 7.38 40.3 11.78
11/14/2022 12:45:00 AM 6.35 43.43 0.063 7.37 389.89 11.79
11/14/2022 1:00:00 AM 6.32 43.376 0.063 7.37 15.16 11.8
11/14/2022 1:15:00 AM 6.27 43.286 0.098 7.36 11.1 11.82
11/14/2022 1:30:00 AM 6.23 43.214 0.066 7.38 10.61 11.84
11/14/2022 1:45:00 AM 6.18 43.124 0.064 7.37 10.59 11.85
11/14/2022 2:00:00 AM 6.15 43.07 0.063 7.37 9.95 11.87
11/14/2022 2:15:00 AM 6.1 42.98 0.063 7.38 9.97 11.88
11/14/2022 2:30:00 AM 6.05 42.89 0.143 7.37 13.16 11.89
11/14/2022 2:45:00 AM 6.01 42.818 0.067 7.38 10.66 11.9
11/14/2022 3:00:00 AM 5.98 42.764 0.064 7.37 12.38 11.92
11/14/2022 3:15:00 AM 5.94 42.692 0.064 7.37 11.1 11.94
11/14/2022 3:30:00 AM 5.91 42.638 0.064 7.37 10.41 11.95
11/14/2022 3:45:00 AM 5.87 42.566 0.063 7.37 15.88 11.97
11/14/2022 4:00:00 AM 5.84 42.512 0.063 7.37 12.4 11.98
11/14/2022 4:15:00 AM 5.81 42.458 0.063 7.38 9.46 11.99
11/14/2022 4:30:00 AM 5.79 42.422 0.063 7.37 10.86 11.99
11/14/2022 4:45:00 AM 5.76 42.368 0.063 7.38 14.63 12.01
11/14/2022 5:00:00 AM 5.74 42.332 0.063 7.38 10.09 12.01
11/14/2022 5:15:00 AM 5.71 42.278 0.063 7.38 10.2 12.02
11/14/2022 5:30:00 AM 5.67 42.206 0.063 7.38 14.26 12.03
11/14/2022 5:45:00 AM 5.63 42.134 0.063 7.37 9.64 12.05
11/14/2022 6:00:00 AM 5.61 42.098 0.063 7.38 11.53 12.06
11/14/2022 6:15:00 AM 5.59 42.062 0.063 7.38 26.21 12.07
11/14/2022 6:30:00 AM 5.56 42.008 0.063 7.38 10.45 12.08
11/14/2022 6:45:00 AM 5.53 41.954 0.063 7.37 15.8 12.09
11/14/2022 7:00:00 AM 5.5 41.9 0.063 7.38 27.27 12.1
11/14/2022 7:15:00 AM 5.47 41.846 0.063 7.38 23.2 12.11
11/14/2022 7:30:00 AM 5.46 41.828 0.063 7.38 11.86 12.13
11/14/2022 7:45:00 AM 5.44 41.792 0.063 7.38 12.46 12.13
11/14/2022 8:00:00 AM 5.42 41.756 0.063 7.38 17.46 12.14
11/14/2022 8:15:00 AM 5.4 41.72 0.063 7.38 14.71 12.16
11/14/2022 8:30:00 AM 5.38 41.684 0.063 7.39 15.98 12.17
11/14/2022 8:45:00 AM 5.37 41.666 0.063 7.39 18.67 12.18
11/14/2022 9:00:00 AM 5.37 41.666 0.063 7.4 27.39 12.19
11/14/2022 9:15:00 AM 5.38 41.684 0.063 7.4 27.14 12.19
11/14/2022 9:30:00 AM 5.37 41.666 0.063 7.4 26.94 12.2
11/14/2022 9:45:00 AM 5.36 41.648 0.063 7.4 32.33 12.2
11/14/2022 10:00:00 AM 5.35 41.63 0.063 7.41 30.52 12.2
11/14/2022 10:15:00 AM 5.35 41.63 0.063 7.41 32.43 12.21
11/14/2022 10:30:00 AM 5.37 41.666 0.063 7.41 32.58 12.2
11/14/2022 10:45:00 AM 5.41 41.738 0.063 7.41 33.92 12.2
11/14/2022 11:00:00 AM 5.46 41.828 0.063 7.42 34.27 12.18
11/14/2022 11:15:00 AM 5.48 41.864 0.063 7.42 33.78 12.18
11/14/2022 11:30:00 AM 5.52 41.936 0.063 7.42 34.27 12.17
11/14/2022 11:45:00 AM 5.52 41.936 0.063 7.42 34.1 12.17
11/14/2022 12:00:00 PM 5.59 42.062 0.063 7.42 35.47 12.15
11/14/2022 12:15:00 PM 5.62 42.116 0.063 7.43 33.79 12.14
11/14/2022 12:30:00 PM 5.64 42.152 0.063 7.42 30.59 12.13
11/14/2022 12:45:00 PM 5.83 42.494 0.063 7.43 31.4 12.06
11/14/2022 1:00:00 PM 5.85 42.53 0.063 7.43 34.28 12.05
11/14/2022 1:15:00 PM 5.86 42.548 0.063 7.43 35.87 12.05
11/14/2022 1:30:00 PM 5.87 42.566 0.063 7.43 33.77 12.05
11/14/2022 1:45:00 PM 5.89 42.602 0.063 7.44 30.8 12.04
11/14/2022 2:00:00 PM 5.91 42.638 0.063 7.43 32.66 12.03
11/14/2022 2:15:00 PM 5.93 42.674 0.063 7.44 32.9 12.03
11/14/2022 2:30:00 PM 5.93 42.674 0.063 7.44 32.54 12.02
11/14/2022 2:45:00 PM 5.92 42.656 0.063 7.43 31.89 12.02
11/14/2022 3:00:00 PM 5.9 42.62 0.063 7.43 31.19 12.02
11/14/2022 3:15:00 PM 5.88 42.584 0.063 7.43 30.03 12.03
11/14/2022 3:30:00 PM 5.86 42.548 0.064 7.43 30.62 12.03
11/14/2022 3:45:00 PM 5.84 42.512 0.064 7.43 31.17 12.04
11/14/2022 4:00:00 PM 5.82 42.476 0.064 7.42 28.73 12.03
11/14/2022 4:15:00 PM 5.8 42.44 0.064 7.42 29.28 12.03
11/14/2022 4:30:00 PM 5.78 42.404 0.064 7.42 30.84 12.04
11/14/2022 4:45:00 PM 5.76 42.368 0.064 7.42 28.81 12.04
11/14/2022 5:00:00 PM 5.74 42.332 0.064 7.41 30.07 12.05
11/14/2022 5:15:00 PM 5.73 42.314 0.064 7.41 31.22 12.05
11/14/2022 5:30:00 PM 5.71 42.278 0.064 7.41 30.75 12.06
11/14/2022 5:45:00 PM 5.69 42.242 0.064 7.41 30.16 12.06
11/14/2022 6:00:00 PM 5.68 42.224 0.064 7.41 30.19 12.07
11/14/2022 6:15:00 PM 5.66 42.188 0.064 7.41 29.85 12.07
11/14/2022 6:30:00 PM 5.65 42.17 0.064 7.41 29.66 12.08
11/14/2022 6:45:00 PM 5.62 42.116 0.064 7.4 29.59 12.08
11/14/2022 7:00:00 PM 5.61 42.098 0.064 7.4 30.3 12.09
11/14/2022 7:15:00 PM 5.59 42.062 0.064 7.4 26.88 12.09
11/14/2022 7:30:00 PM 5.57 42.026 0.064 7.4 23.7 12.11
11/14/2022 7:45:00 PM 5.55 41.99 0.064 7.4 22.88 12.11
11/14/2022 8:00:00 PM 5.52 41.936 0.064 7.4 27.11 12.11
11/14/2022 8:15:00 PM 5.5 41.9 0.064 7.4 25.36 12.12
11/14/2022 8:30:00 PM 5.48 41.864 0.064 7.4 24.9 12.12
11/14/2022 8:45:00 PM 5.46 41.828 0.064 7.4 24.51 12.14
11/14/2022 9:00:00 PM 5.42 41.756 0.064 7.4 24.57 12.14
11/14/2022 9:15:00 PM 5.36 41.648 0.064 7.4 25.25 12.16
11/14/2022 9:30:00 PM 5.29 41.522 0.064 7.39 23.98 12.17
11/14/2022 9:45:00 PM 5.23 41.414 0.064 7.4 26.5 12.19
11/14/2022 10:00:00 PM 5.18 41.324 0.064 7.38 23.34 12.21
11/14/2022 10:15:00 PM 5.13 41.234 0.064 7.37 25.58 12.23
11/14/2022 10:30:00 PM 5.08 41.144 0.064 7.37 23.32 12.24
11/14/2022 10:45:00 PM 5.03 41.054 0.064 7.37 22.76 12.26
11/14/2022 11:00:00 PM 5 41 0.064 7.37 24.69 12.26
11/14/2022 11:15:00 PM 4.96 40.928 0.064 7.37 25.26 12.28
11/14/2022 11:30:00 PM 4.92 40.856 0.064 7.37 23.11 12.28
11/14/2022 11:45:00 PM 4.88 40.784 0.064 7.36 24.58 12.29
11/15/2022 12:00:00 AM 4.86 40.748 0.064 7.37 21.77 12.31
11/15/2022 12:15:00 AM 4.84 40.712 0.064 7.37 23.01 12.32
11/15/2022 12:30:00 AM 4.83 40.694 0.064 7.37 23.38 12.33
11/15/2022 12:45:00 AM 4.82 40.676 0.064 7.37 21.98 12.34
11/15/2022 1:00:00 AM 4.8 40.64 0.064 7.37 22.54 12.33
11/15/2022 1:15:00 AM 4.78 40.604 0.064 7.37 22.79 12.32
11/15/2022 1:30:00 AM 4.76 40.568 0.064 7.37 23.29 12.34
11/15/2022 1:45:00 AM 4.75 40.55 0.064 7.37 22.56 12.35
11/15/2022 2:00:00 AM 4.73 40.514 0.064 7.37 21.73 12.37
11/15/2022 2:15:00 AM 4.72 40.496 0.064 7.37 21.62 12.37
11/15/2022 2:30:00 AM 4.72 40.496 0.064 7.37 22.06 12.37
11/15/2022 2:45:00 AM 4.7 40.46 0.064 7.37 23.72 12.38
11/15/2022 3:00:00 AM 4.69 40.442 0.064 7.37 24.71 12.39
11/15/2022 3:15:00 AM 4.67 40.406 0.064 7.37 23.31 12.39
11/15/2022 3:30:00 AM 4.65 40.37 0.064 7.37 22.35 12.4
11/15/2022 3:45:00 AM 4.61 40.298 0.064 7.37 22.62 12.4
11/15/2022 4:00:00 AM 4.57 40.226 0.064 7.37 22.54 12.41
11/15/2022 4:15:00 AM 4.54 40.172 0.064 7.37 23.01 12.42
11/15/2022 4:30:00 AM 4.5 40.1 0.064 7.37 22.62 12.43
11/15/2022 4:45:00 AM 4.46 40.028 0.065 7.37 22.22 12.45
11/15/2022 5:00:00 AM 4.42 39.956 0.065 7.36 23.84 12.46
11/15/2022 5:15:00 AM 4.38 39.884 0.065 7.36 22.32 12.49
11/15/2022 5:30:00 AM 4.34 39.812 0.065 7.36 23.6 12.49
11/15/2022 5:45:00 AM 4.32 39.776 0.065 7.36 22.18 12.51
11/15/2022 6:00:00 AM 4.29 39.722 0.065 7.36 22.3 12.51
11/15/2022 6:15:00 AM 4.28 39.704 0.065 7.36 22.64 12.52
11/15/2022 6:30:00 AM 4.26 39.668 0.065 7.36 22.26 12.53
11/15/2022 6:45:00 AM 4.25 39.65 0.065 7.36 22.5 12.54
11/15/2022 7:00:00 AM 4.24 39.632 0.065 7.36 22.49 12.54
11/15/2022 7:15:00 AM 4.23 39.614 0.065 7.36 21.79 12.56
11/15/2022 7:30:00 AM 4.23 39.614 0.065 7.37 22.19 12.56
11/15/2022 7:45:00 AM 4.23 39.614 0.065 7.37 21.49 12.56
11/15/2022 8:00:00 AM 4.23 39.614 0.065 7.37 21.81 12.56
11/15/2022 8:15:00 AM 4.25 39.65 0.065 7.37 22.21 12.57
11/15/2022 8:30:00 AM 4.27 39.686 0.065 7.38 21.83 12.58
11/15/2022 8:45:00 AM 4.28 39.704 0.065 7.38 22 12.57
11/15/2022 9:00:00 AM 4.29 39.722 0.065 7.38 22.56 12.56
11/15/2022 9:15:00 AM 4.31 39.758 0.065 7.39 22.03 12.54
11/15/2022 9:30:00 AM 4.36 39.848 0.065 7.4 22.22 12.55
11/15/2022 9:45:00 AM 4.4 39.92 0.065 7.41 22.03 12.54
11/15/2022 10:00:00 AM 4.45 40.01 0.065 7.41 22.22 12.53
11/15/2022 10:15:00 AM 4.49 40.082 0.065 7.42 22.14 12.51
11/15/2022 10:30:00 AM 4.5 40.1 0.065 7.42 22.07 12.51
11/15/2022 10:45:00 AM 4.5 40.1 0.065 7.42 21.78 12.51
11/15/2022 11:00:00 AM 4.49 40.082 0.065 7.41 22.2 12.51
11/15/2022 11:15:00 AM 4.5 40.1 0.065 7.42 22.43 12.5
11/15/2022 11:30:00 AM 4.51 40.118 0.065 7.42 22.39 12.5
11/15/2022 11:45:00 AM 4.53 40.154 0.065 7.42 22.42 12.48
11/15/2022 12:00:00 PM 4.56 40.208 0.065 7.42 21.85 12.47
11/15/2022 12:15:00 PM 4.58 40.244 0.065 7.42 21.73 12.45
11/15/2022 12:30:00 PM 4.59 40.262 0.065 7.42 21.93 12.44
11/15/2022 12:45:00 PM 4.62 40.316 0.065 7.42 22.07 12.41
11/15/2022 1:00:00 PM 4.64 40.352 0.065 7.42 22.05 12.41
11/15/2022 1:15:00 PM 4.63 40.334 0.065 7.42 22.27 12.42
11/15/2022 1:30:00 PM 4.64 40.352 0.065 7.43 21.79 12.41
11/15/2022 1:45:00 PM 4.67 40.406 0.065 7.43 21.84 12.4
11/15/2022 2:00:00 PM 4.7 40.46 0.065 7.43 22.02 12.39
11/15/2022 2:15:00 PM 4.72 40.496 0.065 7.43 22.46 12.39
11/15/2022 2:30:00 PM 4.72 40.496 0.065 7.43 22.23 12.37
11/15/2022 2:45:00 PM 4.71 40.478 0.065 7.43 22.23 12.38
11/15/2022 3:00:00 PM 4.69 40.442 0.065 7.43 22.32 12.39
11/15/2022 3:15:00 PM 4.66 40.388 0.065 7.42 22.53 12.4
11/15/2022 3:30:00 PM 4.59 40.262 0.065 7.42 22.14 12.42
11/15/2022 3:45:00 PM 4.5 40.1 0.065 7.42 22.27 12.44
11/15/2022 4:00:00 PM 4.34 39.812 0.065 7.41 22.3 12.48
11/15/2022 4:15:00 PM 4.15 39.47 0.064 7.41 22.3 12.53
11/15/2022 4:30:00 PM 4.06 39.308 0.064 7.4 22.58 12.55
11/15/2022 4:45:00 PM 3.96 39.128 0.064 7.4 22 12.57
11/15/2022 5:00:00 PM 3.9 39.02 0.064 7.36 42.4 12.6
11/15/2022 5:15:00 PM 3.91 39.038 0.064 7.37 22.82 12.6
11/15/2022 5:30:00 PM 3.86 38.948 0.064 7.37 22.72 12.61
11/15/2022 5:45:00 PM 3.81 38.858 0.064 7.37 22.81 12.62
11/15/2022 6:00:00 PM 3.76 38.768 0.064 7.37 22.5 12.64
11/15/2022 6:15:00 PM 3.74 38.732 0.064 7.37 22.36 12.64
11/15/2022 6:30:00 PM 3.7 38.66 0.064 7.37 22.32 12.65
11/15/2022 6:45:00 PM 3.66 38.588 0.064 7.37 21.99 12.66
11/15/2022 7:00:00 PM 3.52 38.336 0.064 7.36 21.4 12.7
11/15/2022 7:15:00 PM 3.45 38.21 0.064 7.34 21.15 12.72
11/15/2022 7:30:00 PM 3.42 38.156 0.064 7.35 21.27 12.72
11/15/2022 7:45:00 PM 3.45 38.21 0.064 7.36 20.46 12.72
11/15/2022 8:00:00 PM 3.5 38.3 0.064 7.36 20.55 12.71
11/15/2022 8:15:00 PM 3.55 38.39 0.064 7.38 20.49 12.7
11/15/2022 8:30:00 PM 3.56 38.408 0.064 7.38 20.01 12.7
11/15/2022 8:45:00 PM 3.56 38.408 0.064 7.38 20.07 12.69
11/15/2022 9:00:00 PM 3.58 38.444 0.064 7.39 19.55 12.68
11/15/2022 9:15:00 PM 3.63 38.534 0.064 7.39 19.57 12.67
11/15/2022 9:30:00 PM 3.66 38.588 0.064 7.39 19.15 12.66
11/15/2022 9:45:00 PM 3.7 38.66 0.064 7.39 19.21 12.64
11/15/2022 10:00:00 PM 3.73 38.714 0.064 7.39 19.14 12.64
11/15/2022 10:15:00 PM 3.75 38.75 0.064 7.4 19.22 12.64
11/15/2022 10:30:00 PM 3.77 38.786 0.064 7.4 18.93 12.63
11/15/2022 10:45:00 PM 3.79 38.822 0.064 7.4 19.18 12.62
11/15/2022 11:00:00 PM 3.72 38.696 0.064 7.4 18.89 12.64
11/15/2022 11:15:00 PM 3.66 38.588 0.064 7.4 19.19 12.66
11/15/2022 11:30:00 PM 3.68 38.624 0.064 7.4 19.14 12.65
11/15/2022 11:45:00 PM 3.71 38.678 0.064 7.4 19.26 12.64
11/16/2022 12:00:00 AM 3.75 38.75 0.064 7.4 19.08 12.62
11/16/2022 12:15:00 AM 3.76 38.768 0.064 7.4 18.92 12.62
11/16/2022 12:30:00 AM 3.78 38.804 0.064 7.4 18.87 12.6
11/16/2022 12:45:00 AM 3.81 38.858 0.065 7.41 18.81 12.58
11/16/2022 1:00:00 AM 3.76 38.768 0.064 7.41 18.97 12.6
11/16/2022 1:15:00 AM 3.79 38.822 0.064 7.41 18.99 12.57
11/16/2022 1:30:00 AM 3.79 38.822 0.065 7.41 19.12 12.57
11/16/2022 1:45:00 AM 3.79 38.822 0.065 7.4 19.32 12.56
11/16/2022 2:00:00 AM 3.81 38.858 0.065 7.4 19.32 12.55
11/16/2022 2:15:00 AM 3.82 38.876 0.065 7.4 19.23 12.54
11/16/2022 2:30:00 AM 3.83 38.894 0.065 7.4 19.34 12.54
11/16/2022 2:45:00 AM 3.86 38.948 0.065 7.4 20.17 12.53
11/16/2022 3:00:00 AM 3.87 38.966 0.065 7.4 19.55 12.52
11/16/2022 3:15:00 AM 3.9 39.02 0.065 7.4 19.55 12.52
11/16/2022 3:30:00 AM 3.92 39.056 0.065 7.4 19.06 12.5
11/16/2022 3:45:00 AM 3.94 39.092 0.066 7.4 20.06 12.49
11/16/2022 4:00:00 AM 3.97 39.146 0.066 7.4 19.26 12.48
11/16/2022 4:15:00 AM 3.99 39.182 0.066 7.4 19.52 12.47
11/16/2022 4:30:00 AM 4.01 39.218 0.066 7.4 20.08 12.46
11/16/2022 4:45:00 AM 4.03 39.254 0.066 7.4 20.17 12.46
11/16/2022 5:00:00 AM 4.05 39.29 0.066 7.4 20.14 12.45
11/16/2022 5:15:00 AM 4.08 39.344 0.066 7.4 20.05 12.44
11/16/2022 5:30:00 AM 4.1 39.38 0.066 7.4 19.97 12.44
11/16/2022 5:45:00 AM 4.11 39.398 0.067 7.4 25.66 12.43
11/16/2022 6:00:00 AM 4.13 39.434 0.067 7.4 20.48 12.42
11/16/2022 6:15:00 AM 4.15 39.47 0.067 7.4 20.14 12.42
11/16/2022 6:30:00 AM 4.17 39.506 0.067 7.41 20.04 12.42
11/16/2022 6:45:00 AM 4.19 39.542 0.067 7.41 20.11 12.41
11/16/2022 7:00:00 AM 4.2 39.56 0.067 7.41 20.36 12.41
11/16/2022 7:15:00 AM 4.22 39.596 0.067 7.41 20.01 12.41
11/16/2022 7:30:00 AM 4.23 39.614 0.067 7.41 20.37 12.4
11/16/2022 7:45:00 AM 4.25 39.65 0.067 7.41 20.77 12.4
11/16/2022 8:00:00 AM 4.26 39.668 0.067 7.41 19.92 12.4
11/16/2022 8:15:00 AM 4.26 39.668 0.067 7.42 19.92 12.41
11/16/2022 8:30:00 AM 4.29 39.722 0.067 7.42 20.33 12.4
11/16/2022 8:45:00 AM 4.31 39.758 0.067 7.42 20.4 12.4
11/16/2022 9:00:00 AM 4.3 39.74 0.067 7.42 20.25 12.39
11/16/2022 9:15:00 AM 4.3 39.74 0.067 7.43 20.16 12.39
11/16/2022 9:30:00 AM 4.3 39.74 0.067 7.43 20.11 12.38
11/16/2022 9:45:00 AM 4.31 39.758 0.067 7.43 20.51 12.4
11/16/2022 10:00:00 AM 4.34 39.812 0.067 7.43 21.32 12.38
11/16/2022 10:15:00 AM 4.43 39.974 0.066 7.44 21.93 12.36
11/16/2022 10:30:00 AM 4.47 40.046 0.066 7.44 22.7 12.35
11/16/2022 10:45:00 AM 4.51 40.118 0.066 7.44 22.27 12.32
11/16/2022 11:00:00 AM 4.57 40.226 0.067 7.44 22.73 12.3
11/16/2022 11:15:00 AM 4.63 40.334 0.067 7.44 22.31 12.28
11/16/2022 11:30:00 AM 4.68 40.424 0.067 7.44 22.83 12.26
11/16/2022 11:45:00 AM 4.7 40.46 0.067 7.44 22.84 12.25
11/16/2022 12:00:00 PM 4.7 40.46 0.067 7.44 22.88 12.25
11/16/2022 12:15:00 PM 4.73 40.514 0.067 7.44 22.27 12.24
11/16/2022 12:30:00 PM 4.78 40.604 0.067 7.44 22.57 12.22
11/16/2022 12:45:00 PM 4.87 40.766 0.067 7.45 22.5 12.2
11/16/2022 1:00:00 PM 4.95 40.91 0.067 7.45 25.23 12.18
11/16/2022 1:15:00 PM 4.98 40.964 0.067 7.45 26.73 12.16
11/16/2022 1:30:00 PM 4.99 40.982 0.067 7.46 26.09 12.17
11/16/2022 1:45:00 PM 4.99 40.982 0.067 7.46 26.61 12.17
11/16/2022 2:00:00 PM 5.02 41.036 0.067 7.46 24.19 12.15
11/16/2022 2:15:00 PM 5.02 41.036 0.067 7.46 25.78 12.15
11/16/2022 2:30:00 PM 5.04 41.072 0.067 7.46 26.62 12.15
11/16/2022 2:45:00 PM 5.01 41.018 0.068 7.46 25.56 12.13
11/16/2022 3:00:00 PM 4.99 40.982 0.068 7.46 24.71 12.14
11/16/2022 3:15:00 PM 5.03 41.054 0.068 7.46 30.09 12.15
11/16/2022 3:30:00 PM 5.05 41.09 0.068 7.46 23.9 12.13
11/16/2022 3:45:00 PM 5.04 41.072 0.068 7.46 23.36 12.13
11/16/2022 4:00:00 PM 5.03 41.054 0.068 7.45 24.74 12.12
11/16/2022 4:15:00 PM 5.02 41.036 0.068 7.45 23.9 12.12
11/16/2022 4:30:00 PM 5 41 0.068 7.44 23.43 12.12
11/16/2022 4:45:00 PM 4.99 40.982 0.068 7.44 23.01 12.12
11/16/2022 5:00:00 PM 4.98 40.964 0.068 7.44 23.33 12.11
11/16/2022 5:15:00 PM 4.98 40.964 0.068 7.44 22.7 12.11
11/16/2022 5:30:00 PM 4.97 40.946 0.068 7.44 23.87 12.11
11/16/2022 5:45:00 PM 4.96 40.928 0.068 7.44 23.61 12.11
11/16/2022 6:00:00 PM 4.95 40.91 0.068 7.44 22.99 12.12
11/16/2022 6:15:00 PM 4.93 40.874 0.068 7.44 23.1 12.13
11/16/2022 6:30:00 PM 4.9 40.82 0.068 7.44 22.74 12.13
11/16/2022 6:45:00 PM 4.88 40.784 0.068 7.44 22.81 12.14
11/16/2022 7:00:00 PM 4.84 40.712 0.068 7.44 22.77 12.15
11/16/2022 7:15:00 PM 4.8 40.64 0.068 7.43 23.14 12.16
11/16/2022 7:30:00 PM 4.77 40.586 0.068 7.43 23.01 12.17
11/16/2022 7:45:00 PM 4.76 40.568 0.068 7.43 22.5 12.17
11/16/2022 8:00:00 PM 4.77 40.586 0.068 7.43 23.23 12.18
11/16/2022 8:15:00 PM 4.76 40.568 0.068 7.43 22.84 12.18
11/16/2022 8:30:00 PM 4.73 40.514 0.068 7.42 25.12 12.19
11/16/2022 8:45:00 PM 4.7 40.46 0.068 7.42 23 12.21
11/16/2022 9:00:00 PM 4.68 40.424 0.068 7.42 22.54 12.21
11/16/2022 9:15:00 PM 4.69 40.442 0.068 7.43 22.56 12.21
11/16/2022 9:30:00 PM 4.69 40.442 0.068 7.42 21.8 12.21
11/16/2022 9:45:00 PM 4.69 40.442 0.068 7.42 22.12 12.2
11/16/2022 10:00:00 PM 4.69 40.442 0.068 7.42 22.07 12.21
11/16/2022 10:15:00 PM 4.68 40.424 0.068 7.43 22.23 12.2
11/16/2022 10:30:00 PM 4.68 40.424 0.068 7.43 21.78 12.21
11/16/2022 10:45:00 PM 4.66 40.388 0.068 7.43 22.02 12.21
11/16/2022 11:00:00 PM 4.65 40.37 0.068 7.43 22 12.22
11/16/2022 11:15:00 PM 4.62 40.316 0.068 7.43 21.82 12.23
11/16/2022 11:30:00 PM 4.59 40.262 0.068 7.43 21.97 12.24
11/16/2022 11:45:00 PM 4.57 40.226 0.068 7.43 22.05 12.24
11/17/2022 12:00:00 AM 4.55 40.19 0.068 7.43 21.73 12.26
11/17/2022 12:15:00 AM 4.54 40.172 0.068 7.43 21.83 12.25
11/17/2022 12:30:00 AM 4.52 40.136 0.068 7.43 21.29 12.25
11/17/2022 12:45:00 AM 4.51 40.118 0.068 7.43 21.4 12.26
11/17/2022 1:00:00 AM 4.49 40.082 0.068 7.42 21.14 12.27
11/17/2022 1:15:00 AM 4.47 40.046 0.068 7.42 21.07 12.27
11/17/2022 1:30:00 AM 4.45 40.01 0.068 7.42 20.91 12.29
11/17/2022 1:45:00 AM 4.44 39.992 0.068 7.42 20.94 12.29
11/17/2022 2:00:00 AM 4.43 39.974 0.068 7.42 20.62 12.3
11/17/2022 2:15:00 AM 4.41 39.938 0.068 7.42 20.51 12.29
11/17/2022 2:30:00 AM 4.4 39.92 0.068 7.42 20.59 12.28
11/17/2022 2:45:00 AM 4.38 39.884 0.068 7.42 20.61 12.31
11/17/2022 3:00:00 AM 4.37 39.866 0.068 7.42 20.3 12.28
11/17/2022 3:15:00 AM 4.36 39.848 0.068 7.42 20.38 12.32
11/17/2022 3:30:00 AM 4.34 39.812 0.068 7.42 20.25 12.32
11/17/2022 3:45:00 AM 4.33 39.794 0.068 7.42 20.21 12.32
11/17/2022 4:00:00 AM 4.32 39.776 0.068 7.42 20.53 12.33
11/17/2022 4:15:00 AM 4.3 39.74 0.068 7.42 20.06 12.33
11/17/2022 4:30:00 AM 4.28 39.704 0.068 7.42 20.14 12.34
11/17/2022 4:45:00 AM 4.25 39.65 0.068 7.42 20.27 12.36
11/17/2022 5:00:00 AM 4.24 39.632 0.068 7.42 20.19 12.36
11/17/2022 5:15:00 AM 4.21 39.578 0.068 7.42 20.16 12.37
11/17/2022 5:30:00 AM 4.2 39.56 0.068 7.42 20.6 12.39
11/17/2022 5:45:00 AM 4.15 39.47 0.068 7.42 19.79 12.41
11/17/2022 6:00:00 AM 4.11 39.398 0.068 7.42 20.14 12.42
11/17/2022 6:15:00 AM 4.07 39.326 0.068 7.42 19.7 12.43
11/17/2022 6:30:00 AM 4.04 39.272 0.068 7.42 19.77 12.43
11/17/2022 6:45:00 AM 4.01 39.218 0.068 7.42 19.81 12.46
11/17/2022 7:00:00 AM 3.98 39.164 0.068 7.42 20.02 12.46
11/17/2022 7:15:00 AM 3.96 39.128 0.068 7.42 19.88 12.49
11/17/2022 7:30:00 AM 3.94 39.092 0.068 7.42 19.87 12.51
11/17/2022 7:45:00 AM 3.94 39.092 0.068 7.42 19.68 12.52
11/17/2022 8:00:00 AM 3.98 39.164 0.068 7.43 19.8 12.5
11/17/2022 8:15:00 AM 4.02 39.236 0.068 7.43 19.93 12.49
11/17/2022 8:30:00 AM 4.03 39.254 0.068 7.43 19.83 12.48
11/17/2022 8:45:00 AM 4.02 39.236 0.068 7.43 19.93 12.47
11/17/2022 9:00:00 AM 4.04 39.272 0.068 7.43 19.95 12.5
11/17/2022 9:15:00 AM 4.07 39.326 0.067 7.43 19.76 12.48
11/17/2022 9:30:00 AM 4.09 39.362 0.067 7.44 20.02 12.47
11/17/2022 9:45:00 AM 4.15 39.47 0.067 7.44 20.14 12.45
11/17/2022 10:00:00 AM 4.18 39.524 0.067 7.44 20.42 12.44
11/17/2022 10:15:00 AM 4.22 39.596 0.067 7.44 20.41 12.45
11/17/2022 10:30:00 AM 4.26 39.668 0.067 7.44 20.47 12.41
11/17/2022 10:45:00 AM 4.26 39.668 0.067 7.45 20.63 12.43
11/17/2022 11:00:00 AM 4.24 39.632 0.067 7.44 20.87 12.43
11/17/2022 11:15:00 AM 4.24 39.632 0.067 7.44 20.62 12.44
11/17/2022 11:30:00 AM 4.25 39.65 0.067 7.44 20.72 12.44
11/17/2022 11:45:00 AM 4.28 39.704 0.067 7.45 20.94 12.4
11/17/2022 12:00:00 PM 4.31 39.758 0.067 7.45 20.85 12.42
11/17/2022 12:15:00 PM 4.33 39.794 0.067 7.45 20.96 12.35
11/17/2022 12:30:00 PM 4.33 39.794 0.067 7.45 20.7 12.37
11/17/2022 12:45:00 PM 4.35 39.83 0.067 7.45 21.04 12.37
11/17/2022 1:00:00 PM 4.39 39.902 0.067 7.45 21.27 12.35
11/17/2022 1:15:00 PM 4.46 40.028 0.067 7.45 21.31 12.33
11/17/2022 1:30:00 PM 4.45 40.01 0.067 7.45 26.85 12.34
11/17/2022 1:45:00 PM 4.41 39.938 0.067 7.45 25.51 12.39
11/17/2022 2:00:00 PM 4.39 39.902 0.068 7.45 40.38 12.34
11/17/2022 2:15:00 PM 4.34 39.812 0.068 7.45 59.04 12.41
11/17/2022 2:30:00 PM 4.31 39.758 0.068 7.4 29.01 12.42
11/17/2022 2:45:00 PM 4.32 39.776 0.068 7.38 1621.52 12.39
11/17/2022 3:00:00 PM 4.31 39.758 0.068 7.42 26.39 12.4
11/17/2022 3:15:00 PM 4.3 39.74 0.068 7.44 134.39 12.39
11/17/2022 3:30:00 PM 4.23 39.614 0.068 7.44 26.69 12.4
11/17/2022 3:45:00 PM 4.23 39.614 0.068 7.44 29.88 12.44
11/17/2022 4:00:00 PM 4.22 39.596 0.068 7.45 29.66 12.45
11/17/2022 4:15:00 PM 4.21 39.578 0.068 7.44 27.08 12.42
11/17/2022 4:30:00 PM 4.2 39.56 0.068 7.44 26.84 12.45
11/17/2022 4:45:00 PM 4.14 39.452 0.068 7.43 358.75 12.51
11/17/2022 5:00:00 PM 4.1 39.38 0.068 7.43 77.68 12.51
11/17/2022 5:15:00 PM 4.08 39.344 0.068 7.43 333.07 12.52
11/17/2022 5:30:00 PM 4.03 39.254 0.068 7.42 27.11 12.53
11/17/2022 5:45:00 PM 3.99 39.182 0.068 7.42 28.17 12.49
11/17/2022 6:00:00 PM 3.94 39.092 0.068 7.42 28.02 12.55
11/17/2022 6:15:00 PM 3.9 39.02 0.068 7.42 27.31 12.57
11/17/2022 6:30:00 PM 3.85 38.93 0.068 7.42 27.16 12.59
11/17/2022 6:45:00 PM 3.81 38.858 0.068 7.42 26.65 12.61
11/17/2022 7:00:00 PM 3.77 38.786 0.068 7.42 26.43 12.62
11/17/2022 7:15:00 PM 3.73 38.714 0.068 7.42 26.35 12.63
11/17/2022 7:30:00 PM 3.69 38.642 0.068 7.42 26.17 12.64
11/17/2022 7:45:00 PM 3.65 38.57 0.068 7.42 26.37 12.66
11/17/2022 8:00:00 PM 3.61 38.498 0.068 7.42 26.52 12.67
11/17/2022 8:15:00 PM 3.59 38.462 0.068 7.42 26.43 12.67
11/17/2022 8:30:00 PM 3.57 38.426 0.068 7.42 26.47 12.69
11/17/2022 8:45:00 PM 3.56 38.408 0.068 7.4 26.24 12.63
11/17/2022 9:00:00 PM 3.53 38.354 0.068 7.4 26.87 12.69
11/17/2022 9:15:00 PM 3.5 38.3 0.068 7.32 27.56 12.71
11/17/2022 9:30:00 PM 3.5 38.3 0.068 7.33 28.34 12.72
11/17/2022 9:45:00 PM 3.5 38.3 0.068 7.4 1331.85 12.68
11/17/2022 10:00:00 PM 3.5 38.3 0.068 7.41 27.89 12.71
11/17/2022 10:15:00 PM 3.49 38.282 0.068 7.4 1161.16 12.72
11/17/2022 10:30:00 PM 3.49 38.282 0.068 7.4 25.86 12.71
11/17/2022 10:45:00 PM 3.49 38.282 0.068 7.4 26.96 12.71
11/17/2022 11:00:00 PM 3.46 38.228 0.068 7.41 50.59 12.66
11/17/2022 11:15:00 PM 3.45 38.21 0.068 7.41 30.07 12.75
11/17/2022 11:30:00 PM 3.45 38.21 0.068 7.42 28.51 12.7
11/17/2022 11:45:00 PM 3.45 38.21 0.068 7.43 26.24 12.72
11/18/2022 12:00:00 AM 3.43 38.174 0.068 7.43 27.73 12.74
11/18/2022 12:15:00 AM 3.43 38.174 0.068 7.43 27.35 12.75
11/18/2022 12:30:00 AM 3.43 38.174 0.068 7.42 26.99 12.73
11/18/2022 12:45:00 AM 3.39 38.102 0.068 7.43 27.76 12.63
11/18/2022 1:00:00 AM 3.37 38.066 0.068 7.43 26.93 12.77
11/18/2022 1:15:00 AM 3.34 38.012 0.068 7.43 27.39 12.78
11/18/2022 1:30:00 AM 3.31 37.958 0.068 7.42 27.92 12.69
11/18/2022 1:45:00 AM 3.22 37.796 0.068 7.43 27.53 12.78
11/18/2022 2:00:00 AM 3.17 37.706 0.068 7.43 27.68 12.81
11/18/2022 2:15:00 AM 3.13 37.634 0.068 7.44 27.11 12.78
11/18/2022 2:30:00 AM 3.09 37.562 0.068 7.44 27.88 12.87
11/18/2022 2:45:00 AM 3 37.4 0.068 7.41 27.45 12.8
11/18/2022 3:00:00 AM 3.05 37.49 0.068 7.45 27.47 12.82
11/18/2022 3:15:00 AM 2.99 37.382 0.068 7.45 28 12.88
11/18/2022 3:30:00 AM 2.97 37.346 0.068 7.45 27.78 12.88
11/18/2022 3:45:00 AM 2.93 37.274 0.068 7.46 28.14 12.87
11/18/2022 4:00:00 AM 2.89 37.202 0.068 7.47 29.04 12.92
11/18/2022 4:15:00 AM 2.87 37.166 0.068 7.47 26.41 12.88
11/18/2022 4:30:00 AM 2.82 37.076 0.068 7.47 26.74 12.93
11/18/2022 4:45:00 AM 2.8 37.04 0.067 7.46 28.59 12.91
11/18/2022 5:00:00 AM 2.73 36.914 0.067 7.47 29.49 12.95
11/18/2022 5:15:00 AM 2.75 36.95 0.067 7.47 29.62 12.93
11/18/2022 5:30:00 AM 2.72 36.896 0.067 7.47 29.69 12.93
11/18/2022 5:45:00 AM 2.67 36.806 0.067 7.48 30.24 12.96
11/18/2022 6:00:00 AM 2.64 36.752 0.067 7.46 30.66 12.93
11/18/2022 6:15:00 AM 2.59 36.662 0.067 7.5 30.49 12.94
11/18/2022 6:30:00 AM 2.58 36.644 0.067 7.51 31.07 12.98
11/18/2022 6:45:00 AM 2.53 36.554 0.067 7.52 31.3 12.96
11/18/2022 7:00:00 AM 2.49 36.482 0.067 7.51 30.72 12.95
11/18/2022 7:15:00 AM 2.48 36.464 0.066 7.51 31.84 12.93
11/18/2022 7:30:00 AM 2.47 36.446 0.066 7.51 32.01 13.01
11/18/2022 7:45:00 AM 2.5 36.5 0.066 7.52 31.74 12.98
11/18/2022 8:00:00 AM 2.53 36.554 0.066 7.53 31.59 13.01
11/18/2022 8:15:00 AM 2.54 36.572 0.065 7.52 30.87 12.99
11/18/2022 8:30:00 AM 2.57 36.626 0.065 7.53 27.37 12.99
11/18/2022 8:45:00 AM 2.48 36.464 0.065 7.5 28.18 12.88
11/18/2022 9:00:00 AM 2.55 36.59 0.065 7.54 29.47 12.99
11/18/2022 9:15:00 AM 2.57 36.626 0.065 7.54 30.68 12.94
11/18/2022 9:30:00 AM 2.6 36.68 0.065 7.55 30.4 12.98
11/18/2022 9:45:00 AM 2.65 36.77 0.064 7.54 30.82 12.97
11/18/2022 10:00:00 AM 2.66 36.788 0.063 7.54 31.07 12.95
11/18/2022 10:15:00 AM 2.64 36.752 0.063 7.54 31.48 12.92
11/18/2022 10:30:00 AM 2.71 36.878 0.063 7.54 31.14 12.93
11/18/2022 10:45:00 AM 2.75 36.95 0.062 7.55 31.31 12.92
11/18/2022 11:00:00 AM 2.72 36.896 0.061 7.55 32.28 12.96
11/18/2022 11:15:00 AM 2.75 36.95 0.061 7.58 31.63 12.94
11/18/2022 11:30:00 AM 2.73 36.914 0.06 7.56 31.97 12.91
11/18/2022 11:45:00 AM 2.78 37.004 0.061 7.54 31.83 12.85
11/18/2022 12:00:00 PM 2.83 37.094 0.061 7.58 31.95 12.89
11/18/2022 12:15:00 PM 2.88 37.184 0.062 7.57 31.43 12.85
11/18/2022 12:30:00 PM 2.91 37.238 0.059 7.57 32.2 12.83
11/18/2022 12:45:00 PM 2.94 37.292 0.06 7.47 31.86 12.8
11/18/2022 1:00:00 PM 3.03 37.454 0.059 7.57 32.41 12.81
11/18/2022 1:15:00 PM 3.05 37.49 0.057 7.59 33.35 12.81
11/18/2022 1:30:00 PM 3.04 37.472 0.056 7.56 33.49 12.77
11/18/2022 1:45:00 PM 3.04 37.472 0.057 7.58 33.24 12.81
11/18/2022 2:00:00 PM 3.09 37.562 0.056 7.57 33.64 12.76
11/18/2022 2:15:00 PM 3.14 37.652 0.057 7.56 33.31 12.77
11/18/2022 2:30:00 PM 3.09 37.562 0.053 7.53 34.88 12.76
11/18/2022 2:45:00 PM 3.09 37.562 0.056 7.56 33.48 12.8
11/18/2022 3:00:00 PM 3.1 37.58 0.053 7.57 34.18 12.78
11/18/2022 3:15:00 PM 3.06 37.508 0.054 7.57 33.93 12.77
11/18/2022 3:30:00 PM 3.09 37.562 0.054 7.54 34.07 12.76
11/18/2022 3:45:00 PM 3.03 37.454 0.051 7.51 35.23 12.79
11/18/2022 4:00:00 PM 3.01 37.418 0.052 7.54 34.9 12.78
11/18/2022 4:15:00 PM 2.99 37.382 0.051 7.52 35.17 12.77
11/18/2022 4:30:00 PM 2.99 37.382 0.051 7.51 35.75 12.8
11/18/2022 4:45:00 PM 2.93 37.274 0.05 7.51 35.32 12.81
11/18/2022 5:00:00 PM 2.91 37.238 0.05 7.47 35.51 12.82
11/18/2022 5:15:00 PM 2.87 37.166 0.05 7.53 35.73 12.85
11/18/2022 5:30:00 PM 2.82 37.076 0.049 7.49 36.37 12.87
11/18/2022 5:45:00 PM 2.84 37.112 0.047 7.46 37.51 12.88
11/18/2022 6:00:00 PM 2.8 37.04 0.048 7.44 36.37 12.88
11/18/2022 6:15:00 PM 2.76 36.968 0.047 7.43 37.15 12.88
11/18/2022 6:30:00 PM 2.72 36.896 0.046 7.45 37.08 12.89
11/18/2022 6:45:00 PM 2.67 36.806 0.045 7.46 37.9 12.89
11/18/2022 7:00:00 PM 2.68 36.824 0.044 7.42 38.46 12.93
11/18/2022 7:15:00 PM 2.59 36.662 0.043 7.41 40 12.91
11/18/2022 7:30:00 PM 2.57 36.626 0.044 7.43 38.43 12.97
11/18/2022 7:45:00 PM 2.55 36.59 0.043 7.42 38.94 12.97
11/18/2022 8:00:00 PM 2.47 36.446 0.043 7.43 39.33 12.99
11/18/2022 8:15:00 PM 2.36 36.248 0.042 7.44 39.77 12.98
11/18/2022 8:30:00 PM 2.33 36.194 0.039 7.44 41.28 13.02
11/18/2022 8:45:00 PM 2.24 36.032 0.04 7.43 40.79 13.05
11/18/2022 9:00:00 PM 2.26 36.068 0.038 7.4 41.53 13.04
11/18/2022 9:15:00 PM 2.27 36.086 0.036 6.93 43.72 13.05
11/18/2022 9:30:00 PM 2.12 35.816 0.038 6.93 41.33 13.06
11/18/2022 9:45:00 PM 2.1 35.78 0.036 6.93 43.29 13.04
11/18/2022 10:00:00 PM 2.02 35.636 0.035 6.91 44.02 13.08
11/18/2022 10:15:00 PM 2.01 35.618 0.036 6.93 43.61 13.08
11/18/2022 10:30:00 PM 1.97 35.546 0.032 6.96 46.76 13.11
11/18/2022 10:45:00 PM 1.88 35.384 0.031 6.94 51.9 13.16
11/18/2022 11:00:00 PM 1.92 35.456 0.033 6.96 47.76 13.17
11/18/2022 11:15:00 PM 1.89 35.402 0.031 6.95 47.91 13.19
11/18/2022 11:30:00 PM 1.84 35.312 0.029 6.98 50.37 13.23
11/18/2022 11:45:00 PM 1.68 35.024 0.028 6.97 51.25 13.21
11/19/2022 12:00:00 AM 1.66 34.988 0.029 6.98 50.85 13.27
11/19/2022 12:15:00 AM 1.64 34.952 0.027 7 54.29 13.27
11/19/2022 12:30:00 AM 1.62 34.916 0.023 7.01 62.19 13.3
11/19/2022 12:45:00 AM 1.55 34.79 0.023 6.98 57.78 13.32
11/19/2022 1:00:00 AM 1.51 34.718 0.023 6.97 56.47 13.31
11/19/2022 1:15:00 AM 1.47 34.646 0.019 6.98 59.1 13.35
11/19/2022 1:30:00 AM 1.46 34.628 0.022 7.01 56 13.36
11/19/2022 1:45:00 AM 1.44 34.592 0.02 7 57.35 13.34
11/19/2022 2:00:00 AM 1.3 34.34 0.018 7 58.22 13.43
11/19/2022 2:15:00 AM 1.27 34.286 0.014 7 64.58 13.4
11/19/2022 2:30:00 AM 1.21 34.178 0.014 7.01 60.56 13.44
11/19/2022 2:45:00 AM 1.18 34.124 0.011 7 65.26 13.39
11/19/2022 3:00:00 AM 1.16 34.088 0.013 7.01 62.1 13.43
11/19/2022 3:15:00 AM 1.07 33.926 0.012 7.01 63.55 13.47
11/19/2022 3:30:00 AM 1.06 33.908 0.012 7.02 61.21 13.47
11/19/2022 3:45:00 AM 1.06 33.908 0.01 7 63.09 13.46
11/19/2022 4:00:00 AM 1.12 34.016 0.008 7 63.01 13.47
11/19/2022 4:15:00 AM 1.03 33.854 0.008 7.01 62.72 13.54
11/19/2022 4:30:00 AM 0.96 33.728 0.006 7.03 66.99 13.53
11/19/2022 4:45:00 AM 0.99 33.782 0.009 7.02 66.14 13.5
11/19/2022 5:00:00 AM 1.05 33.89 0.006 7.01 65.28 13.52
11/19/2022 5:15:00 AM 1 33.8 0.006 6.99 64.62 13.54
11/19/2022 5:30:00 AM 0.98 33.764 0.004 7.45 64.73 13.57
11/19/2022 5:45:00 AM 0.91 33.638 0.003 7.44 64.11 13.6
11/19/2022 6:00:00 AM 0.87 33.566 0.004 6.98 63.45 13.62
11/19/2022 6:15:00 AM 0.82 33.476 0.002 7.45 60.14 13.63
11/19/2022 6:30:00 AM 0.74 33.332 0.003 7.43 60.83 13.67
11/19/2022 6:45:00 AM 0.67 33.206 0.002 7.47 60.87 13.7
11/19/2022 7:00:00 AM 0.62 33.116 0.001 7.44 59.66 13.72
11/19/2022 7:15:00 AM 0.48 32.864 0.001 7.43 57.04 13.77
11/19/2022 7:30:00 AM 0.59 33.062 0.002 7.43 58.49 13.75
11/19/2022 7:45:00 AM 0.6 33.08 0.001 6.97 61.54 13.74
11/19/2022 8:00:00 AM 0.52 32.936 0.001 7.47 54.31 13.78
11/19/2022 8:15:00 AM 0.52 32.936 0 7.46 51.11 13.74
11/19/2022 8:30:00 AM 0.41 32.738 0 7.38 51.76 13.78
11/19/2022 8:45:00 AM 0.58 33.044 0 7.28 51.27 13.72
11/19/2022 9:00:00 AM 0.5 32.9 0 7.49 52.76 13.72
11/19/2022 9:15:00 AM 0.57 33.026 0 6.98 50.18 13.76
11/19/2022 9:30:00 AM 0.45 32.81 0 7.48 53.32 13.79
11/19/2022 9:45:00 AM 0.57 33.026 0 7.44 52.28 13.71
11/19/2022 10:00:00 AM 0.78 33.404 0 7.52 48.7 13.67
11/19/2022 10:15:00 AM 0.69 33.242 0 7.55 48.18 13.71
11/19/2022 10:30:00 AM 0.76 33.368 0 7.51 49.5 13.71
11/19/2022 10:45:00 AM 0.75 33.35 0 7.44 46.99 13.68
11/19/2022 11:00:00 AM 0.86 33.548 0 7.51 48.41 13.68
11/19/2022 11:15:00 AM 0.76 33.368 0 7.49 44.64 13.7
11/19/2022 11:30:00 AM 0.75 33.35 0 7.54 43.53 13.71
11/19/2022 11:45:00 AM 0.61 33.098 0 7.53 41.97 13.77
11/19/2022 12:00:00 PM 0.68 33.224 0 7.51 42.67 13.74
11/19/2022 12:15:00 PM 0.51 32.918 0 7.28 41.92 13.75
11/19/2022 12:30:00 PM 0.69 33.242 0 7.5 44.1 13.73
11/19/2022 12:45:00 PM 0.79 33.422 0 7.5 44.89 13.66
11/19/2022 1:00:00 PM 0.91 33.638 0 7.45 40.4 13.58
11/19/2022 1:15:00 PM 0.84 33.512 0 7.36 42.36 13.64
11/19/2022 1:30:00 PM 0.92 33.656 0 7.38 42.65 13.58
11/19/2022 1:45:00 PM 0.9 33.62 0 7.45 40.61 13.61
11/19/2022 2:00:00 PM 0.73 33.314 0 7.27 39.94 13.64
11/19/2022 2:15:00 PM 0.88 33.584 0 7.31 36.09 13.53
11/19/2022 2:30:00 PM 0.91 33.638 0 7.37 43.28 13.55
11/19/2022 2:45:00 PM 0.84 33.512 0 7.46 40.52 13.59
11/19/2022 3:00:00 PM 0.66 33.188 0 7.43 37.62 13.7
11/19/2022 3:15:00 PM 0.8 33.44 0 7.27 40.01 13.56
11/19/2022 3:30:00 PM 0.85 33.53 0 7.44 38.59 13.58
11/19/2022 3:45:00 PM 0.84 33.512 0 7.36 40.05 13.56
11/19/2022 4:00:00 PM 0.68 33.224 0 7.4 38.48 13.66
11/19/2022 4:15:00 PM 0.74 33.332 0 7.26 35.61 13.61
11/19/2022 4:30:00 PM 0.75 33.35 0 7.4 36.5 13.63
11/19/2022 4:45:00 PM 0.64 33.152 0 7.32 38.08 13.64
11/19/2022 5:00:00 PM 0.69 33.242 0 7.39 34.41 13.65
11/19/2022 5:15:00 PM 0.69 33.242 0 7.37 33.59 13.66
11/19/2022 5:30:00 PM 0.6 33.08 0 7.39 32.3 13.69
11/19/2022 5:45:00 PM 0.59 33.062 0 7.36 31.98 13.66
11/19/2022 6:00:00 PM 0.57 33.026 0 7.41 33.47 13.72
11/19/2022 6:15:00 PM 0.56 33.008 0 7.37 32.63 13.7
11/19/2022 6:30:00 PM 0.66 33.188 0 7.41 30.33 13.69
11/19/2022 6:45:00 PM 0.68 33.224 0 7.4 29.83 13.68
11/19/2022 7:00:00 PM 0.68 33.224 0 7.42 28.82 13.64
11/19/2022 7:15:00 PM 0.66 33.188 0 7.4 28.62 13.67
11/19/2022 7:30:00 PM 0.7 33.26 0 7.41 28.66 13.68
11/19/2022 7:45:00 PM 0.66 33.188 0 7.4 25.92 13.69
11/19/2022 8:00:00 PM 0.75 33.35 0 7.39 25.11 13.66
11/19/2022 8:15:00 PM 0.71 33.278 0 7.42 23.1 13.68
11/19/2022 8:30:00 PM 0.71 33.278 0 7.41 22.58 13.67
11/19/2022 8:45:00 PM 0.72 33.296 0 7.4 23.2 13.65
11/19/2022 9:00:00 PM 0.75 33.35 0 7.42 23.73 13.66
11/19/2022 9:15:00 PM 0.78 33.404 0 7.4 21.81 13.64
11/19/2022 9:30:00 PM 0.72 33.296 0 7.44 21.45 13.67
11/19/2022 9:45:00 PM 0.7 33.26 0 7.42 22.24 13.67
11/19/2022 10:00:00 PM 0.71 33.278 0 7.39 21.57 13.63
11/19/2022 10:15:00 PM 0.72 33.296 0 7.43 20.38 13.65
11/19/2022 10:30:00 PM 0.75 33.35 0 7.43 19.88 13.64
11/19/2022 10:45:00 PM 0.68 33.224 0 7.46 18.03 13.67
11/19/2022 11:00:00 PM 0.54 32.972 0 7.45 19.36 13.67
11/19/2022 11:15:00 PM 0.48 32.864 0 7.44 18.47 13.68
11/19/2022 11:30:00 PM 0.53 32.954 0 7.45 18.92 13.72
11/19/2022 11:45:00 PM 0.52 32.936 0 7.45 17.44 13.7
11/20/2022 12:00:00 AM 0.42 32.756 0 7.47 20.73 13.72
11/20/2022 12:15:00 AM 0.55 32.99 0 7.47 16.69 13.69
11/20/2022 12:30:00 AM 0.38 32.684 0 7.33 17.31 13.72
11/20/2022 12:45:00 AM 0.45 32.81 0 7.49 17.44 13.73
11/20/2022 1:00:00 AM 0.33 32.594 0 7.28 16.46 13.71
11/20/2022 1:15:00 AM 0.18 32.324 0 7.32 15.93 13.78
11/20/2022 1:30:00 AM 0.26 32.468 0 7.43 16.17 13.75
11/20/2022 1:45:00 AM 0.1 32.18 0 7.36 14.63 13.78
11/20/2022 2:00:00 AM 0.23 32.414 0 7.47 14.42 13.82
11/20/2022 2:15:00 AM 0.16 32.288 0 7.49 15.66 13.87
11/20/2022 2:30:00 AM 0.09 32.162 0 7.52 13.73 13.99
11/20/2022 2:45:00 AM 0.09 32.162 0 7.44 21.52 13.96
11/20/2022 3:00:00 AM -0.06 31.892 0 7.39 14.76 13.9
11/20/2022 3:15:00 AM 0.04 32.072 0 7.54 14.52 13.94
11/20/2022 3:30:00 AM 0.01 32.018 0 7.41 13.89 14.06
11/20/2022 3:45:00 AM -0.27 31.514 0 6.81 16.04 14.14
11/20/2022 4:00:00 AM -99999.99 -179968 -99999.99 -99999.99 -99999.99 -99999.99
11/20/2022 4:15:00 AM -99999.99 -179968 -99999.99 -99999.99 -99999.99 -99999.99
11/20/2022 4:30:00 AM -99999.99 -179968 -99999.99 -99999.99 -99999.99 -99999.99
11/20/2022 4:45:00 AM -99999.99 -179968 -99999.99 -99999.99 -99999.99 -99999.99
11/20/2022 5:00:00 AM -99999.99 -179968 -99999.99 -99999.99 -99999.99 -99999.99
11/20/2022 5:15:00 AM -99999.99 -179968 -99999.99 -99999.99 -99999.99 -99999.99
11/20/2022 5:30:00 AM -99999.99 -179968 -99999.99 -99999.99 -99999.99 -99999.99
11/20/2022 5:45:00 AM -99999.99 -179968 -99999.99 -99999.99 -99999.99 -99999.99
11/20/2022 6:00:00 AM -99999.99 -179968 -99999.99 -99999.99 -99999.99 -99999.99
11/20/2022 6:15:00 AM -99999.99 -179968 -99999.99 -99999.99 -99999.99 -99999.99
11/20/2022 6:30:00 AM -99999.99 -179968 -99999.99 -99999.99 -99999.99 -99999.99
11/20/2022 6:45:00 AM -99999.99 -179968 -99999.99 -99999.99 -99999.99 -99999.99
11/20/2022 7:00:00 AM -99999.99 -179968 -99999.99 -99999.99 -99999.99 -99999.99
11/20/2022 7:15:00 AM -99999.99 -179968 -99999.99 -99999.99 -99999.99 -99999.99
11/20/2022 7:30:00 AM -99999.99 -179968 -99999.99 -99999.99 -99999.99 -99999.99
11/20/2022 7:45:00 AM -0.6 30.92 0 6.32 18.46 14.27
11/20/2022 8:00:00 AM -0.52 31.064 0 6.1 18.74 14.25
11/20/2022 8:15:00 AM -0.6 30.92 0 6.36 18.98 14.3
11/20/2022 8:30:00 AM -0.57 30.974 0 6.39 19.34 14.29
11/20/2022 8:45:00 AM -0.5 31.1 0 6.08 19.5 14.2
11/20/2022 9:00:00 AM -0.7 30.74 0 6.58 19.8 14.38
11/20/2022 9:15:00 AM -0.56 30.992 0 5.79 19.89 14.28
11/20/2022 9:30:00 AM -0.35 31.37 0 6.26 19.93 14.18
11/20/2022 9:45:00 AM -0.23 31.586 0 6.29 19.99 14.09
11/20/2022 10:00:00 AM -0.34 31.388 0 6.14 20.03 14.18
11/20/2022 10:15:00 AM -0.57 30.974 0 6 20.12 14.31
11/20/2022 10:30:00 AM -0.31 31.442 0 6.19 20.17 14.16
11/20/2022 10:45:00 AM -0.4 31.28 0 6.34 20.2 14.23
11/20/2022 11:00:00 AM -0.28 31.496 0 6.26 20.22 14.17
11/20/2022 11:15:00 AM -0.37 31.334 0 6.35 20.29 14.23
11/20/2022 11:30:00 AM -0.43 31.226 0 6.09 20.32 14.25
11/20/2022 11:45:00 AM -0.34 31.388 0 6.32 20.4 14.2
11/20/2022 12:00:00 PM -0.39 31.298 0 6.02 20.43 14.23
11/20/2022 12:15:00 PM -0.29 31.478 0 6.32 20.45 14.16
11/20/2022 12:30:00 PM -0.29 31.478 0 6.18 20.5 14.16
11/20/2022 12:45:00 PM -0.28 31.496 0 6.08 20.52 14.17
11/20/2022 1:00:00 PM -0.4 31.28 0 5.82 20.55 14.24
11/20/2022 1:15:00 PM -0.36 31.352 0 6.25 20.57 14.25
11/20/2022 1:30:00 PM -0.25 31.55 0 6.26 20.6 14.15
11/20/2022 1:45:00 PM -0.2 31.64 0 6.15 20.61 14.13
11/20/2022 2:00:00 PM -0.26 31.532 0 6.31 20.68 14.18
11/20/2022 2:15:00 PM -0.32 31.424 0 6.27 20.68 14.21
11/20/2022 2:30:00 PM -0.38 31.316 0 6.27 20.73 14.27
11/20/2022 2:45:00 PM -0.52 31.064 0 6.26 20.77 14.33
11/20/2022 3:00:00 PM -0.33 31.406 0 6.24 20.79 14.22
11/20/2022 3:15:00 PM -0.38 31.316 0 6.09 20.86 14.25
11/20/2022 3:30:00 PM -0.31 31.442 0 6.16 20.87 14.19
11/20/2022 3:45:00 PM -0.32 31.424 0 6.18 20.9 14.18
11/20/2022 4:00:00 PM -0.31 31.442 0 6.27 20.92 14.2
11/20/2022 4:15:00 PM -0.39 31.298 0 6.16 20.92 14.23
11/20/2022 4:30:00 PM -0.47 31.154 0 6.05 20.94 14.29
11/20/2022 4:45:00 PM -0.32 31.424 0 6.23 20.94 14.17
11/20/2022 5:00:00 PM -0.47 31.154 0 6.24 20.98 14.3
11/20/2022 5:15:00 PM -0.47 31.154 0 6.18 21 14.27
11/20/2022 5:30:00 PM -0.46 31.172 0 6.26 21 14.29
11/20/2022 5:45:00 PM -0.39 31.298 0 6.28 21.01 14.27
11/20/2022 6:00:00 PM -0.58 30.956 0 6.21 21.09 14.36
11/20/2022 6:15:00 PM -0.43 31.226 0 6.26 21.06 14.27
11/20/2022 6:30:00 PM -0.34 31.388 0 6.29 21.1 14.21
11/20/2022 6:45:00 PM -0.43 31.226 0 6.29 21.1 14.27
11/20/2022 7:00:00 PM -0.39 31.298 0 6.28 21.12 14.26
11/20/2022 7:15:00 PM -0.55 31.01 0 6.13 21.18 14.34
11/20/2022 7:30:00 PM -0.45 31.19 0 6.25 21.2 14.29
11/20/2022 7:45:00 PM -0.41 31.262 0 6.14 21.2 14.24
11/20/2022 8:00:00 PM -0.41 31.262 0 6.26 21.25 14.26
11/20/2022 8:15:00 PM -0.38 31.316 0 6.28 21.26 14.25
11/20/2022 8:30:00 PM -0.3 31.46 0 6.28 21.29 14.2
11/20/2022 8:45:00 PM -0.32 31.424 0 6.3 21.29 14.22
11/20/2022 9:00:00 PM -0.36 31.352 0 6.17 21.32 14.22
11/20/2022 9:15:00 PM -0.31 31.442 0 6.31 21.34 14.19
11/20/2022 9:30:00 PM -0.31 31.442 0 6.28 21.34 14.22
11/20/2022 9:45:00 PM -0.38 31.316 0 6.27 21.38 14.27
11/20/2022 10:00:00 PM -0.32 31.424 0 6.3 21.41 14.23
11/20/2022 10:15:00 PM -0.44 31.208 0 6.24 21.41 14.31
11/20/2022 10:30:00 PM -99999.99 -179968 -99999.99 -99999.99 -99999.99 -99999.99
11/20/2022 10:45:00 PM -99999.99 -179968 -99999.99 -99999.99 -99999.99 -99999.99
11/20/2022 11:00:00 PM -99999.99 -179968 -99999.99 -99999.99 -99999.99 -99999.99
11/20/2022 11:15:00 PM -99999.99 -179968 -99999.99 -99999.99 -99999.99 -99999.99
11/20/2022 11:30:00 PM -99999.99 -179968 -99999.99 -99999.99 -99999.99 -99999.99
11/20/2022 11:45:00 PM -99999.99 -179968 -99999.99 -99999.99 -99999.99 -99999.99
11/21/2022 12:00:00 AM -99999.99 -179968 -99999.99 -99999.99 -99999.99 -99999.99
11/21/2022 12:15:00 AM -99999.99 -179968 -99999.99 -99999.99 -99999.99 -99999.99
11/21/2022 12:30:00 AM -99999.99 -179968 -99999.99 -99999.99 -99999.99 -99999.99
11/21/2022 12:45:00 AM -99999.99 -179968 -99999.99 -99999.99 -99999.99 -99999.99
11/21/2022 1:00:00 AM -99999.99 -179968 -99999.99 -99999.99 -99999.99 -99999.99
11/21/2022 1:15:00 AM -99999.99 -179968 -99999.99 -99999.99 -99999.99 -99999.99
11/21/2022 1:30:00 AM -99999.99 -179968 -99999.99 -99999.99 -99999.99 -99999.99
11/21/2022 1:45:00 AM -99999.99 -179968 -99999.99 -99999.99 -99999.99 -99999.99
11/21/2022 2:00:00 AM -99999.99 -179968 -99999.99 -99999.99 -99999.99 -99999.99
11/21/2022 2:15:00 AM -99999.99 -179968 -99999.99 -99999.99 -99999.99 -99999.99
11/21/2022 2:30:00 AM -99999.99 -179968 -99999.99 -99999.99 -99999.99 -99999.99
11/21/2022 2:45:00 AM -99999.99 -179968 -99999.99 -99999.99 -99999.99 -99999.99
11/21/2022 3:00:00 AM -99999.99 -179968 -99999.99 -99999.99 -99999.99 -99999.99
11/21/2022 3:15:00 AM -99999.99 -179968 -99999.99 -99999.99 -99999.99 -99999.99
11/21/2022 3:30:00 AM -99999.99 -179968 -99999.99 -99999.99 -99999.99 -99999.99
11/21/2022 3:45:00 AM -99999.99 -179968 -99999.99 -99999.99 -99999.99 -99999.99
11/21/2022 4:00:00 AM -99999.99 -179968 -99999.99 -99999.99 -99999.99 -99999.99
11/21/2022 4:15:00 AM -99999.99 -179968 -99999.99 -99999.99 -99999.99 -99999.99
11/21/2022 4:30:00 AM -99999.99 -179968 -99999.99 -99999.99 -99999.99 -99999.99
11/21/2022 4:45:00 AM -99999.99 -179968 -99999.99 -99999.99 -99999.99 -99999.99
11/21/2022 5:00:00 AM -99999.99 -179968 -99999.99 -99999.99 -99999.99 -99999.99
11/21/2022 5:15:00 AM -99999.99 -179968 -99999.99 -99999.99 -99999.99 -99999.99
11/21/2022 5:30:00 AM -99999.99 -179968 -99999.99 -99999.99 -99999.99 -99999.99
11/21/2022 5:45:00 AM -99999.99 -179968 -99999.99 -99999.99 -99999.99 -99999.99
11/21/2022 6:00:00 AM -99999.99 -179968 -99999.99 -99999.99 -99999.99 -99999.99
11/21/2022 6:15:00 AM -99999.99 -179968 -99999.99 -99999.99 -99999.99 -99999.99
11/21/2022 6:30:00 AM -99999.99 -179968 -99999.99 -99999.99 -99999.99 -99999.99
11/21/2022 6:45:00 AM -99999.99 -179968 -99999.99 -99999.99 -99999.99 -99999.99
11/21/2022 7:00:00 AM -99999.99 -179968 -99999.99 -99999.99 -99999.99 -99999.99
11/21/2022 7:15:00 AM -99999.99 -179968 -99999.99 -99999.99 -99999.99 -99999.99
11/21/2022 7:30:00 AM -99999.99 -179968 -99999.99 -99999.99 -99999.99 -99999.99
11/21/2022 7:45:00 AM -99999.99 -179968 -99999.99 -99999.99 -99999.99 -99999.99
11/21/2022 8:00:00 AM -0.05 31.91 0.068 7.46 13.1 14.06
11/21/2022 8:15:00 AM -0.05 31.91 0.068 7.46 13.07 14.05
11/21/2022 8:30:00 AM -0.05 31.91 0.068 7.46 12.98 14.06
11/21/2022 8:45:00 AM -0.05 31.91 0.068 7.46 12.93 14.04
11/21/2022 9:00:00 AM -0.05 31.91 0.068 7.46 12.93 14.03
11/21/2022 9:15:00 AM -0.05 31.91 0.068 7.46 13 14.04
11/21/2022 9:30:00 AM -0.05 31.91 0.068 7.46 13.06 14.05
11/21/2022 9:45:00 AM -0.05 31.91 0.068 7.46 13.25 14.04
11/21/2022 10:00:00 AM -0.05 31.91 0.07 7.51 13.67 14.02
11/21/2022 10:15:00 AM -0.04 31.928 0.067 7.46 14.45 14.02
11/21/2022 10:30:00 AM -0.04 31.928 0.073 7.48 16.18 13.97
11/21/2022 10:45:00 AM -0.05 31.91 0.002 7.24 36.55 14.1
11/21/2022 11:00:00 AM -0.05 31.91 0 7.41 16.54 14.12
11/21/2022 11:15:00 AM -0.05 31.91 0 7.32 17.41 14.11
11/21/2022 11:30:00 AM -0.05 31.91 0 7.38 17.11 14.1
11/21/2022 11:45:00 AM -0.05 31.91 0 7.39 16.93 14.1
11/21/2022 12:00:00 PM -0.05 31.91 0 7.32 16.71 14.09
11/21/2022 12:15:00 PM -0.05 31.91 0 7.18 16.88 14.1
11/21/2022 12:30:00 PM -0.05 31.91 0 7.47 16.84 14.09
11/21/2022 12:45:00 PM -0.05 31.91 0 7.36 16.41 14.08
11/21/2022 1:00:00 PM -0.05 31.91 0 7.49 16.62 14.09
11/21/2022 1:15:00 PM -0.05 31.91 0 7.54 16.66 14.08
11/21/2022 1:30:00 PM -0.05 31.91 0 7.55 16.73 14.08
11/21/2022 1:45:00 PM -0.05 31.91 0 7.46 16.73 14.07
11/21/2022 2:00:00 PM -0.05 31.91 0 7.46 16.96 14.08
11/21/2022 2:15:00 PM -0.05 31.91 0 7.35 17.04 14.07
11/21/2022 2:30:00 PM -0.04 31.928 0 7.33 16.89 14.07
11/21/2022 2:45:00 PM -0.05 31.91 0 7.41 16.67 14.07
11/21/2022 3:00:00 PM -0.04 31.928 0 7.41 16.8 14.07
11/21/2022 3:15:00 PM -0.04 31.928 0 7.44 16.56 14.06
11/21/2022 3:30:00 PM -0.04 31.928 0 7.4 16.55 14.06
11/21/2022 3:45:00 PM -0.04 31.928 0 7.34 16.4 14.06
11/21/2022 4:00:00 PM -0.04 31.928 0 7.22 16.39 14.08
11/21/2022 4:15:00 PM -0.03 31.946 0 6.79 15.96 14.08
11/21/2022 4:30:00 PM -0.03 31.946 0 7.2 16.07 14.07
11/21/2022 4:45:00 PM -0.03 31.946 0 7.21 15.94 14.07
11/21/2022 5:00:00 PM -0.03 31.946 0 6.81 15.7 14.08
11/21/2022 5:15:00 PM -0.03 31.946 0 6.82 15.89 14.08
11/21/2022 5:30:00 PM -0.02 31.964 0 7.14 15.92 14.06
11/21/2022 5:45:00 PM -0.03 31.946 0 6.79 15.99 14.09
11/21/2022 6:00:00 PM -0.02 31.964 0 6.79 15.92 14.08
11/21/2022 6:15:00 PM -0.03 31.946 0 7.2 15.85 14.09
11/21/2022 6:30:00 PM -0.02 31.964 0 6.88 15.81 14.08
11/21/2022 6:45:00 PM -0.02 31.964 0 6.85 15.66 14.07
11/21/2022 7:00:00 PM -0.03 31.946 0 6.9 15.69 14.09
11/21/2022 7:15:00 PM -0.03 31.946 0 7.26 15.67 14.08
11/21/2022 7:30:00 PM -0.03 31.946 0 7.03 15.63 14.08
11/21/2022 7:45:00 PM -0.03 31.946 0 7.05 15.51 14.09
11/21/2022 8:00:00 PM -0.03 31.946 0 7.09 20.54 14.12
11/21/2022 8:15:00 PM -0.03 31.946 0 7.17 16.36 14.11
11/21/2022 8:30:00 PM -0.03 31.946 0 7.44 16.41 14.14
11/21/2022 8:45:00 PM -0.02 31.964 0 7.38 15.93 14.13
11/21/2022 9:00:00 PM -0.01 31.982 0 7.23 16.26 14.27
11/21/2022 9:15:00 PM 0 32 0 7.07 15.62 14.19
11/21/2022 9:30:00 PM -0.01 31.982 0 7.11 15.98 14.16
11/21/2022 9:45:00 PM -0.01 31.982 0 7.17 15.41 14.15
11/21/2022 10:00:00 PM -0.01 31.982 0 7.05 15.16 14.13
11/21/2022 10:15:00 PM -0.01 31.982 0 7.14 14.91 14.13
11/21/2022 10:30:00 PM 0 32 0 6.97 14.39 14.11
11/21/2022 10:45:00 PM 0 32 0 6.83 13.97 14.12
11/21/2022 11:00:00 PM 0 32 0 6.78 15.92 14.1
11/21/2022 11:15:00 PM 0 32 0 6.75 17.53 14.11
11/21/2022 11:30:00 PM -0.01 31.982 0 6.75 19.18 14.1
11/21/2022 11:45:00 PM 0 32 0 6.75 21.11 14.1
11/22/2022 12:00:00 AM -0.01 31.982 0 6.77 21.71 14.1
11/22/2022 12:15:00 AM -0.02 31.964 0 6.74 21.71 14.1
11/22/2022 12:30:00 AM -0.04 31.928 0 6.86 21.8 14.12
11/22/2022 12:45:00 AM -0.05 31.91 0 6.86 21.94 14.13
11/22/2022 1:00:00 AM -99999.99 -179968 -99999.99 -99999.99 -99999.99 -99999.99
11/22/2022 1:15:00 AM -99999.99 -179968 -99999.99 -99999.99 -99999.99 -99999.99
11/22/2022 1:30:00 AM -99999.99 -179968 -99999.99 -99999.99 -99999.99 -99999.99
11/22/2022 1:45:00 AM -99999.99 -179968 -99999.99 -99999.99 -99999.99 -99999.99
11/22/2022 2:00:00 AM -99999.99 -179968 -99999.99 -99999.99 -99999.99 -99999.99
11/22/2022 2:15:00 AM -99999.99 -179968 -99999.99 -99999.99 -99999.99 -99999.99
11/22/2022 2:30:00 AM -99999.99 -179968 -99999.99 -99999.99 -99999.99 -99999.99
11/22/2022 2:45:00 AM -99999.99 -179968 -99999.99 -99999.99 -99999.99 -99999.99
11/22/2022 3:00:00 AM -99999.99 -179968 -99999.99 -99999.99 -99999.99 -99999.99
11/22/2022 3:15:00 AM -99999.99 -179968 -99999.99 -99999.99 -99999.99 -99999.99
11/22/2022 3:30:00 AM -99999.99 -179968 -99999.99 -99999.99 -99999.99 -99999.99
11/22/2022 3:45:00 AM -99999.99 -179968 -99999.99 -99999.99 -99999.99 -99999.99
11/22/2022 4:00:00 AM -99999.99 -179968 -99999.99 -99999.99 -99999.99 -99999.99
11/22/2022 4:15:00 AM -99999.99 -179968 -99999.99 -99999.99 -99999.99 -99999.99
11/22/2022 4:30:00 AM -99999.99 -179968 -99999.99 -99999.99 -99999.99 -99999.99
11/22/2022 4:45:00 AM -99999.99 -179968 -99999.99 -99999.99 -99999.99 -99999.99
11/22/2022 5:00:00 AM -99999.99 -179968 -99999.99 -99999.99 -99999.99 -99999.99
11/22/2022 5:15:00 AM -99999.99 -179968 -99999.99 -99999.99 -99999.99 -99999.99
11/22/2022 5:30:00 AM -99999.99 -179968 -99999.99 -99999.99 -99999.99 -99999.99
11/22/2022 5:45:00 AM -99999.99 -179968 -99999.99 -99999.99 -99999.99 -99999.99
11/22/2022 6:00:00 AM -99999.99 -179968 -99999.99 -99999.99 -99999.99 -99999.99
11/22/2022 6:15:00 AM -99999.99 -179968 -99999.99 -99999.99 -99999.99 -99999.99
11/22/2022 6:30:00 AM -99999.99 -179968 -99999.99 -99999.99 -99999.99 -99999.99
11/22/2022 6:45:00 AM -99999.99 -179968 -99999.99 -99999.99 -99999.99 -99999.99
11/22/2022 7:00:00 AM -99999.99 -179968 -99999.99 -99999.99 -99999.99 -99999.99
11/22/2022 7:15:00 AM -99999.99 -179968 -99999.99 -99999.99 -99999.99 -99999.99
11/22/2022 7:30:00 AM -99999.99 -179968 -99999.99 -99999.99 -99999.99 -99999.99
11/22/2022 7:45:00 AM -99999.99 -179968 -99999.99 -99999.99 -99999.99 -99999.99
11/22/2022 8:00:00 AM -0.24 31.568 0 6.66 21.2 14.26
11/22/2022 8:15:00 AM -0.24 31.568 0 6.65 21.39 14.24
11/22/2022 8:30:00 AM -0.24 31.568 0 6.57 21.02 14.25
11/22/2022 8:45:00 AM -0.24 31.568 0 6.66 21.02 14.25
11/22/2022 9:00:00 AM -0.25 31.55 0 6.68 20.71 14.28
11/22/2022 9:15:00 AM -0.19 31.658 0 6.76 20.82 14.23
11/22/2022 9:30:00 AM -0.16 31.712 0 6.73 20.93 14.22
11/22/2022 9:45:00 AM -0.09 31.838 0 6.73 20.34 14.2
11/22/2022 10:00:00 AM -0.06 31.892 0 6.87 20.86 14.19
11/22/2022 10:15:00 AM -0.04 31.928 0 6.97 22.29 14.16
11/22/2022 10:30:00 AM 0 32 0 7.07 21.94 14.15
11/22/2022 10:45:00 AM 0.02 32.036 0 7.08 21.53 14.15
11/22/2022 11:00:00 AM 0.06 32.108 0 7.08 20.98 14.11
11/22/2022 11:15:00 AM 0.08 32.144 0 7.02 20.91 14.09
11/22/2022 11:30:00 AM 0.1 32.18 0 6.87 20.74 14.09
11/22/2022 11:45:00 AM 0.11 32.198 0 6.82 21.07 14.06
11/22/2022 12:00:00 PM 0.14 32.252 0 6.79 20.98 14.05
11/22/2022 12:15:00 PM 0.18 32.324 0 6.82 20.43 14.03
11/22/2022 12:30:00 PM 0.19 32.342 0 6.8 21.02 14.02
11/22/2022 12:45:00 PM 0.21 32.378 0 6.79 21.11 14.01
11/22/2022 1:00:00 PM 0.26 32.468 0 6.82 20 13.97
11/22/2022 1:15:00 PM 0.26 32.468 0 6.78 21.24 13.98
11/22/2022 1:30:00 PM 0.3 32.54 0 6.77 21.19 13.94
11/22/2022 1:45:00 PM 0.32 32.576 0 6.76 21.19 13.92
11/22/2022 2:00:00 PM 0.33 32.594 0 6.78 21.14 13.91
11/22/2022 2:15:00 PM 0.35 32.63 0 6.77 21.27 13.91
11/22/2022 2:30:00 PM 0.37 32.666 0 6.78 21.38 13.89
11/22/2022 2:45:00 PM 0.39 32.702 0 6.76 21.51 13.87
11/22/2022 3:00:00 PM 0.4 32.72 0 6.74 21.73 13.86
11/22/2022 3:15:00 PM 0.42 32.756 0 6.73 21.54 13.85
11/22/2022 3:30:00 PM 0.45 32.81 0 6.74 21.39 13.85
11/22/2022 3:45:00 PM 0.46 32.828 0 6.72 21.21 13.84
11/22/2022 4:00:00 PM 0.48 32.864 0 6.7 21.06 13.82
11/22/2022 4:15:00 PM 0.49 32.882 0 6.7 20.84 13.82
11/22/2022 4:30:00 PM 0.5 32.9 0 6.63 20.64 13.82
11/22/2022 4:45:00 PM 0.51 32.918 0 6.64 20.56 13.81
11/22/2022 5:00:00 PM 0.52 32.936 0 6.69 20.53 13.81
11/22/2022 5:15:00 PM 0.51 32.918 0 6.63 20.53 13.82
11/22/2022 5:30:00 PM 0.52 32.936 0 6.67 20.47 13.82
11/22/2022 5:45:00 PM 0.55 32.99 0 6.66 20.45 13.81
11/22/2022 6:00:00 PM 0.56 33.008 0 6.64 20.38 13.81
11/22/2022 6:15:00 PM 0.55 32.99 0 6.71 20.39 13.82
11/22/2022 6:30:00 PM 0.57 33.026 0 6.72 20.34 13.79
11/22/2022 6:45:00 PM 0.6 33.08 0 6.7 20.26 13.77
11/22/2022 7:00:00 PM 0.64 33.152 0 6.69 20.22 13.78
11/22/2022 7:15:00 PM 0.67 33.206 0 6.67 20.14 13.77
11/22/2022 7:30:00 PM 0.7 33.26 0 6.71 20.13 13.77
11/22/2022 7:45:00 PM 0.7 33.26 0 6.69 20.12 13.77
11/22/2022 8:00:00 PM 0.73 33.314 0 6.7 20.12 13.76
11/22/2022 8:15:00 PM 0.76 33.368 0 6.68 20.03 13.75
11/22/2022 8:30:00 PM 0.37 32.666 0 7.12 12.83 13.91
11/22/2022 8:45:00 PM 0.36 32.648 0 6.72 12.79 13.94
11/22/2022 9:00:00 PM 0.43 32.774 0 6.79 12.91 13.93
11/22/2022 9:15:00 PM 0.48 32.864 0 6.81 12.93 13.91
11/22/2022 9:30:00 PM 0.52 32.936 0 6.8 12.59 13.89
11/22/2022 9:45:00 PM 0.51 32.918 0 6.78 12.69 13.92
11/22/2022 10:00:00 PM 0.56 33.008 0 6.74 12.74 13.9
11/22/2022 10:15:00 PM 0.58 33.044 0 6.76 12.74 13.89
11/22/2022 10:30:00 PM 0.63 33.134 0 6.73 12.49 13.86
11/22/2022 10:45:00 PM 0.63 33.134 0 6.74 12.38 13.86
11/22/2022 11:00:00 PM 0.59 33.062 0 6.73 12.51 13.88
11/22/2022 11:15:00 PM 0.61 33.098 0 6.74 12.74 13.87
11/22/2022 11:30:00 PM 0.6 33.08 0 6.74 12.74 13.86
11/22/2022 11:45:00 PM 0.59 33.062 0 6.73 12.72 13.87
11/23/2022 12:00:00 AM 0.57 33.026 0 6.74 12.53 13.88
11/23/2022 12:15:00 AM 0.55 32.99 0 6.72 12.44 13.89
11/23/2022 12:30:00 AM 0.55 32.99 0 6.72 12.28 13.88
11/23/2022 12:45:00 AM 0.55 32.99 0 6.74 12.1 13.88
11/23/2022 1:00:00 AM 0.55 32.99 0 6.74 12.21 13.88
11/23/2022 1:15:00 AM 0.55 32.99 0 6.73 12.52 13.88
11/23/2022 1:30:00 AM 0.54 32.972 0 6.73 12.21 13.88
11/23/2022 1:45:00 AM 0.52 32.936 0 6.74 12.47 13.89
11/23/2022 2:00:00 AM 0.5 32.9 0 6.75 12 13.9
11/23/2022 2:15:00 AM 0.49 32.882 0 6.77 12.37 13.9
11/23/2022 2:30:00 AM 0.47 32.846 0 6.75 11.86 13.9
11/23/2022 2:45:00 AM 0.45 32.81 0 6.76 11.92 13.91
11/23/2022 3:00:00 AM 0.41 32.738 0 6.77 12.13 13.93
11/23/2022 3:15:00 AM 0.4 32.72 0 6.79 12.99 13.93
11/23/2022 3:30:00 AM 0.35 32.63 0 6.83 11.95 13.95
11/23/2022 3:45:00 AM 0.34 32.612 0 6.84 13.89 13.94
11/23/2022 4:00:00 AM 0.31 32.558 0 6.84 12.44 13.96
11/23/2022 4:15:00 AM 0.28 32.504 0 6.91 11.89 13.98
11/23/2022 4:30:00 AM 0.25 32.45 0 6.87 11.92 13.98
11/23/2022 4:45:00 AM 0.23 32.414 0 6.97 12.25 13.98
11/23/2022 5:00:00 AM 0.18 32.324 0 6.98 12.33 14.03
11/23/2022 5:15:00 AM 0.16 32.288 0 7.04 12.48 14.03
11/23/2022 5:30:00 AM 0.17 32.306 0 7.08 11.67 14.03
11/23/2022 5:45:00 AM 0.15 32.27 0 7.24 12.32 14.04
11/23/2022 6:00:00 AM 0.12 32.216 0 7.14 13.51 14.05
11/23/2022 6:15:00 AM 0.09 32.162 0 7.19 13.55 14.06
11/23/2022 6:30:00 AM 0.12 32.216 0 7.22 12.34 14.05
11/23/2022 6:45:00 AM 0.11 32.198 0 7.24 12.19 14.06
11/23/2022 7:00:00 AM 0.08 32.144 0 7.28 12.27 14.1
11/23/2022 7:15:00 AM 0.1 32.18 0 7.37 12.39 14.08
11/23/2022 7:30:00 AM 0.07 32.126 0 7.33 11.65 14.11
11/23/2022 7:45:00 AM 0.06 32.108 0 7.43 13.16 14.12
11/23/2022 8:00:00 AM 0.04 32.072 0 7.45 12.59 14.16
11/23/2022 8:15:00 AM 0.06 32.108 0 7.45 13.2 14.17
11/23/2022 8:30:00 AM 0.07 32.126 0 7.49 12.56 14.21
11/23/2022 8:45:00 AM 0.12 32.216 0 7.5 12.81 14.13
11/23/2022 9:00:00 AM 0.11 32.198 0 7.47 12.95 14.11
11/23/2022 9:15:00 AM 0.15 32.27 0 7.51 12.21 14.06
11/23/2022 9:30:00 AM 0.17 32.306 0 7.46 12.24 14.04
11/23/2022 9:45:00 AM 0.25 32.45 0 7.43 12.94 14.01
11/23/2022 10:00:00 AM 0.31 32.558 0 7.42 13.01 13.99
11/23/2022 10:15:00 AM 0.37 32.666 0 7.4 11.57 13.97
11/23/2022 10:30:00 AM 0.41 32.738 0 7.37 11.48 13.95
11/23/2022 10:45:00 AM 0.49 32.882 0 7.33 12.51 13.93
11/23/2022 11:00:00 AM 0.6 33.08 0 7.1 11.91 13.89
11/23/2022 11:15:00 AM 0.67 33.206 0 7.2 12.01 13.88
11/23/2022 11:30:00 AM 0.72 33.296 0 7.17 11.99 13.86
11/23/2022 11:45:00 AM 0.75 33.35 0 7.1 12.04 13.84
11/23/2022 12:00:00 PM 0.78 33.404 0 7.07 11.88 13.83
11/23/2022 12:15:00 PM 0.84 33.512 0 7.02 11.8 13.8
11/23/2022 12:30:00 PM 0.87 33.566 0 7.01 11.66 13.78
11/23/2022 12:45:00 PM 0.87 33.566 0 6.98 11.6 13.79
11/23/2022 1:00:00 PM 0.91 33.638 0 6.93 11.79 13.77
11/23/2022 1:15:00 PM 0.99 33.782 0 6.92 11.54 13.73
11/23/2022 1:30:00 PM 1.07 33.926 0 6.87 11.48 13.71
11/23/2022 1:45:00 PM 1.1 33.98 0 6.86 11.74 13.7
11/23/2022 2:00:00 PM 1.18 34.124 0 6.82 12.35 13.67
11/23/2022 2:15:00 PM 1.21 34.178 0 6.75 11.5 13.66
11/23/2022 2:30:00 PM 1.22 34.196 0 6.71 11.64 13.65
11/23/2022 2:45:00 PM 1.25 34.25 0 6.66 11.79 13.65
11/23/2022 3:00:00 PM 1.26 34.268 0 6.62 11.74 13.65
11/23/2022 3:15:00 PM 1.3 34.34 0 6.6 11.63 13.63
11/23/2022 3:30:00 PM 1.3 34.34 0 6.53 11.64 13.63
11/23/2022 3:45:00 PM 1.32 34.376 0 6.49 11.6 13.61
11/23/2022 4:00:00 PM 1.31 34.358 0 6.48 11.62 13.63
11/23/2022 4:15:00 PM 1.3 34.34 0 6.45 11.8 13.63
11/23/2022 4:30:00 PM 1.26 34.268 0 6.44 11.74 13.64
11/23/2022 4:45:00 PM 1.23 34.214 0 6.45 11.65 13.66
11/23/2022 5:00:00 PM 1.21 34.178 0 6.44 11.6 13.67
11/23/2022 5:15:00 PM 1.22 34.196 0 6.4 11.51 13.67
11/23/2022 5:30:00 PM 1.22 34.196 0 6.39 11.65 13.67
11/23/2022 5:45:00 PM 1.25 34.25 0 6.37 11.49 13.66
11/23/2022 6:00:00 PM 1.24 34.232 0 6.37 11.57 13.66
11/23/2022 6:15:00 PM 1.21 34.178 0 6.36 11.74 13.67
11/23/2022 6:30:00 PM 1.16 34.088 0 6.36 11.64 13.69
11/23/2022 6:45:00 PM 1.17 34.106 0 6.37 11.66 13.69
11/23/2022 7:00:00 PM 1.11 33.998 0 6.37 11.68 13.71
11/23/2022 7:15:00 PM 1.17 34.106 0 6.36 11.59 13.69
11/23/2022 7:30:00 PM 1.16 34.088 0 6.34 11.84 13.69
11/23/2022 7:45:00 PM 1.13 34.034 0 6.36 11.53 13.71
11/23/2022 8:00:00 PM 1.11 33.998 0 6.37 11.91 13.72
11/23/2022 8:15:00 PM 1.08 33.944 0 6.37 11.68 13.73
11/23/2022 8:30:00 PM 1.08 33.944 0 6.36 11.94 13.73
11/23/2022 8:45:00 PM 1.05 33.89 0 6.35 11.68 13.75
11/23/2022 9:00:00 PM 1.03 33.854 0 6.37 11.85 13.76
11/23/2022 9:15:00 PM 0.98 33.764 0 6.38 11.87 13.78
11/23/2022 9:30:00 PM 0.96 33.728 0 6.36 11.45 13.79
11/23/2022 9:45:00 PM 0.92 33.656 0 6.38 11.63 13.81
11/23/2022 10:00:00 PM 0.89 33.602 0 6.37 11.75 13.82
11/23/2022 10:15:00 PM 0.85 33.53 0 6.35 11.99 13.84
11/23/2022 10:30:00 PM 0.82 33.476 0 6.39 11.72 13.85
11/23/2022 10:45:00 PM 0.78 33.404 0 6.42 11.38 13.87
11/23/2022 11:00:00 PM 0.74 33.332 0 6.4 11.89 13.87
11/23/2022 11:15:00 PM 0.68 33.224 0 6.39 11.85 13.91
11/23/2022 11:30:00 PM 0.65 33.17 0 6.43 12.08 13.92
11/23/2022 11:45:00 PM 0.62 33.116 0 6.41 11.85 13.93
11/24/2022 12:00:00 AM 0.57 33.026 0 6.45 11.8 13.94
11/24/2022 12:15:00 AM 0.53 32.954 0 6.49 11.09 13.96
11/24/2022 12:30:00 AM 0.45 32.81 0 6.52 10.59 13.97
11/24/2022 12:45:00 AM 0.41 32.738 0 6.54 11.7 14
11/24/2022 1:00:00 AM 0.38 32.684 0 6.6 13.29 14.01
11/24/2022 1:15:00 AM 0.26 32.468 0 6.57 11.79 14.07
11/24/2022 1:30:00 AM 0.25 32.45 0 6.72 11.41 14.07
11/24/2022 1:45:00 AM 0.24 32.432 0 6.86 13.23 14.07
11/24/2022 2:00:00 AM 0.17 32.306 0 6.68 13.47 14.11
11/24/2022 2:15:00 AM 0.18 32.324 0 6.74 12.94 14.1
11/24/2022 2:30:00 AM 0.15 32.27 0 6.81 13.02 14.12
11/24/2022 2:45:00 AM 0.15 32.27 0 6.8 12.76 14.11
11/24/2022 3:00:00 AM 0.1 32.18 0 6.85 12.89 14.14
11/24/2022 3:15:00 AM 0.09 32.162 0 6.86 13.33 14.15
11/24/2022 3:30:00 AM 0.12 32.216 0 6.95 13.44 14.14
11/24/2022 3:45:00 AM 0.11 32.198 0 6.97 13.35 14.13
11/24/2022 4:00:00 AM 0.1 32.18 0 7 12.63 14.15
11/24/2022 4:15:00 AM 0.08 32.144 0 6.96 12.29 14.16
11/24/2022 4:30:00 AM 0.07 32.126 0 7.04 12.14 14.15
11/24/2022 4:45:00 AM 0 32 0 6.98 12.85 14.2
11/24/2022 5:00:00 AM -0.02 31.964 0 6.99 11.19 14.21
11/24/2022 5:15:00 AM 0.02 32.036 0 6.92 11.67 14.17
11/24/2022 5:30:00 AM 0 32 0 6.93 11.47 14.19
11/24/2022 5:45:00 AM 0.01 32.018 0 7.11 11.97 14.18
11/24/2022 6:00:00 AM -0.05 31.91 0 7.12 12 14.22
11/24/2022 6:15:00 AM -0.04 31.928 0 7.01 11.62 14.21
11/24/2022 6:30:00 AM -0.07 31.874 0 7.13 12.56 14.23
11/24/2022 6:45:00 AM -0.08 31.856 0 7.17 11.77 14.26
11/24/2022 7:00:00 AM -0.08 31.856 0 7.13 11.85 14.26
11/24/2022 7:15:00 AM -0.24 31.568 0 6.81 11.49 14.36
11/24/2022 7:30:00 AM -0.4 31.28 0 6.85 15.01 14.48
11/24/2022 7:45:00 AM -0.52 31.064 0 6.67 18.6 14.6
11/24/2022 8:00:00 AM -0.35 31.37 0 6.85 16.97 14.38
11/24/2022 8:15:00 AM -0.35 31.37 0 6.83 18.55 14.4
11/24/2022 8:30:00 AM -0.32 31.424 0 6.82 15.87 14.46
11/24/2022 8:45:00 AM -0.23 31.586 0 7.22 14.92 14.35
11/24/2022 9:00:00 AM -0.12 31.784 0 7.04 11.41 14.33
11/24/2022 9:15:00 AM -0.03 31.946 0 7.44 12.73 14.24
11/24/2022 9:30:00 AM 0.05 32.09 0 7.48 12.82 14.18
11/24/2022 9:45:00 AM 0.14 32.252 0 7.5 13.11 14.12
11/24/2022 10:00:00 AM 0.23 32.414 0 7.57 11.23 14.05
11/24/2022 10:15:00 AM 0.27 32.486 0 7.54 12.12 14.03
11/24/2022 10:30:00 AM 0.29 32.522 0 7.52 13.13 14.02
11/24/2022 10:45:00 AM 0.35 32.63 0 7.49 13.63 13.99
11/24/2022 11:00:00 AM 0.38 32.684 0 7.44 12.13 13.98
11/24/2022 11:15:00 AM 0.39 32.702 0 7.34 11.82 13.97
11/24/2022 11:30:00 AM 0.41 32.738 0 7.3 12.1 13.96
11/24/2022 11:45:00 AM 0.43 32.774 0 7.24 12.09 13.94
11/24/2022 12:00:00 PM 0.46 32.828 0 7.2 12.37 13.93
11/24/2022 12:15:00 PM 0.56 33.008 0 7.12 12.12 13.87
11/24/2022 12:30:00 PM 0.62 33.116 0 7.09 12.15 13.86
11/24/2022 12:45:00 PM 0.78 33.404 0 7.04 11.8 13.77
11/24/2022 1:00:00 PM 1.01 33.818 0 6.99 12.06 13.71
11/24/2022 1:15:00 PM 1.19 34.142 0 6.95 12.09 13.67
11/24/2022 1:30:00 PM 1.35 34.43 0 6.9 11.98 13.61
11/24/2022 1:45:00 PM 1.47 34.646 0 6.84 11.65 13.56
11/24/2022 2:00:00 PM 1.55 34.79 0 6.79 11.99 13.52
11/24/2022 2:15:00 PM 1.6 34.88 0 6.75 11.83 13.5
11/24/2022 2:30:00 PM 1.67 35.006 0 6.68 11.64 13.48
11/24/2022 2:45:00 PM 1.69 35.042 0 6.63 11.81 13.46
11/24/2022 3:00:00 PM 1.72 35.096 0 6.6 11.92 13.45
11/24/2022 3:15:00 PM 1.72 35.096 0 6.58 12.06 13.45
11/24/2022 3:30:00 PM 1.72 35.096 0 6.56 12.46 13.46
11/24/2022 3:45:00 PM 1.77 35.186 0 6.54 12.26 13.44
11/24/2022 4:00:00 PM 1.9 35.42 0 6.53 11.77 13.38
11/24/2022 4:15:00 PM 1.95 35.51 0 6.53 12.24 13.35
11/24/2022 4:30:00 PM 1.92 35.456 0 6.53 11.7 13.37
11/24/2022 4:45:00 PM 1.85 35.33 0 6.53 12.17 13.39
11/24/2022 5:00:00 PM 1.79 35.222 0 6.56 12.14 13.42
11/24/2022 5:15:00 PM 1.75 35.15 0 6.57 11.87 13.44
11/24/2022 5:30:00 PM 1.72 35.096 0 6.58 11.99 13.44
11/24/2022 5:45:00 PM 1.7 35.06 0 6.57 12.42 13.44
11/24/2022 6:00:00 PM 1.63 34.934 0 6.58 11.49 13.46
11/24/2022 6:15:00 PM 1.62 34.916 0 6.6 12.09 13.47
11/24/2022 6:30:00 PM 1.57 34.826 0 6.59 12.03 13.49
11/24/2022 6:45:00 PM 1.57 34.826 0 6.61 12.08 13.49
11/24/2022 7:00:00 PM 1.55 34.79 0 6.64 11.89 13.5
11/24/2022 7:15:00 PM 1.54 34.772 0 6.59 12.32 13.47
11/24/2022 7:30:00 PM 1.52 34.736 0 6.63 11.98 13.51
11/24/2022 7:45:00 PM 1.55 34.79 0 6.62 12 13.49
11/24/2022 8:00:00 PM 1.52 34.736 0 6.61 11.76 13.5
11/24/2022 8:15:00 PM 1.45 34.61 0 6.66 11.95 13.53
11/24/2022 8:30:00 PM 1.49 34.682 0 6.66 11.95 13.49
11/24/2022 8:45:00 PM 1.51 34.718 0 6.72 12.06 13.5
11/24/2022 9:00:00 PM 1.45 34.61 0 6.68 12.14 13.53
11/24/2022 9:15:00 PM 1.54 34.772 0 6.7 11.8 13.48
11/24/2022 9:30:00 PM 1.54 34.772 0 6.66 12.19 13.48
11/24/2022 9:45:00 PM 1.54 34.772 0 6.75 12.58 13.48
11/24/2022 10:00:00 PM 1.57 34.826 0 6.74 11.58 13.46
11/24/2022 10:15:00 PM 1.59 34.862 0 6.76 12.38 13.45
11/24/2022 10:30:00 PM 1.59 34.862 0 6.69 12.22 13.45
11/24/2022 10:45:00 PM 1.61 34.898 0 6.71 12.23 13.44
11/24/2022 11:00:00 PM 1.63 34.934 0 6.77 11.98 13.43
11/24/2022 11:15:00 PM 1.64 34.952 0 6.71 11.98 13.43
11/24/2022 11:30:00 PM 1.63 34.934 0 6.71 12.22 13.44
11/24/2022 11:45:00 PM 1.66 34.988 0 6.71 12.54 13.42
11/25/2022 12:00:00 AM 1.65 34.97 0 6.73 12.2 13.42
11/25/2022 12:15:00 AM 1.66 34.988 0 6.82 11.83 13.41
11/25/2022 12:30:00 AM 1.69 35.042 0 6.74 12.13 13.4
11/25/2022 12:45:00 AM 1.71 35.078 0 6.71 12.15 13.38
11/25/2022 1:00:00 AM 1.72 35.096 0 6.78 12.35 13.38
11/25/2022 1:15:00 AM 1.79 35.222 0 6.71 12.03 13.34
11/25/2022 1:30:00 AM 1.82 35.276 0 6.79 12.18 13.33
11/25/2022 1:45:00 AM 1.87 35.366 0 6.76 11.93 13.31
11/25/2022 2:00:00 AM 1.91 35.438 0 6.8 12.15 13.3
11/25/2022 2:15:00 AM 1.96 35.528 0 6.81 12.28 13.27
11/25/2022 2:30:00 AM 1.97 35.546 0 6.8 12.21 13.27
11/25/2022 2:45:00 AM 2.01 35.618 0 6.78 12.21 13.25
11/25/2022 3:00:00 AM 2.06 35.708 0 6.77 11.92 13.23
11/25/2022 3:15:00 AM 2.1 35.78 0 6.79 12.18 13.21
11/25/2022 3:30:00 AM 2.11 35.798 0 6.75 12.16 13.2
11/25/2022 3:45:00 AM 2.14 35.852 0 6.76 12.26 13.2
11/25/2022 4:00:00 AM 2.2 35.96 0 6.8 11.89 13.16
11/25/2022 4:15:00 AM 2.21 35.978 0 6.81 12.09 13.16
11/25/2022 4:30:00 AM 2.2 35.96 0 6.78 12.95 13.16
11/25/2022 4:45:00 AM 2.18 35.924 0 6.79 12.53 13.16
11/25/2022 5:00:00 AM 2.19 35.942 0 6.79 12.55 13.16
11/25/2022 5:15:00 AM 2.18 35.924 0 6.78 12.19 13.15
11/25/2022 5:30:00 AM 2.23 36.014 0 6.78 12.23 13.13
11/25/2022 5:45:00 AM 2.24 36.032 0 6.79 12.44 13.13
11/25/2022 6:00:00 AM 2.24 36.032 0 6.79 12.11 13.13
11/25/2022 6:15:00 AM 2.3 36.14 0 6.82 12.35 13.1
11/25/2022 6:30:00 AM 2.35 36.23 0 6.83 12.4 13.09
11/25/2022 6:45:00 AM 2.4 36.32 0 6.85 12.45 13.08
11/25/2022 7:00:00 AM 2.43 36.374 0 6.82 11.68 13.06
11/25/2022 7:15:00 AM 2.44 36.392 0 6.81 11.92 13.06
11/25/2022 7:30:00 AM 2.47 36.446 0 6.85 12 13.05
11/25/2022 7:45:00 AM 2.52 36.536 0 6.85 11.98 13.03
11/25/2022 8:00:00 AM 2.56 36.608 0 6.84 11.92 13.01
11/25/2022 8:15:00 AM 2.62 36.716 0 6.82 12.22 13
11/25/2022 8:30:00 AM 2.7 36.86 0 6.85 11.47 12.98
11/25/2022 8:45:00 AM 2.79 37.022 0 6.85 11.95 12.94
11/25/2022 9:00:00 AM 2.85 37.13 0 6.82 12.67 12.92
11/25/2022 9:15:00 AM 2.9 37.22 0 6.87 12.02 12.9
11/25/2022 9:30:00 AM 2.94 37.292 0 6.83 11.9 12.89
11/25/2022 9:45:00 AM 3.02 37.436 0 6.85 12.11 12.87
11/25/2022 10:00:00 AM 3.08 37.544 0 6.85 12.25 12.84
11/25/2022 10:15:00 AM 3.14 37.652 0 6.82 12.6 12.83
11/25/2022 10:30:00 AM 3.21 37.778 0 6.85 12.6 12.8
11/25/2022 10:45:00 AM 3.39 38.102 0 6.87 11.99 12.75
11/25/2022 11:00:00 AM 3.52 38.336 0 6.87 11.89 12.71
11/25/2022 11:15:00 AM 3.8 38.84 0 6.85 12.43 12.61
11/25/2022 11:30:00 AM 4.02 39.236 0 6.93 11.99 12.54
11/25/2022 11:45:00 AM 4.24 39.632 0 6.83 12.25 12.46
11/25/2022 12:00:00 PM 4.41 39.938 0 6.84 11.7 12.41
11/25/2022 12:15:00 PM 4.5 40.1 0 6.79 12.1 12.39
11/25/2022 12:30:00 PM 4.6 40.28 0 6.8 11.95 12.36
11/25/2022 12:45:00 PM 4.54 40.172 0 6.8 12.41 12.38
11/25/2022 1:00:00 PM 4.45 40.01 0 6.8 12.1 12.4
11/25/2022 1:15:00 PM 4.43 39.974 0 6.83 11.71 12.41
11/25/2022 1:30:00 PM 4.35 39.83 0 6.8 12 12.44
11/25/2022 1:45:00 PM 4.33 39.794 0 6.83 11.75 12.45
11/25/2022 2:00:00 PM 4.36 39.848 0 6.82 11.75 12.44
11/25/2022 2:15:00 PM 4.34 39.812 0 6.84 12.25 12.45
11/25/2022 2:30:00 PM 4.21 39.578 0 6.82 12.01 12.52
11/25/2022 2:45:00 PM 4.14 39.452 0 6.82 11.89 12.54
11/25/2022 3:00:00 PM 4.05 39.29 0 6.85 11.85 12.55
11/25/2022 3:15:00 PM 3.85 38.93 0 6.67 12.23 12.64
11/25/2022 3:30:00 PM 3.86 38.948 0 6.93 11.82 12.66
11/25/2022 3:45:00 PM 3.78 38.804 0 6.91 11.83 12.65
11/25/2022 4:00:00 PM 3.77 38.786 0 6.97 12.12 12.65
11/25/2022 4:15:00 PM 3.7 38.66 0 6.94 11.76 12.66
11/25/2022 4:30:00 PM 3.62 38.516 0 6.89 12.17 12.7
11/25/2022 4:45:00 PM 3.59 38.462 0 6.93 11.65 12.72
11/25/2022 5:00:00 PM 3.6 38.48 0 6.98 12.01 12.71
11/25/2022 5:15:00 PM 3.6 38.48 0 6.95 12.35 12.71
11/25/2022 5:30:00 PM 3.56 38.408 0 6.95 12.36 12.72
11/25/2022 5:45:00 PM 3.45 38.21 0 6.93 11.69 12.78
11/25/2022 6:00:00 PM 3.43 38.174 0 6.96 11.68 12.78
11/25/2022 6:15:00 PM 3.34 38.012 0 6.88 12.3 12.82
11/25/2022 6:30:00 PM 3.29 37.922 0 6.9 12.11 12.84
11/25/2022 6:45:00 PM 3.29 37.922 0 6.91 11.6 12.86
11/25/2022 7:00:00 PM 3.23 37.814 0 6.9 11.78 12.86
11/25/2022 7:15:00 PM 3.19 37.742 0 6.82 12.29 12.87
11/25/2022 7:30:00 PM 3.15 37.67 0 6.89 12.87 12.91
11/25/2022 7:45:00 PM 3.12 37.616 0 6.93 12.16 12.92
11/25/2022 8:00:00 PM 3.15 37.67 0 6.87 12.51 12.87
11/25/2022 8:15:00 PM 3.03 37.454 0 6.73 12.28 12.94
11/25/2022 8:30:00 PM 3.11 37.598 0 6.96 12.11 12.92
11/25/2022 8:45:00 PM 3.05 37.49 0 6.87 12.2 12.93
11/25/2022 9:00:00 PM 3.02 37.436 0 6.85 11.87 12.94
11/25/2022 9:15:00 PM 3.11 37.598 0 6.97 11.87 12.91
11/25/2022 9:30:00 PM 3.08 37.544 0 7.02 12.02 12.92
11/25/2022 9:45:00 PM 2.99 37.382 0 6.85 12.33 12.9
11/25/2022 10:00:00 PM 2.92 37.256 0 6.93 12.33 12.97
11/25/2022 10:15:00 PM 2.77 36.986 0 6.97 12.2 13.02
11/25/2022 10:30:00 PM 2.72 36.896 0 7 12.24 13.04
11/25/2022 10:45:00 PM 2.71 36.878 0 7.02 12.37 13.06
11/25/2022 11:00:00 PM 2.76 36.968 0 6.93 12.44 13.04
11/25/2022 11:15:00 PM 2.77 36.986 0 7.08 11.9 13.04
11/25/2022 11:30:00 PM 2.82 37.076 0 7.05 12.67 13
11/25/2022 11:45:00 PM 2.82 37.076 0 7.05 12.18 13
11/26/2022 12:00:00 AM 2.88 37.184 0 7.06 12.22 12.98
11/26/2022 12:15:00 AM 2.91 37.238 0 7.05 12.05 12.97
11/26/2022 12:30:00 AM 2.8 37.04 0 7.05 11.81 13.05
11/26/2022 12:45:00 AM 2.82 37.076 0 7.04 13.05 13.01
11/26/2022 1:00:00 AM 2.8 37.04 0 6.99 11.99 13.06
11/26/2022 1:15:00 AM 2.78 37.004 0 6.92 12.63 13.06
11/26/2022 1:30:00 AM 2.87 37.166 0 7.08 12.23 12.98
11/26/2022 1:45:00 AM 2.71 36.878 0 6.86 12.52 13.11
11/26/2022 2:00:00 AM 2.83 37.094 0 7.05 12.4 13.05
11/26/2022 2:15:00 AM 2.87 37.166 0 7.01 11.84 13
11/26/2022 2:30:00 AM 2.94 37.292 0 7.05 11.57 12.97
11/26/2022 2:45:00 AM 2.93 37.274 0 7 11.55 12.97
11/26/2022 3:00:00 AM 2.83 37.094 0 6.99 12.83 13
11/26/2022 3:15:00 AM 2.71 36.878 0 6.99 12.41 13.03
11/26/2022 3:30:00 AM 2.59 36.662 0 7 11.86 13.08
11/26/2022 3:45:00 AM 2.48 36.464 0 7.04 12.37 13.13
11/26/2022 4:00:00 AM 2.33 36.194 0 7.07 12.51 13.18
11/26/2022 4:15:00 AM 2.21 35.978 0 7.02 11.92 13.21
11/26/2022 4:30:00 AM 2.15 35.87 0 7.03 11.78 13.22
11/26/2022 4:45:00 AM 2.1 35.78 0 7 11.86 13.25
11/26/2022 5:00:00 AM 1.94 35.492 0 7.05 12.79 13.31
11/26/2022 5:15:00 AM 1.85 35.33 0 7.03 12.89 13.31
11/26/2022 5:30:00 AM 1.74 35.132 0 7.06 12.46 13.37
11/26/2022 5:45:00 AM 1.75 35.15 0 7.07 12.47 13.36
11/26/2022 6:00:00 AM 1.73 35.114 0 7.09 12.1 13.38
11/26/2022 6:15:00 AM 1.69 35.042 0 6.99 12.35 13.39
11/26/2022 6:30:00 AM 1.59 34.862 0 7.08 12.4 13.43
11/26/2022 6:45:00 AM 1.63 34.934 0 7.06 11.58 13.41
11/26/2022 7:00:00 AM 1.57 34.826 0 6.99 12.7 13.45
11/26/2022 7:15:00 AM 1.51 34.718 0 7.04 12.36 13.48
11/26/2022 7:30:00 AM 1.42 34.556 0 7.1 12.1 13.49
11/26/2022 7:45:00 AM 1.34 34.412 0 7.11 11.91 13.54
11/26/2022 8:00:00 AM 1.44 34.592 0 7.01 12.64 13.5
11/26/2022 8:15:00 AM 1.44 34.592 0 7.03 11.96 13.5
11/26/2022 8:30:00 AM 1.45 34.61 0 7.07 12.11 13.5
11/26/2022 8:45:00 AM 1.51 34.718 0 7.09 12.54 13.46
11/26/2022 9:00:00 AM 1.59 34.862 0 7.16 12.22 13.43
11/26/2022 9:15:00 AM 1.62 34.916 0 7.14 12.43 13.43
11/26/2022 9:30:00 AM 1.73 35.114 0 7.12 12.3 13.4
11/26/2022 9:45:00 AM 1.92 35.456 0 7.1 12.15 13.35
11/26/2022 10:00:00 AM 2.25 36.05 0 7.09 11.72 13.21
11/26/2022 10:15:00 AM 2.41 36.338 0 7.08 12.32 13.18
11/26/2022 10:30:00 AM 2.56 36.608 0 7.07 12.09 13.12
11/26/2022 10:45:00 AM 2.9 37.22 0 7.07 12.68 13.01
11/26/2022 11:00:00 AM 3.31 37.958 0 7.01 12.3 12.9
11/26/2022 11:15:00 AM 3.53 38.354 0 6.95 11.61 12.79
11/26/2022 11:30:00 AM 3.52 38.336 0 6.97 12.27 12.79
11/26/2022 11:45:00 AM 3.44 38.192 0 6.88 12.45 12.81
11/26/2022 12:00:00 PM 3.42 38.156 0 6.97 12.24 12.82
11/26/2022 12:15:00 PM 3.39 38.102 0 6.95 12.47 12.83
11/26/2022 12:30:00 PM 3.38 38.084 0 6.96 11.78 12.82
11/26/2022 12:45:00 PM 3.4 38.12 0 6.99 12.72 12.81
11/26/2022 1:00:00 PM 3.43 38.174 0 6.99 12.39 12.81
11/26/2022 1:15:00 PM 3.46 38.228 0 6.79 12.61 12.78
11/26/2022 1:30:00 PM 3.51 38.318 0 7.02 12.36 12.76
11/26/2022 1:45:00 PM 3.54 38.372 0 7.02 12 12.76
11/26/2022 2:00:00 PM 3.56 38.408 0 7.02 12.55 12.75
11/26/2022 2:15:00 PM 3.6 38.48 0 7 12.54 12.72
11/26/2022 2:30:00 PM 3.6 38.48 0 7.04 12.36 12.73
11/26/2022 2:45:00 PM 3.59 38.462 0 7.02 12.63 12.72
11/26/2022 3:00:00 PM 3.58 38.444 0 7.02 11.77 12.73
11/26/2022 3:15:00 PM 3.57 38.426 0 7.03 12.35 12.73
11/26/2022 3:30:00 PM 3.53 38.354 0 7.04 11.78 12.75
11/26/2022 3:45:00 PM 3.49 38.282 0 7.04 12.18 12.74
11/26/2022 4:00:00 PM 3.43 38.174 0 6.99 11.94 12.77
11/26/2022 4:15:00 PM 3.35 38.03 0 6.97 13.02 12.81
11/26/2022 4:30:00 PM 3.27 37.886 0 6.98 12.6 12.82
11/26/2022 4:45:00 PM 3.13 37.634 0 7 11.63 12.88
11/26/2022 5:00:00 PM 3.05 37.49 0 7.05 12.6 12.92
11/26/2022 5:15:00 PM 2.89 37.202 0 6.96 12.19 12.96
11/26/2022 5:30:00 PM 2.8 37.04 0 6.93 13.3 13.01
11/26/2022 5:45:00 PM 2.69 36.842 0 6.96 12.67 13.05
11/26/2022 6:00:00 PM 2.62 36.716 0 6.95 12.42 13.05
11/26/2022 6:15:00 PM 2.53 36.554 0 6.99 11.91 13.09
11/26/2022 6:30:00 PM 2.41 36.338 0 7.02 12.82 13.15
11/26/2022 6:45:00 PM 2.35 36.23 0 6.89 13.14 13.15
11/26/2022 7:00:00 PM 2.34 36.212 0 7 12.72 13.15
11/26/2022 7:15:00 PM 2.33 36.194 0 7.06 13.13 13.15
11/26/2022 7:30:00 PM 2.23 36.014 0 6.84 12.35 13.16
11/26/2022 7:45:00 PM 2.22 35.996 0 7.1 12.31 13.18
11/26/2022 8:00:00 PM 2.17 35.906 0 6.9 12.63 13.17
11/26/2022 8:15:00 PM 2.11 35.798 0 7 12.87 13.22
11/26/2022 8:30:00 PM 2.04 35.672 0 7.03 12.27 13.23
11/26/2022 8:45:00 PM 2.04 35.672 0 7.1 12.94 13.25
11/26/2022 9:00:00 PM 2.01 35.618 0 7.11 12.26 13.24
11/26/2022 9:15:00 PM 1.99 35.582 0 7.15 12.91 13.24
11/26/2022 9:30:00 PM 1.92 35.456 0 7.14 12.28 13.27
11/26/2022 9:45:00 PM 1.79 35.222 0 7.14 13.11 13.33
11/26/2022 10:00:00 PM 1.89 35.402 0 7.17 12.26 13.29
11/26/2022 10:15:00 PM 1.8 35.24 0 7.16 13.09 13.31
11/26/2022 10:30:00 PM 1.89 35.402 0 7.14 12.92 13.28
11/26/2022 10:45:00 PM 1.77 35.186 0 7.16 12.41 13.31
11/26/2022 11:00:00 PM 1.81 35.258 0 7.23 12.76 13.29
11/26/2022 11:15:00 PM 1.74 35.132 0 7.15 12.41 13.31
11/26/2022 11:30:00 PM 1.73 35.114 0 7.21 12.72 13.32
11/26/2022 11:45:00 PM 1.71 35.078 0 7.12 12.6 13.33
11/27/2022 12:00:00 AM 1.61 34.898 0 6.97 12.49 13.38
11/27/2022 12:15:00 AM 1.71 35.078 0 7.12 12.41 13.34
11/27/2022 12:30:00 AM 1.72 35.096 0 7.08 13.38 13.34
11/27/2022 12:45:00 AM 1.74 35.132 0 7.12 12.56 13.33
11/27/2022 1:00:00 AM 1.72 35.096 0 7.18 13.09 13.32
11/27/2022 1:15:00 AM 1.73 35.114 0 7.13 11.84 13.32
11/27/2022 1:30:00 AM 1.54 34.772 0 7.14 12.25 13.39
11/27/2022 1:45:00 AM 1.65 34.97 0 7.16 12.25 13.35
11/27/2022 2:00:00 AM 1.66 34.988 0 7.15 12.84 13.35
11/27/2022 2:15:00 AM 1.65 34.97 0 7.16 12.86 13.35
11/27/2022 2:30:00 AM 1.57 34.826 0 7.16 12.88 13.39
11/27/2022 2:45:00 AM 1.64 34.952 0 7.15 12.66 13.35
11/27/2022 3:00:00 AM 1.64 34.952 0 7.16 12.38 13.35
11/27/2022 3:15:00 AM 1.66 34.988 0 7.16 11.92 13.34
11/27/2022 3:30:00 AM 1.67 35.006 0 7.18 12.04 13.34
11/27/2022 3:45:00 AM 1.63 34.934 0 7.16 12.11 13.34
11/27/2022 4:00:00 AM 1.65 34.97 0 7.16 12.11 13.34
11/27/2022 4:15:00 AM 1.64 34.952 0 7.13 12.56 13.33
11/27/2022 4:30:00 AM 1.65 34.97 0 7.11 12.08 13.33
11/27/2022 4:45:00 AM 1.67 35.006 0 7.03 12.82 13.32
11/27/2022 5:00:00 AM 1.61 34.898 0 7.15 11.84 13.35
11/27/2022 5:15:00 AM 1.65 34.97 0 7.14 12.39 13.33
11/27/2022 5:30:00 AM 1.66 34.988 0 7.12 12.42 13.33
11/27/2022 5:45:00 AM 1.68 35.024 0 7.16 12.57 13.32
11/27/2022 6:00:00 AM 1.71 35.078 0 7.13 12.4 13.3
11/27/2022 6:15:00 AM 1.73 35.114 0 7.09 12.16 13.29
11/27/2022 6:30:00 AM 1.73 35.114 0 7.13 12.14 13.3
11/27/2022 6:45:00 AM 1.74 35.132 0 7.11 12.32 13.29
11/27/2022 7:00:00 AM 1.78 35.204 0 7.12 12.15 13.27
11/27/2022 7:15:00 AM 1.82 35.276 0 7.09 12.66 13.24
11/27/2022 7:30:00 AM 1.85 35.33 0 7.12 12.25 13.23
11/27/2022 7:45:00 AM 1.9 35.42 0 7.12 12.09 13.21
11/27/2022 8:00:00 AM 1.95 35.51 0 7.13 12.07 13.2
11/27/2022 8:15:00 AM 1.96 35.528 0 7.13 12.74 13.19
11/27/2022 8:30:00 AM 2.03 35.654 0 7.11 12.51 13.16
11/27/2022 8:45:00 AM 2.08 35.744 0 7.12 13.03 13.14
11/27/2022 9:00:00 AM 2.16 35.888 0 7.13 12.72 13.11
11/27/2022 9:15:00 AM 2.23 36.014 0 7.11 12.73 13.08
11/27/2022 9:30:00 AM 2.35 36.23 0 7.12 12.87 13.03
11/27/2022 9:45:00 AM 2.47 36.446 0 7.11 12.38 13
11/27/2022 10:00:00 AM 2.61 36.698 0 7.12 12.43 12.94
11/27/2022 10:15:00 AM 2.76 36.968 0 7.1 11.82 12.89
11/27/2022 10:30:00 AM 2.89 37.202 0 7.11 12.45 12.84
11/27/2022 10:45:00 AM 3.11 37.598 0 7.1 12.24 12.78
11/27/2022 11:00:00 AM 3.3 37.94 0 7.11 12.02 12.72
11/27/2022 11:15:00 AM 3.41 38.138 0 7.09 12.17 12.67
11/27/2022 11:30:00 AM 3.58 38.444 0 7.07 12.95 12.61
11/27/2022 11:45:00 AM 3.7 38.66 0 7.08 12.19 12.56
11/27/2022 12:00:00 PM 3.79 38.822 0 7.07 12.32 12.52
11/27/2022 12:15:00 PM 3.88 38.984 0 7.04 12.3 12.48
11/27/2022 12:30:00 PM 3.95 39.11 0 7.05 12.51 12.45
11/27/2022 12:45:00 PM 3.99 39.182 0 7.05 11.85 12.43
11/27/2022 1:00:00 PM 4.02 39.236 0 7.06 12.14 12.41
11/27/2022 1:15:00 PM 4.03 39.254 0 7.06 12.58 12.4
11/27/2022 1:30:00 PM 4.04 39.272 0 7.06 11.86 12.39
11/27/2022 1:45:00 PM 4.07 39.326 0 7.06 12.22 12.38
11/27/2022 2:00:00 PM 4.09 39.362 0 7.06 12.37 12.37
11/27/2022 2:15:00 PM 4.09 39.362 0 7.07 12.25 12.37
11/27/2022 2:30:00 PM 4.1 39.38 0 7.06 12.82 12.37
11/27/2022 2:45:00 PM 4.13 39.434 0 7.05 11.51 12.35
11/27/2022 3:00:00 PM 4.14 39.452 0 7.06 11.81 12.34
11/27/2022 3:15:00 PM 4.21 39.578 0 7.25 12.48 12.31
11/27/2022 3:30:00 PM 4.26 39.668 0 7.64 12.72 12.29
11/27/2022 3:45:00 PM 4.25 39.65 0 7.58 15.32 12.29
11/27/2022 4:00:00 PM 4.25 39.65 0 7.58 14.08 12.29
11/27/2022 4:15:00 PM 4.26 39.668 0 7.55 12.62 12.28
11/27/2022 4:30:00 PM 4.25 39.65 0 7.54 12.48 12.28
11/27/2022 4:45:00 PM 4.25 39.65 0 7.5 11.84 12.27
11/27/2022 5:00:00 PM 4.27 39.686 0 7.52 14.27 12.27
11/27/2022 5:15:00 PM 4.31 39.758 0 7.49 19.02 12.25
11/27/2022 5:30:00 PM 4.35 39.83 0.003 7.49 83.34 12.24
11/27/2022 5:45:00 PM 4.37 39.866 0.055 7.53 33.23 12.24
11/27/2022 6:00:00 PM 4.41 39.938 0.072 7.51 30.33 12.23
11/27/2022 6:15:00 PM 4.43 39.974 0.071 7.47 56.9 12.18
11/27/2022 6:30:00 PM 4.45 40.01 0.074 7.47 67.18 12.12
11/27/2022 6:45:00 PM 4.47 40.046 0.077 7.47 56.1 12.12
11/27/2022 7:00:00 PM 4.49 40.082 0.078 7.48 49.54 12.11
11/27/2022 7:15:00 PM 4.52 40.136 0.078 7.49 48.79 12.11
11/27/2022 7:30:00 PM 4.55 40.19 0.077 7.48 40.06 12.1
11/27/2022 7:45:00 PM 4.57 40.226 0.076 7.47 36.89 12.09
11/27/2022 8:00:00 PM 4.58 40.244 0.074 7.45 39.38 12.1
11/27/2022 8:15:00 PM 4.6 40.28 0.073 7.45 38.45 12.1
11/27/2022 8:30:00 PM 4.62 40.316 0.073 7.44 38.18 12.09
11/27/2022 8:45:00 PM 4.64 40.352 0.075 7.46 38.96 12.08
11/27/2022 9:00:00 PM 4.66 40.388 0.077 7.47 45.09 12.07
11/27/2022 9:15:00 PM 4.67 40.406 0.078 7.47 45.16 12.07
11/27/2022 9:30:00 PM 4.69 40.442 0.078 7.48 42.29 12.06
11/27/2022 9:45:00 PM 4.68 40.424 0.077 7.47 40.74 12.06
11/27/2022 10:00:00 PM 4.69 40.442 0.077 7.47 38.17 12.06
11/27/2022 10:15:00 PM 4.72 40.496 0.077 7.47 36.62 12.05
11/27/2022 10:30:00 PM 4.75 40.55 0.077 7.48 35.58 12.04
11/27/2022 10:45:00 PM 4.78 40.604 0.078 7.48 36.62 12.03
11/27/2022 11:00:00 PM 4.8 40.64 0.079 7.48 36.18 12.03
11/27/2022 11:15:00 PM 4.82 40.676 0.079 7.49 34.21 12.02
11/27/2022 11:30:00 PM 4.85 40.73 0.08 7.49 32.93 12.01
11/27/2022 11:45:00 PM 4.88 40.784 0.08 7.49 32.78 12.01
11/28/2022 12:00:00 AM 4.91 40.838 0.08 7.49 31.5 12
11/28/2022 12:15:00 AM 4.93 40.874 0.08 7.49 29.33 11.99
11/28/2022 12:30:00 AM 4.96 40.928 0.08 7.48 28.71 11.99
11/28/2022 12:45:00 AM 4.99 40.982 0.092 7.48 27.68 11.99
11/28/2022 1:00:00 AM 5.02 41.036 0.08 7.48 26.56 11.99
11/28/2022 1:15:00 AM 5.04 41.072 0.079 7.48 25.82 12
11/28/2022 1:30:00 AM 5.07 41.126 0.079 7.48 24.61 12.01
11/28/2022 1:45:00 AM 5.11 41.198 0.091 7.49 24.6 12.01
11/28/2022 2:00:00 AM 5.14 41.252 0.079 7.48 23.68 12.01
11/28/2022 2:15:00 AM 5.18 41.324 0.078 7.49 22.65 12
11/28/2022 2:30:00 AM 5.21 41.378 0.078 7.48 22.55 12.01
11/28/2022 2:45:00 AM 5.23 41.414 0.077 7.48 22.07 12.01
11/28/2022 3:00:00 AM 5.23 41.414 0.077 7.48 21.4 12.02
11/28/2022 3:15:00 AM 5.23 41.414 0.077 7.48 23.12 12.02
11/28/2022 3:30:00 AM 5.2 41.36 0.076 7.48 20.56 12.03
11/28/2022 3:45:00 AM 5.14 41.252 0.076 7.47 19.89 12.05
11/28/2022 4:00:00 AM 5.1 41.18 0.076 7.47 20.69 12.07
11/28/2022 4:15:00 AM 5.08 41.144 0.076 7.47 20.83 12.08
11/28/2022 4:30:00 AM 5.08 41.144 0.076 7.47 20.66 12.09
11/28/2022 4:45:00 AM 5.08 41.144 0.075 7.47 20.65 12.1
11/28/2022 5:00:00 AM 5.07 41.126 0.075 7.47 19.97 12.1
11/28/2022 5:15:00 AM 5.06 41.108 0.075 7.47 20.19 12.1
11/28/2022 5:30:00 AM 5.04 41.072 0.075 7.47 20.55 12.11
11/28/2022 5:45:00 AM 5.03 41.054 0.075 7.47 19.89 12.12
11/28/2022 6:00:00 AM 5.01 41.018 0.075 7.47 19.77 12.12
11/28/2022 6:15:00 AM 5 41 0.075 7.47 19.85 12.14
11/28/2022 6:30:00 AM 4.98 40.964 0.075 7.48 19.74 12.11
11/28/2022 6:45:00 AM 4.97 40.946 0.075 7.48 20.29 12.15
11/28/2022 7:00:00 AM 4.96 40.928 0.075 7.48 19.8 12.16
11/28/2022 7:15:00 AM 4.96 40.928 0.075 7.48 19.87 12.17
11/28/2022 7:30:00 AM 4.95 40.91 0.074 7.48 20.21 12.18
11/28/2022 7:45:00 AM 4.95 40.91 0.074 7.48 20.13 12.17
11/28/2022 8:00:00 AM 4.94 40.892 0.074 7.48 20.21 12.18
11/28/2022 8:15:00 AM 4.93 40.874 0.074 7.49 20.05 12.19
11/28/2022 8:30:00 AM 4.91 40.838 0.074 7.49 20.26 12.17
11/28/2022 8:45:00 AM 4.92 40.856 0.074 7.49 20.39 12.2
11/28/2022 9:00:00 AM 4.92 40.856 0.074 7.5 20.5 12.2
11/28/2022 9:15:00 AM 4.94 40.892 0.074 7.49 20.65 12.21
11/28/2022 9:30:00 AM 4.95 40.91 0.074 7.5 21.02 12.2
11/28/2022 9:45:00 AM 4.96 40.928 0.073 7.49 20.84 12.2
11/28/2022 10:00:00 AM 4.96 40.928 0.073 7.5 21.35 12.19
11/28/2022 10:15:00 AM 4.96 40.928 0.073 7.51 21.45 12.2
11/28/2022 10:30:00 AM 5 41 0.073 7.51 21.59 12.2
11/28/2022 10:45:00 AM 5.08 41.144 0.073 7.51 21.53 12.17
11/28/2022 11:00:00 AM 5.11 41.198 0.072 7.52 21.97 12.17
11/28/2022 11:15:00 AM 5.09 41.162 0.072 7.52 21.72 12.16
11/28/2022 11:30:00 AM 5.08 41.144 0.072 7.53 21.92 12.17
11/28/2022 11:45:00 AM 5.09 41.162 0.071 7.53 22.12 12.17
11/28/2022 12:00:00 PM 5.1 41.18 0.071 7.52 22.2 12.16
11/28/2022 12:15:00 PM 5.12 41.216 0.071 7.53 22.27 12.15
11/28/2022 12:30:00 PM 5.13 41.234 0.071 7.53 22.27 12.16
11/28/2022 12:45:00 PM 5.1 41.18 0.069 7.53 22.74 12.17
11/28/2022 1:00:00 PM 5.07 41.126 0.069 7.54 22.76 12.18
11/28/2022 1:15:00 PM 5.08 41.144 0.069 7.54 22.77 12.16
11/28/2022 1:30:00 PM 5.08 41.144 0.068 7.56 22.82 12.17
11/28/2022 1:45:00 PM 5.07 41.126 0.067 7.54 23.14 12.15
11/28/2022 2:00:00 PM 5.08 41.144 0.067 7.55 23.12 12.18
11/28/2022 2:15:00 PM 5.07 41.126 0.066 7.54 23.39 12.18
11/28/2022 2:30:00 PM 5.06 41.108 0.066 7.55 23.35 12.19
11/28/2022 2:45:00 PM 5.04 41.072 0.064 7.54 23.79 12.19
11/28/2022 3:00:00 PM 5.02 41.036 0.064 7.54 23.77 12.21
11/28/2022 3:15:00 PM 5.03 41.054 0.064 7.55 23.83 12.21
11/28/2022 3:30:00 PM 5.01 41.018 0.063 7.54 23.84 12.22
11/28/2022 3:45:00 PM 5 41 0.061 7.52 24.11 12.23
11/28/2022 4:00:00 PM 4.99 40.982 0.06 7.51 24.16 12.23
11/28/2022 4:15:00 PM 4.95 40.91 0.06 7.51 24.34 12.25
11/28/2022 4:30:00 PM 4.9 40.82 0.059 7.5 25.35 12.26
11/28/2022 4:45:00 PM 4.88 40.784 0.057 7.49 24.57 12.28
11/28/2022 5:00:00 PM 4.86 40.748 0.058 7.49 24.38 12.28
11/28/2022 5:15:00 PM 4.85 40.73 0.057 7.48 24.67 12.3
11/28/2022 5:30:00 PM 4.84 40.712 0.056 7.48 24.65 12.3
11/28/2022 5:45:00 PM 4.82 40.676 0.054 7.46 24.7 12.31
11/28/2022 6:00:00 PM 4.8 40.64 0.052 7.45 25.31 12.32
11/28/2022 6:15:00 PM 4.77 40.586 0.052 7.45 25.93 12.33
11/28/2022 6:30:00 PM 4.75 40.55 0.053 7.47 25.44 12.34
11/28/2022 6:45:00 PM 4.73 40.514 0.05 7.46 25.92 12.34
11/28/2022 7:00:00 PM 4.69 40.442 0.051 7.45 25.31 12.35
11/28/2022 7:15:00 PM 4.67 40.406 0.048 7.45 26.23 12.36
11/28/2022 7:30:00 PM 4.66 40.388 0.048 7.46 26.06 12.36
11/28/2022 7:45:00 PM 4.63 40.334 0.049 7.45 25.01 12.38
11/28/2022 8:00:00 PM 4.62 40.316 0.046 7.44 25.56 12.36
11/28/2022 8:15:00 PM 4.59 40.262 0.045 7.44 26.09 12.4
11/28/2022 8:30:00 PM 4.59 40.262 0.045 7.43 25.81 12.41
11/28/2022 8:45:00 PM 4.59 40.262 0.046 7.43 25.62 12.41
11/28/2022 9:00:00 PM 4.56 40.208 0.042 7.42 25.94 12.42
11/28/2022 9:15:00 PM 4.56 40.208 0.042 7.4 25.95 12.42
11/28/2022 9:30:00 PM 4.54 40.172 0.042 7.41 25.47 12.43
11/28/2022 9:45:00 PM 4.51 40.118 0.039 7.39 25.82 12.43
11/28/2022 10:00:00 PM 4.5 40.1 0.038 7.39 25.72 12.44
11/28/2022 10:15:00 PM 4.47 40.046 0.037 7.4 25.83 12.45
11/28/2022 10:30:00 PM 4.44 39.992 0.038 7.4 25.83 12.46
11/28/2022 10:45:00 PM 4.41 39.938 0.035 7.41 26.2 12.46
11/28/2022 11:00:00 PM 4.36 39.848 0.036 7.43 26.13 12.48
11/28/2022 11:15:00 PM 4.31 39.758 0.033 7.41 26.26 12.49
11/28/2022 11:30:00 PM 4.32 39.776 0.034 7.42 25.82 12.49
11/28/2022 11:45:00 PM 4.31 39.758 0.032 7.39 25.85 12.51
11/29/2022 12:00:00 AM 4.3 39.74 0.03 7.39 25.82 12.51
11/29/2022 12:15:00 AM 4.26 39.668 0.031 7.39 25.97 12.52
11/29/2022 12:30:00 AM 4.21 39.578 0.031 7.4 26.01 12.52
11/29/2022 12:45:00 AM 4.2 39.56 0.029 7.37 25.99 12.55
11/29/2022 1:00:00 AM 4.18 39.524 0.028 7.37 26.42 12.55
11/29/2022 1:15:00 AM 4.11 39.398 0.025 7.37 26.89 12.56
11/29/2022 1:30:00 AM 4.04 39.272 0.026 7.41 26.87 12.59
11/29/2022 1:45:00 AM 4 39.2 0.024 7.39 26.77 12.59
11/29/2022 2:00:00 AM 3.91 39.038 0.025 7.43 26.29 12.62
11/29/2022 2:15:00 AM 3.97 39.146 0.026 7.39 26.47 12.61
11/29/2022 2:30:00 AM 3.99 39.182 0.024 7.37 26.38 12.61
11/29/2022 2:45:00 AM 3.99 39.182 0.024 7.33 27.09 12.62
11/29/2022 3:00:00 AM 3.98 39.164 0.022 7.3 26.77 12.63
11/29/2022 3:15:00 AM 3.95 39.11 0.022 7.33 26.62 12.64
11/29/2022 3:30:00 AM 3.94 39.092 0.021 7.3 27.34 12.64
11/29/2022 3:45:00 AM 3.9 39.02 0.021 7.34 27.26 12.66
11/29/2022 4:00:00 AM 3.9 39.02 0.02 7.2 26.88 12.66
11/29/2022 4:15:00 AM 3.88 38.984 0.02 7.24 27.51 12.67
11/29/2022 4:30:00 AM 3.86 38.948 0.019 7.29 27.04 12.68
11/29/2022 4:45:00 AM 3.84 38.912 0.018 7.2 26.88 12.68
11/29/2022 5:00:00 AM 3.84 38.912 0.019 7.05 27.17 12.7
11/29/2022 5:15:00 AM 3.82 38.876 0.017 6.92 26.89 12.71
11/29/2022 5:30:00 AM 3.81 38.858 0.018 6.93 26.96 12.71
11/29/2022 5:45:00 AM 3.79 38.822 0.016 6.94 27.3 12.72
11/29/2022 6:00:00 AM 3.78 38.804 0.015 6.91 27.34 12.72
11/29/2022 6:15:00 AM 3.75 38.75 0.013 6.91 27.1 12.74
11/29/2022 6:30:00 AM 3.74 38.732 0.016 6.93 26.8 12.74
11/29/2022 6:45:00 AM 3.73 38.714 0.015 7.28 27.34 12.74
11/29/2022 7:00:00 AM 3.72 38.696 0.014 6.94 27.15 12.75
11/29/2022 7:15:00 AM 3.71 38.678 0.015 7.29 27.49 12.75
11/29/2022 7:30:00 AM 3.68 38.624 0.014 6.93 26.96 12.77
11/29/2022 7:45:00 AM 3.66 38.588 0.012 6.95 27.46 12.76
11/29/2022 8:00:00 AM 3.7 38.66 0.011 6.92 27.31 12.77
11/29/2022 8:15:00 AM 3.72 38.696 0.011 7.34 27.51 12.76
11/29/2022 8:30:00 AM 3.71 38.678 0.009 7.23 27.57 12.76
11/29/2022 8:45:00 AM 3.75 38.75 0.008 7.38 28.25 12.74
11/29/2022 9:00:00 AM 3.78 38.804 0.007 7.38 28.45 12.73
11/29/2022 9:15:00 AM 3.82 38.876 0.008 7.42 28.13 12.73
11/29/2022 9:30:00 AM 3.88 38.984 0.007 7.22 27.98 12.71
11/29/2022 9:45:00 AM 3.92 39.056 0.006 7.39 28.06 12.7
11/29/2022 10:00:00 AM 3.97 39.146 0.004 7.24 28.44 12.68
11/29/2022 10:15:00 AM 4.04 39.272 0.006 6.94 28.34 12.66
11/29/2022 10:30:00 AM 4.08 39.344 0.005 6.94 28.39 12.63
11/29/2022 10:45:00 AM 4.14 39.452 0.005 7.4 28.41 12.63
11/29/2022 11:00:00 AM 4.15 39.47 0.003 7.4 28.63 12.61
11/29/2022 11:15:00 AM 4.21 39.578 0.003 7.38 28.62 12.61
11/29/2022 11:30:00 AM 4.2 39.56 0.003 7.4 28.96 12.61
11/29/2022 11:45:00 AM 4.25 39.65 0.003 7.4 28.96 12.58
11/29/2022 12:00:00 PM 4.33 39.794 0.004 7.39 29.87 12.55
11/29/2022 12:15:00 PM 4.37 39.866 0.004 7.43 29.53 12.54
11/29/2022 12:30:00 PM 4.45 40.01 0.005 6.91 29.06 12.51
11/29/2022 12:45:00 PM 4.47 40.046 0.003 7.38 28.95 12.5
11/29/2022 1:00:00 PM 4.49 40.082 0.004 7.37 28.83 12.5
11/29/2022 1:15:00 PM 4.52 40.136 0.002 7.41 29.65 12.5
11/29/2022 1:30:00 PM 4.54 40.172 0.003 7.4 29.22 12.48
11/29/2022 1:45:00 PM 4.61 40.298 0.002 7.41 29.36 12.46
11/29/2022 2:00:00 PM 4.67 40.406 0.002 7.2 29.79 12.44
11/29/2022 2:15:00 PM 4.71 40.478 0.002 7.4 29.27 12.42
11/29/2022 2:30:00 PM 4.71 40.478 0.002 7.41 30.09 12.42
11/29/2022 2:45:00 PM 4.71 40.478 0.003 7.42 29.58 12.42
11/29/2022 3:00:00 PM 4.7 40.46 0.002 7.43 29.94 12.42
11/29/2022 3:15:00 PM 4.68 40.424 0.002 7.43 29.63 12.43
11/29/2022 3:30:00 PM 4.64 40.352 0.002 7.42 31.2 12.43
11/29/2022 3:45:00 PM 4.59 40.262 0.001 7.41 29.85 12.46
11/29/2022 4:00:00 PM 4.53 40.154 0.002 7.42 29.46 12.47
11/29/2022 4:15:00 PM 4.51 40.118 0.003 7.4 29.82 12.47
11/29/2022 4:30:00 PM 4.46 40.028 0.001 7.42 29.78 12.48
11/29/2022 4:45:00 PM 4.4 39.92 0.003 7.42 29.51 12.51
11/29/2022 5:00:00 PM 4.34 39.812 0.003 7.4 30.05 12.51
11/29/2022 5:15:00 PM 4.24 39.632 0.002 7.43 30.01 12.54
11/29/2022 5:30:00 PM 4.25 39.65 0.004 7.43 30.14 12.55
11/29/2022 5:45:00 PM 4.21 39.578 0.002 7.18 29.54 12.55
11/29/2022 6:00:00 PM 4.18 39.524 0.002 7.41 29.96 12.57
11/29/2022 6:15:00 PM 4.14 39.452 0.002 6.94 29.86 12.58
11/29/2022 6:30:00 PM 4.11 39.398 0.002 7.4 29.75 12.6
11/29/2022 6:45:00 PM 4.06 39.308 0.002 7.42 29.7 12.61
11/29/2022 7:00:00 PM 4.03 39.254 0.003 6.94 29.58 12.61
11/29/2022 7:15:00 PM 3.97 39.146 0.003 7.44 29.46 12.63
11/29/2022 7:30:00 PM 3.94 39.092 0.002 7.43 29.56 12.65
11/29/2022 7:45:00 PM 3.92 39.056 0.003 7.42 29.15 12.63
11/29/2022 8:00:00 PM 3.91 39.038 0.003 7.41 29.03 12.63
11/29/2022 8:15:00 PM 3.88 38.984 0.002 7.43 29.34 12.66
11/29/2022 8:30:00 PM 3.88 38.984 0.003 7.44 29.29 12.66
11/29/2022 8:45:00 PM 3.9 39.02 0.001 7.44 29.47 12.65
11/29/2022 9:00:00 PM 3.91 39.038 0.002 7.45 29.39 12.64
11/29/2022 9:15:00 PM 3.88 38.984 0.001 7.45 29.6 12.65
11/29/2022 9:30:00 PM 3.86 38.948 0.002 7.44 28.88 12.65
11/29/2022 9:45:00 PM 3.83 38.894 0.002 7.43 29.3 12.67
11/29/2022 10:00:00 PM 3.84 38.912 0.003 7.42 29.1 12.66
11/29/2022 10:15:00 PM 3.78 38.804 0.001 7.45 29.31 12.67
11/29/2022 10:30:00 PM 3.78 38.804 0.002 7.45 29.28 12.67
11/29/2022 10:45:00 PM 3.77 38.786 0.002 7.44 29.26 12.68
11/29/2022 11:00:00 PM 3.77 38.786 0.002 7.45 29.01 12.67
11/29/2022 11:15:00 PM 3.78 38.804 0.001 7.42 29.08 12.64
11/29/2022 11:30:00 PM 3.79 38.822 0.001 7.44 29.9 12.65
11/29/2022 11:45:00 PM 3.84 38.912 0.003 7.44 28.96 12.65
11/30/2022 12:00:00 AM 3.86 38.948 0.003 7.42 28.79 12.62
11/30/2022 12:15:00 AM 3.78 38.804 0.002 7.45 29.3 12.64
11/30/2022 12:30:00 AM 3.96 39.128 0.004 7.41 28.82 12.59
11/30/2022 12:45:00 AM 4.02 39.236 0.002 7.4 29.21 12.57
11/30/2022 1:00:00 AM 4 39.2 0.003 7.41 29.1 12.56
11/30/2022 1:15:00 AM 3.97 39.146 0.003 7.43 28.78 12.58
11/30/2022 1:30:00 AM 4.02 39.236 0.004 6.93 28.26 12.56
11/30/2022 1:45:00 AM 4.06 39.308 0.004 7.39 28.39 12.54
11/30/2022 2:00:00 AM 4.04 39.272 0.002 7.41 28.79 12.55
11/30/2022 2:15:00 AM 4.1 39.38 0.002 7.43 28.78 12.53
11/30/2022 2:30:00 AM 4.12 39.416 0.004 7.39 28.42 12.52
11/30/2022 2:45:00 AM 4.15 39.47 0.005 7.44 28.34 12.52
11/30/2022 3:00:00 AM 4.18 39.524 0.005 7.41 28.16 12.5
11/30/2022 3:15:00 AM 4.2 39.56 0.004 7.42 28.35 12.49
11/30/2022 3:30:00 AM 4.23 39.614 0.004 7.27 28.13 12.48
11/30/2022 3:45:00 AM 4.25 39.65 0.005 6.93 28.23 12.48
11/30/2022 4:00:00 AM 4.23 39.614 0.007 7.44 27.87 12.46
11/30/2022 4:15:00 AM 4.26 39.668 0.007 6.94 27.81 12.46
11/30/2022 4:30:00 AM 4.3 39.74 0.005 7.43 27.98 12.45
11/30/2022 4:45:00 AM 4.32 39.776 0.005 6.93 27.97 12.44
11/30/2022 5:00:00 AM 4.34 39.812 0.007 6.93 27.57 12.43
11/30/2022 5:15:00 AM 4.36 39.848 0.006 7.41 28.05 12.42
11/30/2022 5:30:00 AM 4.4 39.92 0.005 6.92 27.82 12.41
11/30/2022 5:45:00 AM 4.43 39.974 0.009 6.91 27.53 12.4
11/30/2022 6:00:00 AM 4.45 40.01 0.009 6.91 27.63 12.39
11/30/2022 6:15:00 AM 4.48 40.064 0.007 6.92 27.96 12.37
11/30/2022 6:30:00 AM 4.51 40.118 0.007 6.92 27.9 12.36
11/30/2022 6:45:00 AM 4.53 40.154 0.009 6.91 28.1 12.34
11/30/2022 7:00:00 AM 4.56 40.208 0.011 6.91 27.23 12.33
11/30/2022 7:15:00 AM 4.6 40.28 0.009 6.92 27.7 12.32
11/30/2022 7:30:00 AM 4.63 40.334 0.009 6.92 27.65 12.31
11/30/2022 7:45:00 AM 4.66 40.388 0.01 6.91 27.41 12.29
11/30/2022 8:00:00 AM 4.7 40.46 0.014 6.91 26.97 12.28
11/30/2022 8:15:00 AM 4.73 40.514 0.013 6.91 27.43 12.27
11/30/2022 8:30:00 AM 4.77 40.586 0.011 6.91 27.49 12.25
11/30/2022 8:45:00 AM 4.82 40.676 0.014 6.91 27.53 12.23
11/30/2022 9:00:00 AM 4.82 40.676 0.014 6.91 27.53 12.23
11/30/2022 9:15:00 AM 4.88 40.784 0.08 7.76 4.67 12.19
11/30/2022 9:30:00 AM 4.91 40.838 0.074 7.65 4.98 12.17
11/30/2022 9:45:00 AM 4.95 40.91 0.074 7.71 4.51 12.15
11/30/2022 10:00:00 AM 4.99 40.982 0.071 7.69 5.04 12.15
11/30/2022 10:15:00 AM 5.03 41.054 0.073 7.66 4.41 12.13
11/30/2022 10:30:00 AM 5.08 41.144 0.072 7.68 4.92 12.12
11/30/2022 10:45:00 AM 5.13 41.234 0.073 7.73 4.73 12.1
11/30/2022 11:00:00 AM 5.19 41.342 0.073 7.74 4.59 12.08
11/30/2022 11:15:00 AM 5.23 41.414 0.073 7.63 4.62 12.05
11/30/2022 11:30:00 AM 5.26 41.468 0.073 7.75 4.6 12.03
11/30/2022 11:45:00 AM 5.37 41.666 0.073 7.67 4.82 12.02
11/30/2022 12:00:00 PM 5.43 41.774 0.073 7.73 5 11.99
11/30/2022 12:15:00 PM 5.45 41.81 0.073 7.73 5.83 11.95
11/30/2022 12:30:00 PM 5.49 41.882 0.073 7.74 5.87 11.94
11/30/2022 12:45:00 PM 5.51 41.918 0.073 7.73 6.48 11.93
11/30/2022 1:00:00 PM 5.55 41.99 0.073 7.68 6.97 11.91
11/30/2022 1:15:00 PM 5.61 42.098 0.072 7.73 8.94 11.89
11/30/2022 1:30:00 PM 5.67 42.206 0.072 7.74 14.98 11.89
11/30/2022 1:45:00 PM 5.7 42.26 0.073 7.7 22.51 11.87
11/30/2022 2:00:00 PM 5.71 42.278 0.075 7.73 20.57 11.88
11/30/2022 2:15:00 PM 5.71 42.278 0.074 7.72 23.2 11.88
11/30/2022 2:30:00 PM 5.71 42.278 0.072 7.72 20.13 11.89
11/30/2022 2:45:00 PM 5.73 42.314 0.075 7.75 19.46 11.91
11/30/2022 3:00:00 PM 5.72 42.296 0.074 7.73 16.19 11.92
11/30/2022 3:15:00 PM 5.69 42.242 0.073 7.74 14.23 11.93
11/30/2022 3:30:00 PM 5.63 42.134 0.072 7.74 15.14 11.95
11/30/2022 3:45:00 PM 5.6 42.08 0.068 7.72 19.08 11.96
11/30/2022 4:00:00 PM 5.49 41.882 0.072 7.75 15.6 11.99
11/30/2022 4:15:00 PM 5.42 41.756 0.07 7.71 18.62 12.01
11/30/2022 4:30:00 PM 5.35 41.63 0.072 7.73 22.29 12.03
11/30/2022 4:45:00 PM 5.32 41.576 0.071 7.74 23.34 12.04
11/30/2022 5:00:00 PM 5.3 41.54 0.073 7.75 22.06 12.05
11/30/2022 5:15:00 PM 5.28 41.504 0.074 7.76 20.87 12.05
11/30/2022 5:30:00 PM 5.26 41.468 0.075 7.77 21.51 12.07
11/30/2022 5:45:00 PM 5.22 41.396 0.076 7.79 20.76 12.09
11/30/2022 6:00:00 PM 5.14 41.252 0.077 7.79 21.06 12.1
11/30/2022 6:15:00 PM 5.05 41.09 0.078 7.8 20.48 12.14
11/30/2022 6:30:00 PM 4.98 40.964 0.077 7.78 18.7 12.17
11/30/2022 6:45:00 PM 4.91 40.838 0.079 7.81 17.79 12.19
11/30/2022 7:00:00 PM 4.83 40.694 0.079 7.8 17.08 12.22
11/30/2022 7:15:00 PM 4.76 40.568 0.079 7.81 15.31 12.25
11/30/2022 7:30:00 PM 4.7 40.46 0.079 7.82 14.81 12.27
11/30/2022 7:45:00 PM 4.64 40.352 0.079 7.81 13.18 12.3
11/30/2022 8:00:00 PM 4.56 40.208 0.078 7.81 11.79 12.33
11/30/2022 8:15:00 PM 4.51 40.118 0.078 7.81 10.56 12.35
11/30/2022 8:30:00 PM 4.46 40.028 0.076 7.79 10.19 12.38
11/30/2022 8:45:00 PM 4.42 39.956 0.077 7.8 9.43 12.4
11/30/2022 9:00:00 PM 4.37 39.866 0.077 7.8 8.68 12.41
11/30/2022 9:15:00 PM 4.32 39.776 0.077 7.79 8.72 12.43
11/30/2022 9:30:00 PM 4.28 39.704 0.075 7.78 8.54 12.45
11/30/2022 9:45:00 PM 4.23 39.614 0.076 7.8 7.84 12.47
11/30/2022 10:00:00 PM 4.17 39.506 0.076 7.79 7.47 12.49
11/30/2022 10:15:00 PM 4.11 39.398 0.076 7.79 7.04 12.51
11/30/2022 10:30:00 PM 4.05 39.29 0.075 7.79 6.95 12.53
11/30/2022 10:45:00 PM 3.96 39.128 0.073 7.76 7.37 12.55
11/30/2022 11:00:00 PM 3.92 39.056 0.075 7.78 6.45 12.58
11/30/2022 11:15:00 PM 3.89 39.002 0.073 7.77 6.61 12.59
11/30/2022 11:30:00 PM 3.82 38.876 0.075 7.79 6.19 12.61
11/30/2022 11:45:00 PM 3.78 38.804 0.071 7.75 6.47 12.63
12/1/2022 12:00:00 AM 3.74 38.732 0.074 7.79 5.91 12.64
12/1/2022 12:15:00 AM 3.69 38.642 0.074 7.77 5.83 12.66
12/1/2022 12:30:00 AM 3.62 38.516 0.074 7.78 5.74 12.68
12/1/2022 12:45:00 AM 3.58 38.444 0.073 7.77 5.93 12.71
12/1/2022 1:00:00 AM 3.51 38.318 0.074 7.78 5.63 12.73
12/1/2022 1:15:00 AM 3.47 38.246 0.072 7.77 6.05 12.75
12/1/2022 1:30:00 AM 3.43 38.174 0.074 7.77 5.36 12.77
12/1/2022 1:45:00 AM 3.4 38.12 0.074 7.78 5.19 12.79
12/1/2022 2:00:00 AM 3.38 38.084 0.074 7.78 5.28 12.79
12/1/2022 2:15:00 AM 3.35 38.03 0.072 7.77 5.52 12.81
12/1/2022 2:30:00 AM 3.3 37.94 0.073 7.78 5.03 12.83
12/1/2022 2:45:00 AM 3.25 37.85 0.073 7.78 4.83 12.85
12/1/2022 3:00:00 AM 3.22 37.796 0.073 7.79 4.97 12.87
12/1/2022 3:15:00 AM 3.18 37.724 0.072 7.74 5.32 12.89
12/1/2022 3:30:00 AM 3.14 37.652 0.073 7.78 4.6 12.9
12/1/2022 3:45:00 AM 3.11 37.598 0.073 7.78 4.63 12.92
12/1/2022 4:00:00 AM 3.08 37.544 0.072 7.76 5.03 12.93
12/1/2022 4:15:00 AM 3.04 37.472 0.073 7.78 4.48 12.95
12/1/2022 4:30:00 AM 3.03 37.454 0.073 7.78 4.38 12.97
12/1/2022 4:45:00 AM 3 37.4 0.073 7.78 4.38 12.98
12/1/2022 5:00:00 AM 2.97 37.346 0.073 7.79 4.53 12.99
12/1/2022 5:15:00 AM 2.95 37.31 0.073 7.78 4.35 13.01
12/1/2022 5:30:00 AM 2.93 37.274 0.073 7.78 4.25 13.02
12/1/2022 5:45:00 AM 2.91 37.238 0.073 7.78 4.15 13.03
12/1/2022 6:00:00 AM 2.89 37.202 0.073 7.76 4.2 13.03
12/1/2022 6:15:00 AM 2.88 37.184 0.073 7.78 4 13.04
12/1/2022 6:30:00 AM 2.85 37.13 0.072 7.78 4.16 13.06
12/1/2022 6:45:00 AM 2.83 37.094 0.072 7.79 4.11 13.08
12/1/2022 7:00:00 AM 2.82 37.076 0.072 7.78 4.14 13.08
12/1/2022 7:15:00 AM 2.81 37.058 0.072 7.78 4.05 13.1
12/1/2022 7:30:00 AM 2.8 37.04 0.072 7.76 4.01 13.1
12/1/2022 7:45:00 AM 2.8 37.04 0.072 7.78 3.82 13.11
12/1/2022 8:00:00 AM 2.79 37.022 0.072 7.77 3.76 13.12
12/1/2022 8:15:00 AM 2.78 37.004 0.072 7.78 4.01 13.13
12/1/2022 8:30:00 AM 2.78 37.004 0.072 7.78 4.03 13.15
12/1/2022 8:45:00 AM 2.78 37.004 0.072 7.78 4 13.16
12/1/2022 9:00:00 AM 2.76 36.968 0.072 7.78 3.95 13.17
12/1/2022 9:15:00 AM 2.75 36.95 0.072 7.79 4.04 13.19
12/1/2022 9:30:00 AM 2.76 36.968 0.072 7.78 3.86 13.2
12/1/2022 9:45:00 AM 2.78 37.004 0.072 7.8 3.86 13.2
12/1/2022 10:00:00 AM 2.79 37.022 0.072 7.79 3.87 13.21
12/1/2022 10:15:00 AM 2.81 37.058 0.072 7.79 3.87 13.21
12/1/2022 10:30:00 AM 2.85 37.13 0.068 7.79 4.64 13.2
12/1/2022 10:45:00 AM 2.89 37.202 0.072 7.81 4.05 13.2
12/1/2022 11:00:00 AM 2.92 37.256 0.071 7.79 3.88 13.19
12/1/2022 11:15:00 AM 2.91 37.238 0.069 7.78 4.49 13.19
12/1/2022 11:30:00 AM 2.91 37.238 0.071 7.77 3.91 13.19
12/1/2022 11:45:00 AM 2.92 37.256 0.071 7.8 3.73 13.19
12/1/2022 12:00:00 PM 2.92 37.256 0.071 7.8 3.75 13.18
12/1/2022 12:15:00 PM 2.92 37.256 0.071 7.78 3.83 13.18
12/1/2022 12:30:00 PM 2.92 37.256 0.071 7.81 3.9 13.18
12/1/2022 12:45:00 PM 2.93 37.274 0.071 7.79 3.84 13.18
12/1/2022 1:00:00 PM 2.94 37.292 0.071 7.8 3.94 13.19
12/1/2022 1:15:00 PM 2.96 37.328 0.071 7.8 3.94 13.19
12/1/2022 1:30:00 PM 2.99 37.382 0.071 7.8 3.72 13.18
12/1/2022 1:45:00 PM 3 37.4 0.071 7.79 3.81 13.17
12/1/2022 2:00:00 PM 3.01 37.418 0.071 7.8 3.77 13.17
12/1/2022 2:15:00 PM 3.01 37.418 0.071 7.8 3.91 13.16
12/1/2022 2:30:00 PM 2.99 37.382 0.071 7.79 3.85 13.17
12/1/2022 2:45:00 PM 2.96 37.328 0.071 7.79 3.77 13.17
12/1/2022 3:00:00 PM 2.95 37.31 0.071 7.8 3.74 13.18
12/1/2022 3:15:00 PM 2.95 37.31 0.071 7.79 3.87 13.18
12/1/2022 3:30:00 PM 2.94 37.292 0.071 7.78 4.13 13.18
12/1/2022 3:45:00 PM 2.93 37.274 0.071 7.78 3.95 13.18
12/1/2022 4:00:00 PM 2.91 37.238 0.067 7.77 4.44 13.18
12/1/2022 4:15:00 PM 2.89 37.202 0.071 7.77 4.03 13.18
12/1/2022 4:30:00 PM 2.88 37.184 0.071 7.79 3.9 13.18
12/1/2022 4:45:00 PM 2.87 37.166 0.071 7.77 3.8 13.18
12/1/2022 5:00:00 PM 2.86 37.148 0.071 7.77 4.02 13.18
12/1/2022 5:15:00 PM 2.86 37.148 0.071 7.77 3.85 13.18
12/1/2022 5:30:00 PM 2.86 37.148 0.071 7.77 3.87 13.18
12/1/2022 5:45:00 PM 2.85 37.13 0.071 7.76 4.1 13.18
12/1/2022 6:00:00 PM 2.84 37.112 0.071 7.77 3.96 13.19
12/1/2022 6:15:00 PM 2.84 37.112 0.071 7.77 3.97 13.18
12/1/2022 6:30:00 PM 2.84 37.112 0.071 7.77 3.98 13.19
12/1/2022 6:45:00 PM 2.83 37.094 0.07 7.74 4.49 13.19
12/1/2022 7:00:00 PM 2.82 37.076 0.071 7.77 3.67 13.2
12/1/2022 7:15:00 PM 2.82 37.076 0.069 7.75 4.25 13.2
12/1/2022 7:30:00 PM 2.82 37.076 0.071 7.77 3.7 13.19
12/1/2022 7:45:00 PM 2.81 37.058 0.071 7.75 3.78 13.2
12/1/2022 8:00:00 PM 2.8 37.04 0.071 7.76 3.6 13.21
12/1/2022 8:15:00 PM 2.79 37.022 0.071 7.77 3.68 13.21
12/1/2022 8:30:00 PM 2.78 37.004 0.071 7.75 3.57 13.22
12/1/2022 8:45:00 PM 2.77 36.986 0.071 7.77 3.46 13.22
12/1/2022 9:00:00 PM 2.77 36.986 0.071 7.75 3.48 13.22
12/1/2022 9:15:00 PM 2.77 36.986 0.071 7.77 3.63 13.22
12/1/2022 9:30:00 PM 2.75 36.95 0.071 7.77 3.52 13.22
12/1/2022 9:45:00 PM 2.74 36.932 0.071 7.77 3.45 13.23
12/1/2022 10:00:00 PM 2.72 36.896 0.071 7.78 3.47 13.24
12/1/2022 10:15:00 PM 2.71 36.878 0.071 7.77 3.55 13.24
12/1/2022 10:30:00 PM 2.7 36.86 0.071 7.75 3.31 13.25
12/1/2022 10:45:00 PM 2.69 36.842 0.069 7.75 3.84 13.26
12/1/2022 11:00:00 PM 2.68 36.824 0.071 7.77 3.48 13.26
12/1/2022 11:15:00 PM 2.67 36.806 0.071 7.75 3.44 13.26
12/1/2022 11:30:00 PM 2.66 36.788 0.071 7.77 3.23 13.26
12/1/2022 11:45:00 PM 2.64 36.752 0.071 7.77 3.33 13.27
12/2/2022 12:00:00 AM 2.63 36.734 0.071 7.75 3.18 13.27
12/2/2022 12:15:00 AM 2.61 36.698 0.071 7.77 3.37 13.28
12/2/2022 12:30:00 AM 2.56 36.608 0.071 7.77 3.21 13.29
12/2/2022 12:45:00 AM 2.52 36.536 0.071 7.77 3.27 13.3
12/2/2022 1:00:00 AM 2.48 36.464 0.069 7.74 3.71 13.32
12/2/2022 1:15:00 AM 2.44 36.392 0.071 7.76 3.19 13.34
12/2/2022 1:30:00 AM 2.41 36.338 0.071 7.76 3.1 13.35
12/2/2022 1:45:00 AM 2.37 36.266 0.071 7.77 3.06 13.35
12/2/2022 2:00:00 AM 2.34 36.212 0.067 7.73 3.7 13.38
12/2/2022 2:15:00 AM 2.3 36.14 0.071 7.76 3.24 13.39
12/2/2022 2:30:00 AM 2.26 36.068 0.071 7.77 3.08 13.4
12/2/2022 2:45:00 AM 2.22 35.996 0.071 7.77 3.02 13.43
12/2/2022 3:00:00 AM 2.17 35.906 0.067 7.73 3.67 13.45
12/2/2022 3:15:00 AM 2.13 35.834 0.071 7.77 2.92 13.47
12/2/2022 3:30:00 AM 2.09 35.762 0.071 7.77 3 13.49
12/2/2022 3:45:00 AM 2.05 35.69 0.071 7.77 3 13.5
12/2/2022 4:00:00 AM 2.01 35.618 0.071 7.78 2.88 13.52
12/2/2022 4:15:00 AM 1.97 35.546 0.071 7.77 2.86 13.53
12/2/2022 4:30:00 AM 1.93 35.474 0.071 7.78 2.9 13.54
12/2/2022 4:45:00 AM 1.91 35.438 0.067 7.73 3.51 13.56
12/2/2022 5:00:00 AM 1.87 35.366 0.067 7.75 3.47 13.58
12/2/2022 5:15:00 AM 1.83 35.294 0.071 7.76 2.7 13.59
12/2/2022 5:30:00 AM 1.8 35.24 0.07 7.77 2.82 13.6
12/2/2022 5:45:00 AM 1.78 35.204 0.07 7.76 2.8 13.61
12/2/2022 6:00:00 AM 1.74 35.132 0.07 7.77 2.82 13.62
12/2/2022 6:15:00 AM 1.7 35.06 0.07 7.77 2.73 13.65
12/2/2022 6:30:00 AM 1.66 34.988 0.07 7.77 2.78 13.66
12/2/2022 6:45:00 AM 1.62 34.916 0.07 7.77 2.83 13.67
12/2/2022 7:00:00 AM 1.59 34.862 0.067 7.74 3.56 13.69
12/2/2022 7:15:00 AM 1.56 34.808 0.07 7.73 2.83 13.7
12/2/2022 7:30:00 AM 1.54 34.772 0.067 7.72 3.34 13.72
12/2/2022 7:45:00 AM 1.52 34.736 0.07 7.75 2.87 13.74
12/2/2022 8:00:00 AM 1.51 34.718 0.07 7.77 2.77 13.76
12/2/2022 8:15:00 AM 1.51 34.718 0.07 7.78 2.7 13.77
12/2/2022 8:30:00 AM 1.52 34.736 0.07 7.79 2.69 13.77
12/2/2022 8:45:00 AM 1.54 34.772 0.07 7.79 2.77 13.77
12/2/2022 9:00:00 AM 1.61 34.898 0.07 7.78 2.74 13.76
12/2/2022 9:15:00 AM 1.7 35.06 0.07 7.8 2.72 13.74
12/2/2022 9:30:00 AM 1.77 35.186 0.07 7.8 2.7 13.71
12/2/2022 9:45:00 AM 1.82 35.276 0.07 7.79 2.79 13.69
12/2/2022 10:00:00 AM 1.87 35.366 0.07 7.8 2.96 13.66
12/2/2022 10:15:00 AM 1.91 35.438 0.07 7.8 2.78 13.64
12/2/2022 10:30:00 AM 1.96 35.528 0.07 7.81 2.6 13.64
12/2/2022 10:45:00 AM 2.05 35.69 0.07 7.8 2.76 13.59
12/2/2022 11:00:00 AM 2.13 35.834 0.07 7.81 2.76 13.57
12/2/2022 11:15:00 AM 2.19 35.942 0.07 7.79 2.7 13.54
12/2/2022 11:30:00 AM 2.24 36.032 0.07 7.81 2.78 13.52
12/2/2022 11:45:00 AM 2.3 36.14 0.07 7.81 2.79 13.48
12/2/2022 12:00:00 PM 2.36 36.248 0.07 7.82 2.75 13.46
12/2/2022 12:15:00 PM 2.41 36.338 0.07 7.79 2.64 13.44
12/2/2022 12:30:00 PM 2.46 36.428 0.07 7.82 2.85 13.41
12/2/2022 12:45:00 PM 2.51 36.518 0.069 7.81 2.92 13.38
12/2/2022 1:00:00 PM 2.54 36.572 0.069 7.81 2.69 13.36
12/2/2022 1:15:00 PM 2.56 36.608 0.069 7.82 2.95 13.34
12/2/2022 1:30:00 PM 2.55 36.59 0.069 7.8 2.76 13.33
12/2/2022 1:45:00 PM 2.57 36.626 0.069 7.81 3.07 13.33
12/2/2022 2:00:00 PM 2.62 36.716 0.069 7.8 3.01 13.32

These are provisional data and have not been subject to a quality assurance process, but rather are the raw data reported by the instrument.
H: value is above sensor operating range
L: value is below sensor operating range
Offline: station is not reporting data
NC: parameter is not collected at site

Data Availability & Limitations

Uncertainty and potential for error can be associated with environmental monitoring data. Provisional data have not been subject to a quality assurance process, but rather are the raw data reported by the instrument. Data users are cautioned to consider carefully the provisional nature of the information before using it for decisions that concern personal or public safety or the conduct of business that involves substantial monetary or operational consequences.

Approved data are currently available by request by emailing: [email protected]. Approved data have been subject to a quality assurance process to correct for equipment or fouling drift. Data recorded during equipment malfunctions have been removed.

View Historical Stations that have been discontinued.